<?xml version="1.0" encoding="UTF-8"?>
<gpx version="1.0" creator="Trackator" xmlns:xsi="http://www.w3.org/2001/XMLSchema-instance" xmlns="http://www.topografix.com/GPX/1/0" xmlns:topografix="http://www.topografix.com/GPX/Private/TopoGrafix/0/1" xsi:schemaLocation="http://www.topografix.com/GPX/1/0 http://www.topografix.com/GPX/1/0/gpx.xsd http://www.topografix.com/GPX/Private/TopoGrafix/0/1 http://www.topografix.com/GPX/Private/TopoGrafix/0/1/topografix.xsd">
<metadata>
<link href="http://www.trackator.com">
<text>Trackator</text>
</link>
</metadata>
<time>2016-08-22T:28:19Z</time>
<trk>
<name>Track: </name>
<desc>Paragliding</desc>
<trkseg>
<trkpt lat="42.874276666666674" lon="-5.374033333333333">
<ele>1572</ele>
<time>2016-08-22T:28:19Z</time>
</trkpt>
<trkpt lat="42.874276666666674" lon="-5.374033333333333">
<ele>1572</ele>
<time>2016-08-22T17:28:21Z</time>
</trkpt>
<trkpt lat="42.874276666666674" lon="-5.374033333333333">
<ele>1572</ele>
<time>2016-08-22T17:28:23Z</time>
</trkpt>
<trkpt lat="42.874276666666674" lon="-5.374033333333333">
<ele>1572</ele>
<time>2016-08-22T17:28:25Z</time>
</trkpt>
<trkpt lat="42.874276666666674" lon="-5.374033333333333">
<ele>1572</ele>
<time>2016-08-22T17:28:27Z</time>
</trkpt>
<trkpt lat="42.874276666666674" lon="-5.374033333333333">
<ele>1572</ele>
<time>2016-08-22T17:28:29Z</time>
</trkpt>
<trkpt lat="42.87425499999999" lon="-5.374035">
<ele>1569</ele>
<time>2016-08-22T17:28:31Z</time>
</trkpt>
<trkpt lat="42.87425833333334" lon="-5.374033333333333">
<ele>1568</ele>
<time>2016-08-22T17:28:33Z</time>
</trkpt>
<trkpt lat="42.87425833333334" lon="-5.374033333333333">
<ele>1568</ele>
<time>2016-08-22T17:28:35Z</time>
</trkpt>
<trkpt lat="42.87425833333334" lon="-5.374033333333333">
<ele>1568</ele>
<time>2016-08-22T17:28:37Z</time>
</trkpt>
<trkpt lat="42.87425833333334" lon="-5.374033333333333">
<ele>1568</ele>
<time>2016-08-22T17:28:39Z</time>
</trkpt>
<trkpt lat="42.87425833333334" lon="-5.374033333333333">
<ele>1568</ele>
<time>2016-08-22T17:28:41Z</time>
</trkpt>
<trkpt lat="42.874273333333335" lon="-5.37404">
<ele>1569</ele>
<time>2016-08-22T17:28:43Z</time>
</trkpt>
<trkpt lat="42.874276666666674" lon="-5.374043333333333">
<ele>1570</ele>
<time>2016-08-22T17:28:45Z</time>
</trkpt>
<trkpt lat="42.87427833333333" lon="-5.374044999999999">
<ele>1571</ele>
<time>2016-08-22T17:28:47Z</time>
</trkpt>
<trkpt lat="42.87427833333333" lon="-5.374044999999999">
<ele>1571</ele>
<time>2016-08-22T17:28:49Z</time>
</trkpt>
<trkpt lat="42.87427833333333" lon="-5.374044999999999">
<ele>1571</ele>
<time>2016-08-22T17:28:51Z</time>
</trkpt>
<trkpt lat="42.87427833333333" lon="-5.374044999999999">
<ele>1571</ele>
<time>2016-08-22T17:28:53Z</time>
</trkpt>
<trkpt lat="42.87427833333333" lon="-5.374044999999999">
<ele>1571</ele>
<time>2016-08-22T17:28:55Z</time>
</trkpt>
<trkpt lat="42.87427833333333" lon="-5.374044999999999">
<ele>1571</ele>
<time>2016-08-22T17:28:57Z</time>
</trkpt>
<trkpt lat="42.87427833333333" lon="-5.374044999999999">
<ele>1571</ele>
<time>2016-08-22T17:28:59Z</time>
</trkpt>
<trkpt lat="42.87427833333333" lon="-5.374044999999999">
<ele>1571</ele>
<time>2016-08-22T17:29:01Z</time>
</trkpt>
<trkpt lat="42.87427833333333" lon="-5.374044999999999">
<ele>1571</ele>
<time>2016-08-22T17:29:03Z</time>
</trkpt>
<trkpt lat="42.87427833333333" lon="-5.374044999999999">
<ele>1571</ele>
<time>2016-08-22T17:29:05Z</time>
</trkpt>
<trkpt lat="42.87427833333333" lon="-5.374044999999999">
<ele>1571</ele>
<time>2016-08-22T17:29:07Z</time>
</trkpt>
<trkpt lat="42.87427833333333" lon="-5.374044999999999">
<ele>1571</ele>
<time>2016-08-22T17:29:09Z</time>
</trkpt>
<trkpt lat="42.87427833333333" lon="-5.374044999999999">
<ele>1571</ele>
<time>2016-08-22T17:29:11Z</time>
</trkpt>
<trkpt lat="42.87427833333333" lon="-5.374044999999999">
<ele>1571</ele>
<time>2016-08-22T17:29:13Z</time>
</trkpt>
<trkpt lat="42.87427833333333" lon="-5.374044999999999">
<ele>1571</ele>
<time>2016-08-22T17:29:15Z</time>
</trkpt>
<trkpt lat="42.87427833333333" lon="-5.374044999999999">
<ele>1571</ele>
<time>2016-08-22T17:29:17Z</time>
</trkpt>
<trkpt lat="42.87427833333333" lon="-5.374044999999999">
<ele>1571</ele>
<time>2016-08-22T17:29:19Z</time>
</trkpt>
<trkpt lat="42.87427833333333" lon="-5.374044999999999">
<ele>1571</ele>
<time>2016-08-22T17:29:21Z</time>
</trkpt>
<trkpt lat="42.87427833333333" lon="-5.374044999999999">
<ele>1571</ele>
<time>2016-08-22T17:29:23Z</time>
</trkpt>
<trkpt lat="42.87427833333333" lon="-5.374044999999999">
<ele>1571</ele>
<time>2016-08-22T17:29:25Z</time>
</trkpt>
<trkpt lat="42.87427833333333" lon="-5.374044999999999">
<ele>1571</ele>
<time>2016-08-22T17:29:27Z</time>
</trkpt>
<trkpt lat="42.87427833333333" lon="-5.374044999999999">
<ele>1571</ele>
<time>2016-08-22T17:29:29Z</time>
</trkpt>
<trkpt lat="42.87427833333333" lon="-5.374044999999999">
<ele>1571</ele>
<time>2016-08-22T17:29:31Z</time>
</trkpt>
<trkpt lat="42.87427833333333" lon="-5.374044999999999">
<ele>1571</ele>
<time>2016-08-22T17:29:33Z</time>
</trkpt>
<trkpt lat="42.87427833333333" lon="-5.374044999999999">
<ele>1571</ele>
<time>2016-08-22T17:29:35Z</time>
</trkpt>
<trkpt lat="42.87427833333333" lon="-5.374044999999999">
<ele>1571</ele>
<time>2016-08-22T17:29:37Z</time>
</trkpt>
<trkpt lat="42.87427833333333" lon="-5.374044999999999">
<ele>1571</ele>
<time>2016-08-22T17:29:39Z</time>
</trkpt>
<trkpt lat="42.87427833333333" lon="-5.374044999999999">
<ele>1571</ele>
<time>2016-08-22T17:29:41Z</time>
</trkpt>
<trkpt lat="42.87427833333333" lon="-5.374044999999999">
<ele>1571</ele>
<time>2016-08-22T17:29:43Z</time>
</trkpt>
<trkpt lat="42.87427833333333" lon="-5.374044999999999">
<ele>1571</ele>
<time>2016-08-22T17:29:45Z</time>
</trkpt>
<trkpt lat="42.87427833333333" lon="-5.374044999999999">
<ele>1571</ele>
<time>2016-08-22T17:29:47Z</time>
</trkpt>
<trkpt lat="42.87427833333333" lon="-5.374044999999999">
<ele>1571</ele>
<time>2016-08-22T17:29:49Z</time>
</trkpt>
<trkpt lat="42.87427833333333" lon="-5.374044999999999">
<ele>1571</ele>
<time>2016-08-22T17:29:51Z</time>
</trkpt>
<trkpt lat="42.87427833333333" lon="-5.374044999999999">
<ele>1571</ele>
<time>2016-08-22T17:29:53Z</time>
</trkpt>
<trkpt lat="42.87427833333333" lon="-5.374044999999999">
<ele>1571</ele>
<time>2016-08-22T17:29:55Z</time>
</trkpt>
<trkpt lat="42.87427833333333" lon="-5.374044999999999">
<ele>1571</ele>
<time>2016-08-22T17:29:57Z</time>
</trkpt>
<trkpt lat="42.87427833333333" lon="-5.374044999999999">
<ele>1571</ele>
<time>2016-08-22T17:29:59Z</time>
</trkpt>
<trkpt lat="42.87427833333333" lon="-5.374044999999999">
<ele>1571</ele>
<time>2016-08-22T17:30:03Z</time>
</trkpt>
<trkpt lat="42.87427833333333" lon="-5.374044999999999">
<ele>1571</ele>
<time>2016-08-22T17:30:05Z</time>
</trkpt>
<trkpt lat="42.87427833333333" lon="-5.374044999999999">
<ele>1571</ele>
<time>2016-08-22T17:30:07Z</time>
</trkpt>
<trkpt lat="42.87427833333333" lon="-5.374044999999999">
<ele>1571</ele>
<time>2016-08-22T17:30:09Z</time>
</trkpt>
<trkpt lat="42.87427833333333" lon="-5.374044999999999">
<ele>1571</ele>
<time>2016-08-22T17:30:11Z</time>
</trkpt>
<trkpt lat="42.87427833333333" lon="-5.374044999999999">
<ele>1571</ele>
<time>2016-08-22T17:30:13Z</time>
</trkpt>
<trkpt lat="42.87427833333333" lon="-5.374044999999999">
<ele>1571</ele>
<time>2016-08-22T17:30:15Z</time>
</trkpt>
<trkpt lat="42.87427833333333" lon="-5.374044999999999">
<ele>1571</ele>
<time>2016-08-22T17:30:17Z</time>
</trkpt>
<trkpt lat="42.87427833333333" lon="-5.374044999999999">
<ele>1571</ele>
<time>2016-08-22T17:30:19Z</time>
</trkpt>
<trkpt lat="42.87427833333333" lon="-5.374044999999999">
<ele>1571</ele>
<time>2016-08-22T17:30:21Z</time>
</trkpt>
<trkpt lat="42.87427833333333" lon="-5.374044999999999">
<ele>1571</ele>
<time>2016-08-22T17:30:23Z</time>
</trkpt>
<trkpt lat="42.87427833333333" lon="-5.374044999999999">
<ele>1571</ele>
<time>2016-08-22T17:30:25Z</time>
</trkpt>
<trkpt lat="42.87427833333333" lon="-5.374044999999999">
<ele>1571</ele>
<time>2016-08-22T17:30:27Z</time>
</trkpt>
<trkpt lat="42.87427833333333" lon="-5.374044999999999">
<ele>1571</ele>
<time>2016-08-22T17:30:29Z</time>
</trkpt>
<trkpt lat="42.87427833333333" lon="-5.374044999999999">
<ele>1571</ele>
<time>2016-08-22T17:30:31Z</time>
</trkpt>
<trkpt lat="42.87427833333333" lon="-5.374044999999999">
<ele>1571</ele>
<time>2016-08-22T17:30:33Z</time>
</trkpt>
<trkpt lat="42.87427833333333" lon="-5.374044999999999">
<ele>1571</ele>
<time>2016-08-22T17:30:35Z</time>
</trkpt>
<trkpt lat="42.87427833333333" lon="-5.374044999999999">
<ele>1571</ele>
<time>2016-08-22T17:30:37Z</time>
</trkpt>
<trkpt lat="42.87427833333333" lon="-5.374044999999999">
<ele>1571</ele>
<time>2016-08-22T17:30:39Z</time>
</trkpt>
<trkpt lat="42.87427833333333" lon="-5.374044999999999">
<ele>1571</ele>
<time>2016-08-22T17:30:41Z</time>
</trkpt>
<trkpt lat="42.87427833333333" lon="-5.374044999999999">
<ele>1571</ele>
<time>2016-08-22T17:30:43Z</time>
</trkpt>
<trkpt lat="42.87427833333333" lon="-5.374044999999999">
<ele>1571</ele>
<time>2016-08-22T17:30:45Z</time>
</trkpt>
<trkpt lat="42.87427833333333" lon="-5.374044999999999">
<ele>1571</ele>
<time>2016-08-22T17:30:47Z</time>
</trkpt>
<trkpt lat="42.87427833333333" lon="-5.374044999999999">
<ele>1571</ele>
<time>2016-08-22T17:30:49Z</time>
</trkpt>
<trkpt lat="42.87427833333333" lon="-5.374044999999999">
<ele>1571</ele>
<time>2016-08-22T17:30:51Z</time>
</trkpt>
<trkpt lat="42.87427833333333" lon="-5.374044999999999">
<ele>1571</ele>
<time>2016-08-22T17:30:53Z</time>
</trkpt>
<trkpt lat="42.87427833333333" lon="-5.374044999999999">
<ele>1571</ele>
<time>2016-08-22T17:30:55Z</time>
</trkpt>
<trkpt lat="42.87427833333333" lon="-5.374044999999999">
<ele>1571</ele>
<time>2016-08-22T17:30:57Z</time>
</trkpt>
<trkpt lat="42.87427833333333" lon="-5.374044999999999">
<ele>1571</ele>
<time>2016-08-22T17:30:59Z</time>
</trkpt>
<trkpt lat="42.87427833333333" lon="-5.374044999999999">
<ele>1571</ele>
<time>2016-08-22T17:31:01Z</time>
</trkpt>
<trkpt lat="42.87427833333333" lon="-5.374044999999999">
<ele>1571</ele>
<time>2016-08-22T17:31:03Z</time>
</trkpt>
<trkpt lat="42.87427833333333" lon="-5.374044999999999">
<ele>1571</ele>
<time>2016-08-22T17:31:05Z</time>
</trkpt>
<trkpt lat="42.87427833333333" lon="-5.374044999999999">
<ele>1571</ele>
<time>2016-08-22T17:31:07Z</time>
</trkpt>
<trkpt lat="42.87427833333333" lon="-5.374044999999999">
<ele>1571</ele>
<time>2016-08-22T17:31:09Z</time>
</trkpt>
<trkpt lat="42.874363333333335" lon="-5.374101666666666">
<ele>1574</ele>
<time>2016-08-22T17:31:11Z</time>
</trkpt>
<trkpt lat="42.87436833333333" lon="-5.374101666666666">
<ele>1574</ele>
<time>2016-08-22T17:31:13Z</time>
</trkpt>
<trkpt lat="42.87436833333333" lon="-5.374101666666666">
<ele>1574</ele>
<time>2016-08-22T17:31:15Z</time>
</trkpt>
<trkpt lat="42.87436833333333" lon="-5.374101666666666">
<ele>1574</ele>
<time>2016-08-22T17:31:17Z</time>
</trkpt>
<trkpt lat="42.87436833333333" lon="-5.374101666666666">
<ele>1574</ele>
<time>2016-08-22T17:31:19Z</time>
</trkpt>
<trkpt lat="42.87436833333333" lon="-5.374101666666666">
<ele>1574</ele>
<time>2016-08-22T17:31:21Z</time>
</trkpt>
<trkpt lat="42.87436833333333" lon="-5.374101666666666">
<ele>1574</ele>
<time>2016-08-22T17:31:23Z</time>
</trkpt>
<trkpt lat="42.87436833333333" lon="-5.374101666666666">
<ele>1574</ele>
<time>2016-08-22T17:31:25Z</time>
</trkpt>
<trkpt lat="42.87436833333333" lon="-5.374101666666666">
<ele>1574</ele>
<time>2016-08-22T17:31:27Z</time>
</trkpt>
<trkpt lat="42.87436833333333" lon="-5.374101666666666">
<ele>1574</ele>
<time>2016-08-22T17:31:29Z</time>
</trkpt>
<trkpt lat="42.87436833333333" lon="-5.374101666666666">
<ele>1574</ele>
<time>2016-08-22T17:31:31Z</time>
</trkpt>
<trkpt lat="42.87436833333333" lon="-5.374101666666666">
<ele>1574</ele>
<time>2016-08-22T17:31:33Z</time>
</trkpt>
<trkpt lat="42.87436833333333" lon="-5.374101666666666">
<ele>1574</ele>
<time>2016-08-22T17:31:35Z</time>
</trkpt>
<trkpt lat="42.874316666666665" lon="-5.37398">
<ele>1585</ele>
<time>2016-08-22T17:31:37Z</time>
</trkpt>
<trkpt lat="42.874295" lon="-5.373978333333334">
<ele>1580</ele>
<time>2016-08-22T17:31:39Z</time>
</trkpt>
<trkpt lat="42.874295" lon="-5.373978333333334">
<ele>1580</ele>
<time>2016-08-22T17:31:41Z</time>
</trkpt>
<trkpt lat="42.874295" lon="-5.373978333333334">
<ele>1580</ele>
<time>2016-08-22T17:31:43Z</time>
</trkpt>
<trkpt lat="42.874295" lon="-5.373978333333334">
<ele>1580</ele>
<time>2016-08-22T17:31:45Z</time>
</trkpt>
<trkpt lat="42.874295" lon="-5.373978333333334">
<ele>1580</ele>
<time>2016-08-22T17:31:47Z</time>
</trkpt>
<trkpt lat="42.874295" lon="-5.373978333333334">
<ele>1580</ele>
<time>2016-08-22T17:31:49Z</time>
</trkpt>
<trkpt lat="42.874295" lon="-5.373978333333334">
<ele>1580</ele>
<time>2016-08-22T17:31:51Z</time>
</trkpt>
<trkpt lat="42.874295" lon="-5.373978333333334">
<ele>1580</ele>
<time>2016-08-22T17:31:53Z</time>
</trkpt>
<trkpt lat="42.874295" lon="-5.373978333333334">
<ele>1580</ele>
<time>2016-08-22T17:31:55Z</time>
</trkpt>
<trkpt lat="42.874295" lon="-5.373978333333334">
<ele>1580</ele>
<time>2016-08-22T17:31:57Z</time>
</trkpt>
<trkpt lat="42.874295" lon="-5.373978333333334">
<ele>1580</ele>
<time>2016-08-22T17:31:59Z</time>
</trkpt>
<trkpt lat="42.874295" lon="-5.373978333333334">
<ele>1580</ele>
<time>2016-08-22T17:32:01Z</time>
</trkpt>
<trkpt lat="42.874295" lon="-5.373978333333334">
<ele>1580</ele>
<time>2016-08-22T17:32:03Z</time>
</trkpt>
<trkpt lat="42.874295" lon="-5.373978333333334">
<ele>1580</ele>
<time>2016-08-22T17:32:05Z</time>
</trkpt>
<trkpt lat="42.874295" lon="-5.373978333333334">
<ele>1580</ele>
<time>2016-08-22T17:32:07Z</time>
</trkpt>
<trkpt lat="42.874295" lon="-5.373978333333334">
<ele>1580</ele>
<time>2016-08-22T17:32:09Z</time>
</trkpt>
<trkpt lat="42.874295" lon="-5.373978333333334">
<ele>1580</ele>
<time>2016-08-22T17:32:11Z</time>
</trkpt>
<trkpt lat="42.874295" lon="-5.373978333333334">
<ele>1580</ele>
<time>2016-08-22T17:32:13Z</time>
</trkpt>
<trkpt lat="42.874295" lon="-5.373978333333334">
<ele>1580</ele>
<time>2016-08-22T17:32:15Z</time>
</trkpt>
<trkpt lat="42.874295" lon="-5.373978333333334">
<ele>1580</ele>
<time>2016-08-22T17:32:17Z</time>
</trkpt>
<trkpt lat="42.874295" lon="-5.373978333333334">
<ele>1580</ele>
<time>2016-08-22T17:32:19Z</time>
</trkpt>
<trkpt lat="42.874295" lon="-5.373978333333334">
<ele>1580</ele>
<time>2016-08-22T17:32:21Z</time>
</trkpt>
<trkpt lat="42.874295" lon="-5.373978333333334">
<ele>1580</ele>
<time>2016-08-22T17:32:23Z</time>
</trkpt>
<trkpt lat="42.874295" lon="-5.373978333333334">
<ele>1580</ele>
<time>2016-08-22T17:32:25Z</time>
</trkpt>
<trkpt lat="42.874295" lon="-5.373978333333334">
<ele>1580</ele>
<time>2016-08-22T17:32:27Z</time>
</trkpt>
<trkpt lat="42.874295" lon="-5.373978333333334">
<ele>1580</ele>
<time>2016-08-22T17:32:29Z</time>
</trkpt>
<trkpt lat="42.874295" lon="-5.373978333333334">
<ele>1580</ele>
<time>2016-08-22T17:32:31Z</time>
</trkpt>
<trkpt lat="42.874295" lon="-5.373978333333334">
<ele>1580</ele>
<time>2016-08-22T17:32:33Z</time>
</trkpt>
<trkpt lat="42.874295" lon="-5.373978333333334">
<ele>1580</ele>
<time>2016-08-22T17:32:35Z</time>
</trkpt>
<trkpt lat="42.874295" lon="-5.373978333333334">
<ele>1580</ele>
<time>2016-08-22T17:32:37Z</time>
</trkpt>
<trkpt lat="42.874295" lon="-5.373978333333334">
<ele>1580</ele>
<time>2016-08-22T17:32:39Z</time>
</trkpt>
<trkpt lat="42.874295" lon="-5.373978333333334">
<ele>1580</ele>
<time>2016-08-22T17:32:41Z</time>
</trkpt>
<trkpt lat="42.874295" lon="-5.373978333333334">
<ele>1580</ele>
<time>2016-08-22T17:32:43Z</time>
</trkpt>
<trkpt lat="42.874295" lon="-5.373978333333334">
<ele>1580</ele>
<time>2016-08-22T17:32:45Z</time>
</trkpt>
<trkpt lat="42.874295" lon="-5.373978333333334">
<ele>1580</ele>
<time>2016-08-22T17:32:47Z</time>
</trkpt>
<trkpt lat="42.874295" lon="-5.373978333333334">
<ele>1580</ele>
<time>2016-08-22T17:32:49Z</time>
</trkpt>
<trkpt lat="42.874295" lon="-5.373978333333334">
<ele>1580</ele>
<time>2016-08-22T17:32:51Z</time>
</trkpt>
<trkpt lat="42.874295" lon="-5.373978333333334">
<ele>1580</ele>
<time>2016-08-22T17:32:53Z</time>
</trkpt>
<trkpt lat="42.874295" lon="-5.373978333333334">
<ele>1580</ele>
<time>2016-08-22T17:32:55Z</time>
</trkpt>
<trkpt lat="42.874295" lon="-5.373978333333334">
<ele>1580</ele>
<time>2016-08-22T17:32:57Z</time>
</trkpt>
<trkpt lat="42.874295" lon="-5.373978333333334">
<ele>1580</ele>
<time>2016-08-22T17:32:59Z</time>
</trkpt>
<trkpt lat="42.874295" lon="-5.373978333333334">
<ele>1580</ele>
<time>2016-08-22T17:33:01Z</time>
</trkpt>
<trkpt lat="42.874295" lon="-5.373978333333334">
<ele>1580</ele>
<time>2016-08-22T17:33:03Z</time>
</trkpt>
<trkpt lat="42.874295" lon="-5.373978333333334">
<ele>1580</ele>
<time>2016-08-22T17:33:05Z</time>
</trkpt>
<trkpt lat="42.874295" lon="-5.373978333333334">
<ele>1580</ele>
<time>2016-08-22T17:33:07Z</time>
</trkpt>
<trkpt lat="42.874295" lon="-5.373978333333334">
<ele>1580</ele>
<time>2016-08-22T17:33:09Z</time>
</trkpt>
<trkpt lat="42.874295" lon="-5.373978333333334">
<ele>1580</ele>
<time>2016-08-22T17:33:11Z</time>
</trkpt>
<trkpt lat="42.874295" lon="-5.373978333333334">
<ele>1580</ele>
<time>2016-08-22T17:33:13Z</time>
</trkpt>
<trkpt lat="42.874295" lon="-5.373978333333334">
<ele>1580</ele>
<time>2016-08-22T17:33:15Z</time>
</trkpt>
<trkpt lat="42.874295" lon="-5.373978333333334">
<ele>1580</ele>
<time>2016-08-22T17:33:17Z</time>
</trkpt>
<trkpt lat="42.874295" lon="-5.373978333333334">
<ele>1580</ele>
<time>2016-08-22T17:33:19Z</time>
</trkpt>
<trkpt lat="42.874295" lon="-5.373978333333334">
<ele>1580</ele>
<time>2016-08-22T17:33:21Z</time>
</trkpt>
<trkpt lat="42.874295" lon="-5.373978333333334">
<ele>1580</ele>
<time>2016-08-22T17:33:23Z</time>
</trkpt>
<trkpt lat="42.874295" lon="-5.373978333333334">
<ele>1580</ele>
<time>2016-08-22T17:33:25Z</time>
</trkpt>
<trkpt lat="42.874295" lon="-5.373978333333334">
<ele>1580</ele>
<time>2016-08-22T17:33:27Z</time>
</trkpt>
<trkpt lat="42.874295" lon="-5.373978333333334">
<ele>1580</ele>
<time>2016-08-22T17:33:29Z</time>
</trkpt>
<trkpt lat="42.874295" lon="-5.373978333333334">
<ele>1580</ele>
<time>2016-08-22T17:33:31Z</time>
</trkpt>
<trkpt lat="42.874295" lon="-5.373978333333334">
<ele>1580</ele>
<time>2016-08-22T17:33:33Z</time>
</trkpt>
<trkpt lat="42.874295" lon="-5.373978333333334">
<ele>1580</ele>
<time>2016-08-22T17:33:35Z</time>
</trkpt>
<trkpt lat="42.874295" lon="-5.373978333333334">
<ele>1580</ele>
<time>2016-08-22T17:33:37Z</time>
</trkpt>
<trkpt lat="42.874295" lon="-5.373978333333334">
<ele>1580</ele>
<time>2016-08-22T17:33:39Z</time>
</trkpt>
<trkpt lat="42.874295" lon="-5.373978333333334">
<ele>1580</ele>
<time>2016-08-22T17:33:41Z</time>
</trkpt>
<trkpt lat="42.874295" lon="-5.373978333333334">
<ele>1580</ele>
<time>2016-08-22T17:33:43Z</time>
</trkpt>
<trkpt lat="42.874295" lon="-5.373978333333334">
<ele>1580</ele>
<time>2016-08-22T17:33:45Z</time>
</trkpt>
<trkpt lat="42.874295" lon="-5.373978333333334">
<ele>1580</ele>
<time>2016-08-22T17:33:47Z</time>
</trkpt>
<trkpt lat="42.874295" lon="-5.373978333333334">
<ele>1580</ele>
<time>2016-08-22T17:33:49Z</time>
</trkpt>
<trkpt lat="42.874295" lon="-5.373978333333334">
<ele>1580</ele>
<time>2016-08-22T17:33:51Z</time>
</trkpt>
<trkpt lat="42.874295" lon="-5.373978333333334">
<ele>1580</ele>
<time>2016-08-22T17:33:53Z</time>
</trkpt>
<trkpt lat="42.874295" lon="-5.373978333333334">
<ele>1580</ele>
<time>2016-08-22T17:33:55Z</time>
</trkpt>
<trkpt lat="42.874295" lon="-5.373978333333334">
<ele>1580</ele>
<time>2016-08-22T17:33:57Z</time>
</trkpt>
<trkpt lat="42.874295" lon="-5.373978333333334">
<ele>1580</ele>
<time>2016-08-22T17:33:59Z</time>
</trkpt>
<trkpt lat="42.874295" lon="-5.373978333333334">
<ele>1580</ele>
<time>2016-08-22T17:34:01Z</time>
</trkpt>
<trkpt lat="42.874295" lon="-5.373978333333334">
<ele>1580</ele>
<time>2016-08-22T17:34:03Z</time>
</trkpt>
<trkpt lat="42.874295" lon="-5.373978333333334">
<ele>1580</ele>
<time>2016-08-22T17:34:05Z</time>
</trkpt>
<trkpt lat="42.874295" lon="-5.373978333333334">
<ele>1580</ele>
<time>2016-08-22T17:34:07Z</time>
</trkpt>
<trkpt lat="42.874295" lon="-5.373978333333334">
<ele>1580</ele>
<time>2016-08-22T17:34:09Z</time>
</trkpt>
<trkpt lat="42.874295" lon="-5.373978333333334">
<ele>1580</ele>
<time>2016-08-22T17:34:11Z</time>
</trkpt>
<trkpt lat="42.874295" lon="-5.373978333333334">
<ele>1580</ele>
<time>2016-08-22T17:34:13Z</time>
</trkpt>
<trkpt lat="42.874295" lon="-5.373978333333334">
<ele>1580</ele>
<time>2016-08-22T17:34:15Z</time>
</trkpt>
<trkpt lat="42.874295" lon="-5.373978333333334">
<ele>1580</ele>
<time>2016-08-22T17:34:17Z</time>
</trkpt>
<trkpt lat="42.874295" lon="-5.373978333333334">
<ele>1580</ele>
<time>2016-08-22T17:34:19Z</time>
</trkpt>
<trkpt lat="42.874295" lon="-5.373978333333334">
<ele>1580</ele>
<time>2016-08-22T17:34:21Z</time>
</trkpt>
<trkpt lat="42.874295" lon="-5.373978333333334">
<ele>1580</ele>
<time>2016-08-22T17:34:23Z</time>
</trkpt>
<trkpt lat="42.874295" lon="-5.373978333333334">
<ele>1580</ele>
<time>2016-08-22T17:34:25Z</time>
</trkpt>
<trkpt lat="42.874295" lon="-5.373978333333334">
<ele>1580</ele>
<time>2016-08-22T17:34:27Z</time>
</trkpt>
<trkpt lat="42.874295" lon="-5.373978333333334">
<ele>1580</ele>
<time>2016-08-22T17:34:29Z</time>
</trkpt>
<trkpt lat="42.874295" lon="-5.373978333333334">
<ele>1580</ele>
<time>2016-08-22T17:34:31Z</time>
</trkpt>
<trkpt lat="42.874295" lon="-5.373978333333334">
<ele>1580</ele>
<time>2016-08-22T17:34:33Z</time>
</trkpt>
<trkpt lat="42.874295" lon="-5.373978333333334">
<ele>1580</ele>
<time>2016-08-22T17:34:35Z</time>
</trkpt>
<trkpt lat="42.874295" lon="-5.373978333333334">
<ele>1580</ele>
<time>2016-08-22T17:34:37Z</time>
</trkpt>
<trkpt lat="42.874295" lon="-5.373978333333334">
<ele>1580</ele>
<time>2016-08-22T17:34:39Z</time>
</trkpt>
<trkpt lat="42.874295" lon="-5.373978333333334">
<ele>1580</ele>
<time>2016-08-22T17:34:41Z</time>
</trkpt>
<trkpt lat="42.874295" lon="-5.373978333333334">
<ele>1580</ele>
<time>2016-08-22T17:34:43Z</time>
</trkpt>
<trkpt lat="42.874295" lon="-5.373978333333334">
<ele>1580</ele>
<time>2016-08-22T17:34:45Z</time>
</trkpt>
<trkpt lat="42.874295" lon="-5.373978333333334">
<ele>1580</ele>
<time>2016-08-22T17:34:47Z</time>
</trkpt>
<trkpt lat="42.874295" lon="-5.373978333333334">
<ele>1580</ele>
<time>2016-08-22T17:34:49Z</time>
</trkpt>
<trkpt lat="42.874295" lon="-5.373978333333334">
<ele>1580</ele>
<time>2016-08-22T17:34:51Z</time>
</trkpt>
<trkpt lat="42.874295" lon="-5.373978333333334">
<ele>1580</ele>
<time>2016-08-22T17:34:53Z</time>
</trkpt>
<trkpt lat="42.874295" lon="-5.373978333333334">
<ele>1580</ele>
<time>2016-08-22T17:34:55Z</time>
</trkpt>
<trkpt lat="42.874295" lon="-5.373978333333334">
<ele>1580</ele>
<time>2016-08-22T17:34:57Z</time>
</trkpt>
<trkpt lat="42.874295" lon="-5.373978333333334">
<ele>1580</ele>
<time>2016-08-22T17:34:59Z</time>
</trkpt>
<trkpt lat="42.874295" lon="-5.373978333333334">
<ele>1580</ele>
<time>2016-08-22T17:35:01Z</time>
</trkpt>
<trkpt lat="42.874295" lon="-5.373978333333334">
<ele>1580</ele>
<time>2016-08-22T17:35:03Z</time>
</trkpt>
<trkpt lat="42.874271666666665" lon="-5.373963333333334">
<ele>1574</ele>
<time>2016-08-22T17:35:05Z</time>
</trkpt>
<trkpt lat="42.874253333333336" lon="-5.373951666666667">
<ele>1571</ele>
<time>2016-08-22T17:35:07Z</time>
</trkpt>
<trkpt lat="42.874245" lon="-5.373945">
<ele>1569</ele>
<time>2016-08-22T17:35:09Z</time>
</trkpt>
<trkpt lat="42.874231666666674" lon="-5.373945">
<ele>1566</ele>
<time>2016-08-22T17:35:11Z</time>
</trkpt>
<trkpt lat="42.874228333333335" lon="-5.373953333333333">
<ele>1565</ele>
<time>2016-08-22T17:35:13Z</time>
</trkpt>
<trkpt lat="42.874228333333335" lon="-5.373953333333333">
<ele>1565</ele>
<time>2016-08-22T17:35:15Z</time>
</trkpt>
<trkpt lat="42.874228333333335" lon="-5.373953333333333">
<ele>1565</ele>
<time>2016-08-22T17:35:17Z</time>
</trkpt>
<trkpt lat="42.874228333333335" lon="-5.373953333333333">
<ele>1565</ele>
<time>2016-08-22T17:35:19Z</time>
</trkpt>
<trkpt lat="42.874228333333335" lon="-5.373953333333333">
<ele>1565</ele>
<time>2016-08-22T17:35:21Z</time>
</trkpt>
<trkpt lat="42.874228333333335" lon="-5.373953333333333">
<ele>1565</ele>
<time>2016-08-22T17:35:23Z</time>
</trkpt>
<trkpt lat="42.874175" lon="-5.373981666666666">
<ele>1561</ele>
<time>2016-08-22T17:35:25Z</time>
</trkpt>
<trkpt lat="42.87414333333333" lon="-5.373963333333334">
<ele>1563</ele>
<time>2016-08-22T17:35:27Z</time>
</trkpt>
<trkpt lat="42.874026666666666" lon="-5.373898333333333">
<ele>1563</ele>
<time>2016-08-22T17:35:29Z</time>
</trkpt>
<trkpt lat="42.87383666666666" lon="-5.3738">
<ele>1567</ele>
<time>2016-08-22T17:35:31Z</time>
</trkpt>
<trkpt lat="42.87373833333333" lon="-5.373715000000001">
<ele>1570</ele>
<time>2016-08-22T17:35:33Z</time>
</trkpt>
<trkpt lat="42.87365499999999" lon="-5.373723333333333">
<ele>1571</ele>
<time>2016-08-22T17:35:35Z</time>
</trkpt>
<trkpt lat="42.87352166666666" lon="-5.373821666666667">
<ele>1569</ele>
<time>2016-08-22T17:35:37Z</time>
</trkpt>
<trkpt lat="42.873360000000005" lon="-5.373978333333334">
<ele>1567</ele>
<time>2016-08-22T17:35:39Z</time>
</trkpt>
<trkpt lat="42.87327833333334" lon="-5.374156666666666">
<ele>1566</ele>
<time>2016-08-22T17:35:41Z</time>
</trkpt>
<trkpt lat="42.87325166666666" lon="-5.374340000000001">
<ele>1566</ele>
<time>2016-08-22T17:35:43Z</time>
</trkpt>
<trkpt lat="42.87321" lon="-5.374516666666667">
<ele>1566</ele>
<time>2016-08-22T17:35:45Z</time>
</trkpt>
<trkpt lat="42.873126666666664" lon="-5.3746866666666655">
<ele>1566</ele>
<time>2016-08-22T17:35:47Z</time>
</trkpt>
<trkpt lat="42.873036666666664" lon="-5.374795000000001">
<ele>1567</ele>
<time>2016-08-22T17:35:49Z</time>
</trkpt>
<trkpt lat="42.87296" lon="-5.374861666666667">
<ele>1566</ele>
<time>2016-08-22T17:35:51Z</time>
</trkpt>
<trkpt lat="42.872885" lon="-5.3748483333333334">
<ele>1567</ele>
<time>2016-08-22T17:35:53Z</time>
</trkpt>
<trkpt lat="42.872841666666666" lon="-5.374693333333332">
<ele>1567</ele>
<time>2016-08-22T17:35:55Z</time>
</trkpt>
<trkpt lat="42.87283833333333" lon="-5.374463333333334">
<ele>1565</ele>
<time>2016-08-22T17:35:57Z</time>
</trkpt>
<trkpt lat="42.87297" lon="-5.374288333333334">
<ele>1565</ele>
<time>2016-08-22T17:35:59Z</time>
</trkpt>
<trkpt lat="42.873178333333335" lon="-5.374103333333333">
<ele>1564</ele>
<time>2016-08-22T17:36:01Z</time>
</trkpt>
<trkpt lat="42.873349999999995" lon="-5.373878333333333">
<ele>1564</ele>
<time>2016-08-22T17:36:03Z</time>
</trkpt>
<trkpt lat="42.87351" lon="-5.3736749999999995">
<ele>1564</ele>
<time>2016-08-22T17:36:05Z</time>
</trkpt>
<trkpt lat="42.873615" lon="-5.373493333333332">
<ele>1563</ele>
<time>2016-08-22T17:36:07Z</time>
</trkpt>
<trkpt lat="42.87359" lon="-5.373306666666667">
<ele>1563</ele>
<time>2016-08-22T17:36:09Z</time>
</trkpt>
<trkpt lat="42.8735" lon="-5.373231666666667">
<ele>1563</ele>
<time>2016-08-22T17:36:11Z</time>
</trkpt>
<trkpt lat="42.87341500000001" lon="-5.373271666666667">
<ele>1561</ele>
<time>2016-08-22T17:36:13Z</time>
</trkpt>
<trkpt lat="42.873459999999994" lon="-5.373465">
<ele>1560</ele>
<time>2016-08-22T17:36:15Z</time>
</trkpt>
<trkpt lat="42.873486666666665" lon="-5.373706666666667">
<ele>1559</ele>
<time>2016-08-22T17:36:17Z</time>
</trkpt>
<trkpt lat="42.87348999999999" lon="-5.373995">
<ele>1560</ele>
<time>2016-08-22T17:36:19Z</time>
</trkpt>
<trkpt lat="42.873425" lon="-5.374181666666668">
<ele>1560</ele>
<time>2016-08-22T17:36:21Z</time>
</trkpt>
<trkpt lat="42.87321166666667" lon="-5.3742616666666665">
<ele>1562</ele>
<time>2016-08-22T17:36:23Z</time>
</trkpt>
<trkpt lat="42.87305666666666" lon="-5.374328333333334">
<ele>1562</ele>
<time>2016-08-22T17:36:25Z</time>
</trkpt>
<trkpt lat="42.87293666666666" lon="-5.374411666666666">
<ele>1562</ele>
<time>2016-08-22T17:36:27Z</time>
</trkpt>
<trkpt lat="42.87281666666666" lon="-5.374481666666666">
<ele>1561</ele>
<time>2016-08-22T17:36:29Z</time>
</trkpt>
<trkpt lat="42.87268000000001" lon="-5.374603333333332">
<ele>1561</ele>
<time>2016-08-22T17:36:31Z</time>
</trkpt>
<trkpt lat="42.87256333333333" lon="-5.3747050000000005">
<ele>1560</ele>
<time>2016-08-22T17:36:33Z</time>
</trkpt>
<trkpt lat="42.87246666666667" lon="-5.374771666666667">
<ele>1560</ele>
<time>2016-08-22T17:36:35Z</time>
</trkpt>
<trkpt lat="42.872368333333334" lon="-5.3748933333333335">
<ele>1559</ele>
<time>2016-08-22T17:36:37Z</time>
</trkpt>
<trkpt lat="42.87228333333334" lon="-5.375066666666667">
<ele>1557</ele>
<time>2016-08-22T17:36:39Z</time>
</trkpt>
<trkpt lat="42.87220333333333" lon="-5.375229999999999">
<ele>1556</ele>
<time>2016-08-22T17:36:41Z</time>
</trkpt>
<trkpt lat="42.872123333333334" lon="-5.375398333333334">
<ele>1556</ele>
<time>2016-08-22T17:36:43Z</time>
</trkpt>
<trkpt lat="42.872080000000004" lon="-5.375591666666666">
<ele>1555</ele>
<time>2016-08-22T17:36:45Z</time>
</trkpt>
<trkpt lat="42.87208666666667" lon="-5.375753333333334">
<ele>1555</ele>
<time>2016-08-22T17:36:47Z</time>
</trkpt>
<trkpt lat="42.87205666666667" lon="-5.375896666666667">
<ele>1555</ele>
<time>2016-08-22T17:36:49Z</time>
</trkpt>
<trkpt lat="42.871965" lon="-5.3759933333333345">
<ele>1554</ele>
<time>2016-08-22T17:36:51Z</time>
</trkpt>
<trkpt lat="42.871885000000006" lon="-5.376104999999999">
<ele>1554</ele>
<time>2016-08-22T17:36:53Z</time>
</trkpt>
<trkpt lat="42.871815" lon="-5.376255">
<ele>1553</ele>
<time>2016-08-22T17:36:55Z</time>
</trkpt>
<trkpt lat="42.871748333333336" lon="-5.376456666666667">
<ele>1553</ele>
<time>2016-08-22T17:36:57Z</time>
</trkpt>
<trkpt lat="42.87173500000001" lon="-5.376673333333334">
<ele>1552</ele>
<time>2016-08-22T17:36:59Z</time>
</trkpt>
<trkpt lat="42.87173833333333" lon="-5.376829999999999">
<ele>1552</ele>
<time>2016-08-22T17:37:01Z</time>
</trkpt>
<trkpt lat="42.87167666666666" lon="-5.376936666666667">
<ele>1551</ele>
<time>2016-08-22T17:37:03Z</time>
</trkpt>
<trkpt lat="42.871579999999994" lon="-5.37698">
<ele>1551</ele>
<time>2016-08-22T17:37:05Z</time>
</trkpt>
<trkpt lat="42.87145666666667" lon="-5.376814999999999">
<ele>1550</ele>
<time>2016-08-22T17:37:07Z</time>
</trkpt>
<trkpt lat="42.87146166666666" lon="-5.376555">
<ele>1549</ele>
<time>2016-08-22T17:37:09Z</time>
</trkpt>
<trkpt lat="42.87150166666667" lon="-5.376216666666666">
<ele>1548</ele>
<time>2016-08-22T17:37:11Z</time>
</trkpt>
<trkpt lat="42.871536666666664" lon="-5.375946666666666">
<ele>1548</ele>
<time>2016-08-22T17:37:13Z</time>
</trkpt>
<trkpt lat="42.87156166666667" lon="-5.375648333333333">
<ele>1547</ele>
<time>2016-08-22T17:37:15Z</time>
</trkpt>
<trkpt lat="42.87154666666667" lon="-5.375325">
<ele>1546</ele>
<time>2016-08-22T17:37:17Z</time>
</trkpt>
<trkpt lat="42.87150166666667" lon="-5.375013333333333">
<ele>1545</ele>
<time>2016-08-22T17:37:19Z</time>
</trkpt>
<trkpt lat="42.871478333333336" lon="-5.374725000000001">
<ele>1544</ele>
<time>2016-08-22T17:37:21Z</time>
</trkpt>
<trkpt lat="42.871466666666656" lon="-5.374429999999999">
<ele>1543</ele>
<time>2016-08-22T17:37:23Z</time>
</trkpt>
<trkpt lat="42.87142333333333" lon="-5.37411">
<ele>1541</ele>
<time>2016-08-22T17:37:25Z</time>
</trkpt>
<trkpt lat="42.871354999999994" lon="-5.373805000000001">
<ele>1540</ele>
<time>2016-08-22T17:37:27Z</time>
</trkpt>
<trkpt lat="42.871294999999996" lon="-5.373503333333334">
<ele>1539</ele>
<time>2016-08-22T17:37:29Z</time>
</trkpt>
<trkpt lat="42.87122833333333" lon="-5.373206666666666">
<ele>1538</ele>
<time>2016-08-22T17:37:31Z</time>
</trkpt>
<trkpt lat="42.871135" lon="-5.372941666666666">
<ele>1537</ele>
<time>2016-08-22T17:37:33Z</time>
</trkpt>
<trkpt lat="42.87106000000001" lon="-5.372678333333332">
<ele>1536</ele>
<time>2016-08-22T17:37:35Z</time>
</trkpt>
<trkpt lat="42.871008333333336" lon="-5.372411666666666">
<ele>1535</ele>
<time>2016-08-22T17:37:37Z</time>
</trkpt>
<trkpt lat="42.87095833333333" lon="-5.372175">
<ele>1533</ele>
<time>2016-08-22T17:37:39Z</time>
</trkpt>
<trkpt lat="42.87090166666667" lon="-5.371976666666666">
<ele>1531</ele>
<time>2016-08-22T17:37:41Z</time>
</trkpt>
<trkpt lat="42.87084" lon="-5.371738333333334">
<ele>1529</ele>
<time>2016-08-22T17:37:43Z</time>
</trkpt>
<trkpt lat="42.870781666666666" lon="-5.371463333333333">
<ele>1528</ele>
<time>2016-08-22T17:37:45Z</time>
</trkpt>
<trkpt lat="42.87073166666667" lon="-5.371221666666666">
<ele>1526</ele>
<time>2016-08-22T17:37:47Z</time>
</trkpt>
<trkpt lat="42.87070833333334" lon="-5.370966666666667">
<ele>1524</ele>
<time>2016-08-22T17:37:49Z</time>
</trkpt>
<trkpt lat="42.870691666666666" lon="-5.370701666666667">
<ele>1521</ele>
<time>2016-08-22T17:37:51Z</time>
</trkpt>
<trkpt lat="42.870644999999996" lon="-5.370443333333332">
<ele>1519</ele>
<time>2016-08-22T17:37:53Z</time>
</trkpt>
<trkpt lat="42.87056833333333" lon="-5.370188333333334">
<ele>1517</ele>
<time>2016-08-22T17:37:55Z</time>
</trkpt>
<trkpt lat="42.870466666666665" lon="-5.369961666666668">
<ele>1516</ele>
<time>2016-08-22T17:37:57Z</time>
</trkpt>
<trkpt lat="42.87034666666667" lon="-5.369748333333333">
<ele>1514</ele>
<time>2016-08-22T17:37:59Z</time>
</trkpt>
<trkpt lat="42.870239999999995" lon="-5.369508333333332">
<ele>1513</ele>
<time>2016-08-22T17:38:01Z</time>
</trkpt>
<trkpt lat="42.870175" lon="-5.369356666666666">
<ele>1512</ele>
<time>2016-08-22T17:38:03Z</time>
</trkpt>
<trkpt lat="42.870171666666664" lon="-5.36927">
<ele>1511</ele>
<time>2016-08-22T17:38:05Z</time>
</trkpt>
<trkpt lat="42.870196666666665" lon="-5.369143333333333">
<ele>1510</ele>
<time>2016-08-22T17:38:07Z</time>
</trkpt>
<trkpt lat="42.870175" lon="-5.369001666666666">
<ele>1509</ele>
<time>2016-08-22T17:38:09Z</time>
</trkpt>
<trkpt lat="42.870106666666665" lon="-5.368906666666667">
<ele>1509</ele>
<time>2016-08-22T17:38:11Z</time>
</trkpt>
<trkpt lat="42.86999666666667" lon="-5.368913333333334">
<ele>1508</ele>
<time>2016-08-22T17:38:13Z</time>
</trkpt>
<trkpt lat="42.86987333333333" lon="-5.369128333333333">
<ele>1507</ele>
<time>2016-08-22T17:38:15Z</time>
</trkpt>
<trkpt lat="42.86981833333333" lon="-5.369405">
<ele>1507</ele>
<time>2016-08-22T17:38:17Z</time>
</trkpt>
<trkpt lat="42.86983166666667" lon="-5.3697116666666656">
<ele>1506</ele>
<time>2016-08-22T17:38:19Z</time>
</trkpt>
<trkpt lat="42.869960000000006" lon="-5.369861666666666">
<ele>1505</ele>
<time>2016-08-22T17:38:21Z</time>
</trkpt>
<trkpt lat="42.870151666666665" lon="-5.369835">
<ele>1505</ele>
<time>2016-08-22T17:38:23Z</time>
</trkpt>
<trkpt lat="42.87030500000001" lon="-5.369668333333334">
<ele>1505</ele>
<time>2016-08-22T17:38:25Z</time>
</trkpt>
<trkpt lat="42.87040666666667" lon="-5.3694716666666675">
<ele>1505</ele>
<time>2016-08-22T17:38:27Z</time>
</trkpt>
<trkpt lat="42.870475000000006" lon="-5.369235">
<ele>1505</ele>
<time>2016-08-22T17:38:29Z</time>
</trkpt>
<trkpt lat="42.870490000000004" lon="-5.368956666666666">
<ele>1504</ele>
<time>2016-08-22T17:38:31Z</time>
</trkpt>
<trkpt lat="42.870466666666665" lon="-5.368804999999999">
<ele>1505</ele>
<time>2016-08-22T17:38:33Z</time>
</trkpt>
<trkpt lat="42.870419999999996" lon="-5.368714999999999">
<ele>1505</ele>
<time>2016-08-22T17:38:35Z</time>
</trkpt>
<trkpt lat="42.870340000000006" lon="-5.368673333333334">
<ele>1506</ele>
<time>2016-08-22T17:38:37Z</time>
</trkpt>
<trkpt lat="42.870206666666675" lon="-5.368736666666666">
<ele>1507</ele>
<time>2016-08-22T17:38:39Z</time>
</trkpt>
<trkpt lat="42.870116666666675" lon="-5.36887">
<ele>1508</ele>
<time>2016-08-22T17:38:41Z</time>
</trkpt>
<trkpt lat="42.870110000000004" lon="-5.369091666666666">
<ele>1509</ele>
<time>2016-08-22T17:38:43Z</time>
</trkpt>
<trkpt lat="42.87016833333334" lon="-5.369386666666666">
<ele>1510</ele>
<time>2016-08-22T17:38:45Z</time>
</trkpt>
<trkpt lat="42.87030500000001" lon="-5.369585000000001">
<ele>1510</ele>
<time>2016-08-22T17:38:47Z</time>
</trkpt>
<trkpt lat="42.870443333333334" lon="-5.369628333333333">
<ele>1511</ele>
<time>2016-08-22T17:38:49Z</time>
</trkpt>
<trkpt lat="42.87065333333333" lon="-5.36957">
<ele>1512</ele>
<time>2016-08-22T17:38:51Z</time>
</trkpt>
<trkpt lat="42.87084" lon="-5.3694500000000005">
<ele>1512</ele>
<time>2016-08-22T17:38:53Z</time>
</trkpt>
<trkpt lat="42.870945" lon="-5.369326666666666">
<ele>1513</ele>
<time>2016-08-22T17:38:55Z</time>
</trkpt>
<trkpt lat="42.870915" lon="-5.369219999999999">
<ele>1514</ele>
<time>2016-08-22T17:38:57Z</time>
</trkpt>
<trkpt lat="42.870844999999996" lon="-5.369083333333333">
<ele>1516</ele>
<time>2016-08-22T17:38:59Z</time>
</trkpt>
<trkpt lat="42.87074166666666" lon="-5.368988333333334">
<ele>1520</ele>
<time>2016-08-22T17:39:01Z</time>
</trkpt>
<trkpt lat="42.87058166666667" lon="-5.369024999999999">
<ele>1523</ele>
<time>2016-08-22T17:39:03Z</time>
</trkpt>
<trkpt lat="42.870466666666665" lon="-5.369146666666667">
<ele>1526</ele>
<time>2016-08-22T17:39:05Z</time>
</trkpt>
<trkpt lat="42.87036499999999" lon="-5.369303333333333">
<ele>1529</ele>
<time>2016-08-22T17:39:07Z</time>
</trkpt>
<trkpt lat="42.870315" lon="-5.369511666666667">
<ele>1532</ele>
<time>2016-08-22T17:39:09Z</time>
</trkpt>
<trkpt lat="42.87036333333334" lon="-5.369766666666667">
<ele>1535</ele>
<time>2016-08-22T17:39:11Z</time>
</trkpt>
<trkpt lat="42.87044833333333" lon="-5.369976666666668">
<ele>1539</ele>
<time>2016-08-22T17:39:13Z</time>
</trkpt>
<trkpt lat="42.870533333333334" lon="-5.370068333333334">
<ele>1543</ele>
<time>2016-08-22T17:39:15Z</time>
</trkpt>
<trkpt lat="42.87068333333333" lon="-5.370001666666667">
<ele>1545</ele>
<time>2016-08-22T17:39:17Z</time>
</trkpt>
<trkpt lat="42.870846666666665" lon="-5.369884999999999">
<ele>1547</ele>
<time>2016-08-22T17:39:19Z</time>
</trkpt>
<trkpt lat="42.87097666666667" lon="-5.369803333333334">
<ele>1549</ele>
<time>2016-08-22T17:39:21Z</time>
</trkpt>
<trkpt lat="42.87104833333333" lon="-5.369633333333334">
<ele>1551</ele>
<time>2016-08-22T17:39:23Z</time>
</trkpt>
<trkpt lat="42.87107833333333" lon="-5.369453333333333">
<ele>1553</ele>
<time>2016-08-22T17:39:25Z</time>
</trkpt>
<trkpt lat="42.871135" lon="-5.369298333333334">
<ele>1556</ele>
<time>2016-08-22T17:39:27Z</time>
</trkpt>
<trkpt lat="42.87115000000001" lon="-5.36917">
<ele>1558</ele>
<time>2016-08-22T17:39:29Z</time>
</trkpt>
<trkpt lat="42.871095" lon="-5.369061666666666">
<ele>1560</ele>
<time>2016-08-22T17:39:31Z</time>
</trkpt>
<trkpt lat="42.87101666666668" lon="-5.369043333333334">
<ele>1562</ele>
<time>2016-08-22T17:39:33Z</time>
</trkpt>
<trkpt lat="42.87091" lon="-5.369171666666667">
<ele>1564</ele>
<time>2016-08-22T17:39:35Z</time>
</trkpt>
<trkpt lat="42.87082166666667" lon="-5.369378333333333">
<ele>1566</ele>
<time>2016-08-22T17:39:37Z</time>
</trkpt>
<trkpt lat="42.870783333333335" lon="-5.369591666666667">
<ele>1571</ele>
<time>2016-08-22T17:39:39Z</time>
</trkpt>
<trkpt lat="42.87078666666666" lon="-5.369803333333334">
<ele>1575</ele>
<time>2016-08-22T17:39:41Z</time>
</trkpt>
<trkpt lat="42.87082999999999" lon="-5.369963333333334">
<ele>1577</ele>
<time>2016-08-22T17:39:43Z</time>
</trkpt>
<trkpt lat="42.87091333333333" lon="-5.370105000000001">
<ele>1581</ele>
<time>2016-08-22T17:39:45Z</time>
</trkpt>
<trkpt lat="42.87105" lon="-5.370218333333335">
<ele>1586</ele>
<time>2016-08-22T17:39:47Z</time>
</trkpt>
<trkpt lat="42.87114499999999" lon="-5.370266666666667">
<ele>1590</ele>
<time>2016-08-22T17:39:49Z</time>
</trkpt>
<trkpt lat="42.87127" lon="-5.37019">
<ele>1593</ele>
<time>2016-08-22T17:39:51Z</time>
</trkpt>
<trkpt lat="42.87133000000001" lon="-5.370048333333333">
<ele>1595</ele>
<time>2016-08-22T17:39:53Z</time>
</trkpt>
<trkpt lat="42.87140833333333" lon="-5.369878333333332">
<ele>1597</ele>
<time>2016-08-22T17:39:55Z</time>
</trkpt>
<trkpt lat="42.87148833333334" lon="-5.369683333333334">
<ele>1599</ele>
<time>2016-08-22T17:39:57Z</time>
</trkpt>
<trkpt lat="42.871521666666666" lon="-5.369439999999999">
<ele>1602</ele>
<time>2016-08-22T17:39:59Z</time>
</trkpt>
<trkpt lat="42.871523333333336" lon="-5.369206666666666">
<ele>1604</ele>
<time>2016-08-22T17:40:01Z</time>
</trkpt>
<trkpt lat="42.87156" lon="-5.369024999999999">
<ele>1607</ele>
<time>2016-08-22T17:40:03Z</time>
</trkpt>
<trkpt lat="42.87159499999999" lon="-5.368873333333332">
<ele>1610</ele>
<time>2016-08-22T17:40:05Z</time>
</trkpt>
<trkpt lat="42.87153333333334" lon="-5.368763333333334">
<ele>1613</ele>
<time>2016-08-22T17:40:07Z</time>
</trkpt>
<trkpt lat="42.87141333333334" lon="-5.368728333333333">
<ele>1615</ele>
<time>2016-08-22T17:40:09Z</time>
</trkpt>
<trkpt lat="42.87132166666667" lon="-5.368823333333334">
<ele>1618</ele>
<time>2016-08-22T17:40:11Z</time>
</trkpt>
<trkpt lat="42.87129333333334" lon="-5.368930000000001">
<ele>1621</ele>
<time>2016-08-22T17:40:13Z</time>
</trkpt>
<trkpt lat="42.871444999999994" lon="-5.36909">
<ele>1624</ele>
<time>2016-08-22T17:40:15Z</time>
</trkpt>
<trkpt lat="42.87155166666666" lon="-5.369188333333333">
<ele>1629</ele>
<time>2016-08-22T17:40:17Z</time>
</trkpt>
<trkpt lat="42.87166166666666" lon="-5.369275000000001">
<ele>1633</ele>
<time>2016-08-22T17:40:19Z</time>
</trkpt>
<trkpt lat="42.871835" lon="-5.369293333333333">
<ele>1638</ele>
<time>2016-08-22T17:40:21Z</time>
</trkpt>
<trkpt lat="42.871984999999995" lon="-5.369161666666668">
<ele>1642</ele>
<time>2016-08-22T17:40:23Z</time>
</trkpt>
<trkpt lat="42.872053333333334" lon="-5.368983333333333">
<ele>1644</ele>
<time>2016-08-22T17:40:25Z</time>
</trkpt>
<trkpt lat="42.87209666666666" lon="-5.3687716666666665">
<ele>1647</ele>
<time>2016-08-22T17:40:27Z</time>
</trkpt>
<trkpt lat="42.872121666666665" lon="-5.368536666666667">
<ele>1650</ele>
<time>2016-08-22T17:40:29Z</time>
</trkpt>
<trkpt lat="42.87209666666666" lon="-5.368311666666667">
<ele>1652</ele>
<time>2016-08-22T17:40:31Z</time>
</trkpt>
<trkpt lat="42.87208166666666" lon="-5.368066666666666">
<ele>1655</ele>
<time>2016-08-22T17:40:33Z</time>
</trkpt>
<trkpt lat="42.872076666666665" lon="-5.367801666666666">
<ele>1658</ele>
<time>2016-08-22T17:40:35Z</time>
</trkpt>
<trkpt lat="42.87210333333334" lon="-5.367523333333333">
<ele>1662</ele>
<time>2016-08-22T17:40:37Z</time>
</trkpt>
<trkpt lat="42.87213166666667" lon="-5.367266666666666">
<ele>1665</ele>
<time>2016-08-22T17:40:39Z</time>
</trkpt>
<trkpt lat="42.87210833333334" lon="-5.3671299999999995">
<ele>1668</ele>
<time>2016-08-22T17:40:41Z</time>
</trkpt>
<trkpt lat="42.87209500000001" lon="-5.367031666666666">
<ele>1671</ele>
<time>2016-08-22T17:40:43Z</time>
</trkpt>
<trkpt lat="42.872143333333334" lon="-5.367136666666666">
<ele>1676</ele>
<time>2016-08-22T17:40:45Z</time>
</trkpt>
<trkpt lat="42.87215333333334" lon="-5.367323333333333">
<ele>1680</ele>
<time>2016-08-22T17:40:47Z</time>
</trkpt>
<trkpt lat="42.87213666666666" lon="-5.367498333333333">
<ele>1683</ele>
<time>2016-08-22T17:40:49Z</time>
</trkpt>
<trkpt lat="42.872119999999995" lon="-5.367540000000001">
<ele>1691</ele>
<time>2016-08-22T17:40:51Z</time>
</trkpt>
<trkpt lat="42.872175" lon="-5.367688333333333">
<ele>1695</ele>
<time>2016-08-22T17:40:53Z</time>
</trkpt>
<trkpt lat="42.87223666666667" lon="-5.367793333333333">
<ele>1700</ele>
<time>2016-08-22T17:40:55Z</time>
</trkpt>
<trkpt lat="42.87234" lon="-5.3679016666666675">
<ele>1704</ele>
<time>2016-08-22T17:40:57Z</time>
</trkpt>
<trkpt lat="42.87247000000001" lon="-5.368015000000001">
<ele>1707</ele>
<time>2016-08-22T17:40:59Z</time>
</trkpt>
<trkpt lat="42.87255833333334" lon="-5.3681416666666655">
<ele>1712</ele>
<time>2016-08-22T17:41:01Z</time>
</trkpt>
<trkpt lat="42.872659999999996" lon="-5.368258333333333">
<ele>1715</ele>
<time>2016-08-22T17:41:03Z</time>
</trkpt>
<trkpt lat="42.87278666666666" lon="-5.368338333333332">
<ele>1718</ele>
<time>2016-08-22T17:41:05Z</time>
</trkpt>
<trkpt lat="42.872898333333325" lon="-5.368314999999999">
<ele>1720</ele>
<time>2016-08-22T17:41:07Z</time>
</trkpt>
<trkpt lat="42.873034999999994" lon="-5.36817">
<ele>1724</ele>
<time>2016-08-22T17:41:09Z</time>
</trkpt>
<trkpt lat="42.87317500000001" lon="-5.368023333333334">
<ele>1727</ele>
<time>2016-08-22T17:41:11Z</time>
</trkpt>
<trkpt lat="42.873306666666664" lon="-5.367881666666666">
<ele>1730</ele>
<time>2016-08-22T17:41:13Z</time>
</trkpt>
<trkpt lat="42.873439999999995" lon="-5.367726666666666">
<ele>1733</ele>
<time>2016-08-22T17:41:15Z</time>
</trkpt>
<trkpt lat="42.873583333333336" lon="-5.367571666666667">
<ele>1736</ele>
<time>2016-08-22T17:41:17Z</time>
</trkpt>
<trkpt lat="42.873778333333334" lon="-5.367436666666666">
<ele>1739</ele>
<time>2016-08-22T17:41:19Z</time>
</trkpt>
<trkpt lat="42.87396666666667" lon="-5.3673">
<ele>1742</ele>
<time>2016-08-22T17:41:21Z</time>
</trkpt>
<trkpt lat="42.87412333333334" lon="-5.367136666666666">
<ele>1745</ele>
<time>2016-08-22T17:41:23Z</time>
</trkpt>
<trkpt lat="42.87411333333333" lon="-5.3671066666666665">
<ele>1752</ele>
<time>2016-08-22T17:41:25Z</time>
</trkpt>
<trkpt lat="42.874085" lon="-5.367031666666666">
<ele>1761</ele>
<time>2016-08-22T17:41:27Z</time>
</trkpt>
<trkpt lat="42.874046666666665" lon="-5.366994999999999">
<ele>1767</ele>
<time>2016-08-22T17:41:29Z</time>
</trkpt>
<trkpt lat="42.87395166666667" lon="-5.367108333333334">
<ele>1771</ele>
<time>2016-08-22T17:41:31Z</time>
</trkpt>
<trkpt lat="42.87387166666667" lon="-5.3672683333333335">
<ele>1775</ele>
<time>2016-08-22T17:41:33Z</time>
</trkpt>
<trkpt lat="42.87383499999999" lon="-5.367454999999999">
<ele>1779</ele>
<time>2016-08-22T17:41:35Z</time>
</trkpt>
<trkpt lat="42.873856666666676" lon="-5.367661666666667">
<ele>1783</ele>
<time>2016-08-22T17:41:37Z</time>
</trkpt>
<trkpt lat="42.87396333333333" lon="-5.367896666666667">
<ele>1787</ele>
<time>2016-08-22T17:41:39Z</time>
</trkpt>
<trkpt lat="42.87410333333334" lon="-5.368156666666666">
<ele>1790</ele>
<time>2016-08-22T17:41:41Z</time>
</trkpt>
<trkpt lat="42.874228333333335" lon="-5.368373333333333">
<ele>1794</ele>
<time>2016-08-22T17:41:43Z</time>
</trkpt>
<trkpt lat="42.87436833333333" lon="-5.368545">
<ele>1798</ele>
<time>2016-08-22T17:41:45Z</time>
</trkpt>
<trkpt lat="42.87451666666666" lon="-5.368618333333334">
<ele>1803</ele>
<time>2016-08-22T17:41:47Z</time>
</trkpt>
<trkpt lat="42.87466666666666" lon="-5.368576666666667">
<ele>1807</ele>
<time>2016-08-22T17:41:49Z</time>
</trkpt>
<trkpt lat="42.87479833333334" lon="-5.368456666666666">
<ele>1810</ele>
<time>2016-08-22T17:41:51Z</time>
</trkpt>
<trkpt lat="42.874811666666666" lon="-5.3682549999999996">
<ele>1813</ele>
<time>2016-08-22T17:41:53Z</time>
</trkpt>
<trkpt lat="42.87480000000001" lon="-5.368056666666666">
<ele>1816</ele>
<time>2016-08-22T17:41:55Z</time>
</trkpt>
<trkpt lat="42.874775" lon="-5.367888333333334">
<ele>1819</ele>
<time>2016-08-22T17:41:57Z</time>
</trkpt>
<trkpt lat="42.87470166666667" lon="-5.367724999999999">
<ele>1822</ele>
<time>2016-08-22T17:41:59Z</time>
</trkpt>
<trkpt lat="42.874554999999994" lon="-5.367570000000001">
<ele>1825</ele>
<time>2016-08-22T17:42:01Z</time>
</trkpt>
<trkpt lat="42.874385" lon="-5.367424999999999">
<ele>1828</ele>
<time>2016-08-22T17:42:03Z</time>
</trkpt>
<trkpt lat="42.87424166666666" lon="-5.367303333333333">
<ele>1831</ele>
<time>2016-08-22T17:42:05Z</time>
</trkpt>
<trkpt lat="42.87410333333334" lon="-5.367211666666666">
<ele>1833</ele>
<time>2016-08-22T17:42:07Z</time>
</trkpt>
<trkpt lat="42.87396166666667" lon="-5.367098333333333">
<ele>1836</ele>
<time>2016-08-22T17:42:09Z</time>
</trkpt>
<trkpt lat="42.873846666666665" lon="-5.367011666666667">
<ele>1839</ele>
<time>2016-08-22T17:42:11Z</time>
</trkpt>
<trkpt lat="42.873713333333335" lon="-5.366958333333334">
<ele>1843</ele>
<time>2016-08-22T17:42:13Z</time>
</trkpt>
<trkpt lat="42.873586666666675" lon="-5.366953333333333">
<ele>1846</ele>
<time>2016-08-22T17:42:15Z</time>
</trkpt>
<trkpt lat="42.87350166666667" lon="-5.367005000000001">
<ele>1849</ele>
<time>2016-08-22T17:42:17Z</time>
</trkpt>
<trkpt lat="42.873483333333326" lon="-5.367138333333332">
<ele>1852</ele>
<time>2016-08-22T17:42:19Z</time>
</trkpt>
<trkpt lat="42.87363333333333" lon="-5.367361666666667">
<ele>1856</ele>
<time>2016-08-22T17:42:21Z</time>
</trkpt>
<trkpt lat="42.87383333333334" lon="-5.36755">
<ele>1859</ele>
<time>2016-08-22T17:42:23Z</time>
</trkpt>
<trkpt lat="42.874024999999996" lon="-5.367746666666666">
<ele>1863</ele>
<time>2016-08-22T17:42:25Z</time>
</trkpt>
<trkpt lat="42.87419833333333" lon="-5.367940000000001">
<ele>1865</ele>
<time>2016-08-22T17:42:27Z</time>
</trkpt>
<trkpt lat="42.87439166666666" lon="-5.368073333333332">
<ele>1868</ele>
<time>2016-08-22T17:42:29Z</time>
</trkpt>
<trkpt lat="42.87461499999999" lon="-5.368151666666667">
<ele>1872</ele>
<time>2016-08-22T17:42:31Z</time>
</trkpt>
<trkpt lat="42.87481" lon="-5.368196666666667">
<ele>1875</ele>
<time>2016-08-22T17:42:33Z</time>
</trkpt>
<trkpt lat="42.87496833333333" lon="-5.3681383333333335">
<ele>1877</ele>
<time>2016-08-22T17:42:35Z</time>
</trkpt>
<trkpt lat="42.87510999999999" lon="-5.368004999999999">
<ele>1880</ele>
<time>2016-08-22T17:42:37Z</time>
</trkpt>
<trkpt lat="42.87525333333333" lon="-5.367821666666667">
<ele>1882</ele>
<time>2016-08-22T17:42:39Z</time>
</trkpt>
<trkpt lat="42.87540833333334" lon="-5.367634999999999">
<ele>1885</ele>
<time>2016-08-22T17:42:41Z</time>
</trkpt>
<trkpt lat="42.875568333333334" lon="-5.367458333333333">
<ele>1888</ele>
<time>2016-08-22T17:42:43Z</time>
</trkpt>
<trkpt lat="42.87568833333333" lon="-5.367311666666666">
<ele>1891</ele>
<time>2016-08-22T17:42:45Z</time>
</trkpt>
<trkpt lat="42.87575166666667" lon="-5.36722">
<ele>1894</ele>
<time>2016-08-22T17:42:47Z</time>
</trkpt>
<trkpt lat="42.87580500000001" lon="-5.367005000000001">
<ele>1896</ele>
<time>2016-08-22T17:42:49Z</time>
</trkpt>
<trkpt lat="42.875791666666665" lon="-5.366705">
<ele>1899</ele>
<time>2016-08-22T17:42:51Z</time>
</trkpt>
<trkpt lat="42.87575833333334" lon="-5.366493333333334">
<ele>1902</ele>
<time>2016-08-22T17:42:53Z</time>
</trkpt>
<trkpt lat="42.875703333333334" lon="-5.366355">
<ele>1906</ele>
<time>2016-08-22T17:42:55Z</time>
</trkpt>
<trkpt lat="42.87562166666667" lon="-5.366268333333333">
<ele>1909</ele>
<time>2016-08-22T17:42:57Z</time>
</trkpt>
<trkpt lat="42.87552000000001" lon="-5.366251666666667">
<ele>1912</ele>
<time>2016-08-22T17:42:59Z</time>
</trkpt>
<trkpt lat="42.87543833333334" lon="-5.366406666666667">
<ele>1914</ele>
<time>2016-08-22T17:43:01Z</time>
</trkpt>
<trkpt lat="42.875413333333334" lon="-5.366515000000001">
<ele>1917</ele>
<time>2016-08-22T17:43:03Z</time>
</trkpt>
<trkpt lat="42.87546166666666" lon="-5.366676666666666">
<ele>1920</ele>
<time>2016-08-22T17:43:05Z</time>
</trkpt>
<trkpt lat="42.87554" lon="-5.3668966666666655">
<ele>1923</ele>
<time>2016-08-22T17:43:07Z</time>
</trkpt>
<trkpt lat="42.87566666666667" lon="-5.367075">
<ele>1925</ele>
<time>2016-08-22T17:43:09Z</time>
</trkpt>
<trkpt lat="42.87582999999999" lon="-5.36718">
<ele>1929</ele>
<time>2016-08-22T17:43:11Z</time>
</trkpt>
<trkpt lat="42.875948333333326" lon="-5.3670800000000005">
<ele>1932</ele>
<time>2016-08-22T17:43:13Z</time>
</trkpt>
<trkpt lat="42.876045000000005" lon="-5.366860000000001">
<ele>1934</ele>
<time>2016-08-22T17:43:15Z</time>
</trkpt>
<trkpt lat="42.87607666666666" lon="-5.366575">
<ele>1937</ele>
<time>2016-08-22T17:43:17Z</time>
</trkpt>
<trkpt lat="42.87603166666666" lon="-5.366286666666667">
<ele>1941</ele>
<time>2016-08-22T17:43:19Z</time>
</trkpt>
<trkpt lat="42.875903333333326" lon="-5.366138333333334">
<ele>1944</ele>
<time>2016-08-22T17:43:21Z</time>
</trkpt>
<trkpt lat="42.875793333333334" lon="-5.366085">
<ele>1947</ele>
<time>2016-08-22T17:43:23Z</time>
</trkpt>
<trkpt lat="42.87570000000001" lon="-5.366118333333333">
<ele>1950</ele>
<time>2016-08-22T17:43:25Z</time>
</trkpt>
<trkpt lat="42.87563166666667" lon="-5.3662333333333345">
<ele>1954</ele>
<time>2016-08-22T17:43:27Z</time>
</trkpt>
<trkpt lat="42.87562833333333" lon="-5.36641">
<ele>1957</ele>
<time>2016-08-22T17:43:29Z</time>
</trkpt>
<trkpt lat="42.87567666666667" lon="-5.366596666666667">
<ele>1960</ele>
<time>2016-08-22T17:43:31Z</time>
</trkpt>
<trkpt lat="42.875840000000004" lon="-5.366789999999999">
<ele>1963</ele>
<time>2016-08-22T17:43:33Z</time>
</trkpt>
<trkpt lat="42.876039999999996" lon="-5.366938333333334">
<ele>1966</ele>
<time>2016-08-22T17:43:35Z</time>
</trkpt>
<trkpt lat="42.876233333333325" lon="-5.367003333333334">
<ele>1969</ele>
<time>2016-08-22T17:43:37Z</time>
</trkpt>
<trkpt lat="42.876445" lon="-5.366965000000001">
<ele>1971</ele>
<time>2016-08-22T17:43:39Z</time>
</trkpt>
<trkpt lat="42.87659166666667" lon="-5.366853333333334">
<ele>1974</ele>
<time>2016-08-22T17:43:41Z</time>
</trkpt>
<trkpt lat="42.876718333333336" lon="-5.366616666666666">
<ele>1976</ele>
<time>2016-08-22T17:43:43Z</time>
</trkpt>
<trkpt lat="42.876805" lon="-5.366338333333334">
<ele>1978</ele>
<time>2016-08-22T17:43:45Z</time>
</trkpt>
<trkpt lat="42.876875000000005" lon="-5.366046666666667">
<ele>1981</ele>
<time>2016-08-22T17:43:47Z</time>
</trkpt>
<trkpt lat="42.87690333333333" lon="-5.3657699999999995">
<ele>1983</ele>
<time>2016-08-22T17:43:49Z</time>
</trkpt>
<trkpt lat="42.876884999999994" lon="-5.365526666666667">
<ele>1985</ele>
<time>2016-08-22T17:43:51Z</time>
</trkpt>
<trkpt lat="42.876835" lon="-5.365290000000001">
<ele>1988</ele>
<time>2016-08-22T17:43:53Z</time>
</trkpt>
<trkpt lat="42.876731666666664" lon="-5.36518">
<ele>1991</ele>
<time>2016-08-22T17:43:55Z</time>
</trkpt>
<trkpt lat="42.876594999999995" lon="-5.36514">
<ele>1994</ele>
<time>2016-08-22T17:43:57Z</time>
</trkpt>
<trkpt lat="42.876475" lon="-5.365163333333333">
<ele>1997</ele>
<time>2016-08-22T17:43:59Z</time>
</trkpt>
<trkpt lat="42.876365" lon="-5.365219999999999">
<ele>2000</ele>
<time>2016-08-22T17:44:01Z</time>
</trkpt>
<trkpt lat="42.876270000000005" lon="-5.365335000000001">
<ele>2002</ele>
<time>2016-08-22T17:44:03Z</time>
</trkpt>
<trkpt lat="42.876198333333335" lon="-5.365469999999999">
<ele>2005</ele>
<time>2016-08-22T17:44:05Z</time>
</trkpt>
<trkpt lat="42.876156666666674" lon="-5.3656049999999995">
<ele>2007</ele>
<time>2016-08-22T17:44:07Z</time>
</trkpt>
<trkpt lat="42.87615833333333" lon="-5.365776666666666">
<ele>2010</ele>
<time>2016-08-22T17:44:09Z</time>
</trkpt>
<trkpt lat="42.876313333333336" lon="-5.365975">
<ele>2012</ele>
<time>2016-08-22T17:44:11Z</time>
</trkpt>
<trkpt lat="42.876475" lon="-5.366071666666667">
<ele>2014</ele>
<time>2016-08-22T17:44:13Z</time>
</trkpt>
<trkpt lat="42.87666833333333" lon="-5.366103333333332">
<ele>2017</ele>
<time>2016-08-22T17:44:15Z</time>
</trkpt>
<trkpt lat="42.87686833333334" lon="-5.366021666666668">
<ele>2020</ele>
<time>2016-08-22T17:44:17Z</time>
</trkpt>
<trkpt lat="42.877098333333336" lon="-5.365806666666667">
<ele>2022</ele>
<time>2016-08-22T17:44:19Z</time>
</trkpt>
<trkpt lat="42.87725166666667" lon="-5.365546666666668">
<ele>2025</ele>
<time>2016-08-22T17:44:21Z</time>
</trkpt>
<trkpt lat="42.87737333333333" lon="-5.365196666666666">
<ele>2027</ele>
<time>2016-08-22T17:44:23Z</time>
</trkpt>
<trkpt lat="42.87744333333333" lon="-5.36487">
<ele>2030</ele>
<time>2016-08-22T17:44:25Z</time>
</trkpt>
<trkpt lat="42.87748499999999" lon="-5.364576666666666">
<ele>2033</ele>
<time>2016-08-22T17:44:27Z</time>
</trkpt>
<trkpt lat="42.87748333333334" lon="-5.364256666666667">
<ele>2036</ele>
<time>2016-08-22T17:44:29Z</time>
</trkpt>
<trkpt lat="42.87743666666667" lon="-5.363964999999999">
<ele>2039</ele>
<time>2016-08-22T17:44:31Z</time>
</trkpt>
<trkpt lat="42.877371666666676" lon="-5.363728333333333">
<ele>2042</ele>
<time>2016-08-22T17:44:33Z</time>
</trkpt>
<trkpt lat="42.87728333333333" lon="-5.363533333333334">
<ele>2045</ele>
<time>2016-08-22T17:44:35Z</time>
</trkpt>
<trkpt lat="42.87716166666667" lon="-5.3634216666666665">
<ele>2049</ele>
<time>2016-08-22T17:44:37Z</time>
</trkpt>
<trkpt lat="42.877019999999995" lon="-5.36337">
<ele>2052</ele>
<time>2016-08-22T17:44:39Z</time>
</trkpt>
<trkpt lat="42.87689" lon="-5.363346666666667">
<ele>2055</ele>
<time>2016-08-22T17:44:41Z</time>
</trkpt>
<trkpt lat="42.87678833333333" lon="-5.363386666666666">
<ele>2058</ele>
<time>2016-08-22T17:44:43Z</time>
</trkpt>
<trkpt lat="42.876776666666665" lon="-5.363535">
<ele>2061</ele>
<time>2016-08-22T17:44:45Z</time>
</trkpt>
<trkpt lat="42.87681166666666" lon="-5.363736666666667">
<ele>2064</ele>
<time>2016-08-22T17:44:47Z</time>
</trkpt>
<trkpt lat="42.876864999999995" lon="-5.36394">
<ele>2067</ele>
<time>2016-08-22T17:44:49Z</time>
</trkpt>
<trkpt lat="42.876954999999995" lon="-5.364075000000001">
<ele>2070</ele>
<time>2016-08-22T17:44:51Z</time>
</trkpt>
<trkpt lat="42.877111666666664" lon="-5.36396">
<ele>2072</ele>
<time>2016-08-22T17:44:53Z</time>
</trkpt>
<trkpt lat="42.877336666666665" lon="-5.363701666666667">
<ele>2074</ele>
<time>2016-08-22T17:44:55Z</time>
</trkpt>
<trkpt lat="42.87741833333333" lon="-5.363309999999999">
<ele>2077</ele>
<time>2016-08-22T17:44:57Z</time>
</trkpt>
<trkpt lat="42.877449999999996" lon="-5.362931666666666">
<ele>2080</ele>
<time>2016-08-22T17:44:59Z</time>
</trkpt>
<trkpt lat="42.87745333333334" lon="-5.362584999999999">
<ele>2082</ele>
<time>2016-08-22T17:45:01Z</time>
</trkpt>
<trkpt lat="42.87745333333334" lon="-5.362203333333334">
<ele>2085</ele>
<time>2016-08-22T17:45:03Z</time>
</trkpt>
<trkpt lat="42.877426666666665" lon="-5.361801666666666">
<ele>2088</ele>
<time>2016-08-22T17:45:05Z</time>
</trkpt>
<trkpt lat="42.877381666666665" lon="-5.361440000000001">
<ele>2091</ele>
<time>2016-08-22T17:45:07Z</time>
</trkpt>
<trkpt lat="42.87734666666667" lon="-5.361144999999999">
<ele>2094</ele>
<time>2016-08-22T17:45:09Z</time>
</trkpt>
<trkpt lat="42.87729666666667" lon="-5.360831666666667">
<ele>2097</ele>
<time>2016-08-22T17:45:11Z</time>
</trkpt>
<trkpt lat="42.87722166666667" lon="-5.360521666666667">
<ele>2101</ele>
<time>2016-08-22T17:45:13Z</time>
</trkpt>
<trkpt lat="42.877154999999995" lon="-5.360235">
<ele>2104</ele>
<time>2016-08-22T17:45:15Z</time>
</trkpt>
<trkpt lat="42.87712" lon="-5.359933333333333">
<ele>2108</ele>
<time>2016-08-22T17:45:17Z</time>
</trkpt>
<trkpt lat="42.87707" lon="-5.359616666666667">
<ele>2112</ele>
<time>2016-08-22T17:45:19Z</time>
</trkpt>
<trkpt lat="42.876995" lon="-5.359301666666666">
<ele>2114</ele>
<time>2016-08-22T17:45:21Z</time>
</trkpt>
<trkpt lat="42.876931666666664" lon="-5.358978333333332">
<ele>2118</ele>
<time>2016-08-22T17:45:23Z</time>
</trkpt>
<trkpt lat="42.87686" lon="-5.358628333333333">
<ele>2122</ele>
<time>2016-08-22T17:45:25Z</time>
</trkpt>
<trkpt lat="42.876796666666664" lon="-5.358311666666666">
<ele>2125</ele>
<time>2016-08-22T17:45:27Z</time>
</trkpt>
<trkpt lat="42.87676" lon="-5.357986666666666">
<ele>2127</ele>
<time>2016-08-22T17:45:29Z</time>
</trkpt>
<trkpt lat="42.876729999999995" lon="-5.357633333333333">
<ele>2129</ele>
<time>2016-08-22T17:45:31Z</time>
</trkpt>
<trkpt lat="42.87667666666666" lon="-5.357294999999999">
<ele>2130</ele>
<time>2016-08-22T17:45:33Z</time>
</trkpt>
<trkpt lat="42.87663333333333" lon="-5.356981666666667">
<ele>2132</ele>
<time>2016-08-22T17:45:35Z</time>
</trkpt>
<trkpt lat="42.87656333333333" lon="-5.356631666666668">
<ele>2134</ele>
<time>2016-08-22T17:45:37Z</time>
</trkpt>
<trkpt lat="42.87649833333333" lon="-5.356300000000001">
<ele>2134</ele>
<time>2016-08-22T17:45:39Z</time>
</trkpt>
<trkpt lat="42.876458333333325" lon="-5.3559833333333335">
<ele>2141</ele>
<time>2016-08-22T17:45:41Z</time>
</trkpt>
<trkpt lat="42.87644333333333" lon="-5.355729999999999">
<ele>2145</ele>
<time>2016-08-22T17:45:43Z</time>
</trkpt>
<trkpt lat="42.876426666666674" lon="-5.355481666666666">
<ele>2147</ele>
<time>2016-08-22T17:45:45Z</time>
</trkpt>
<trkpt lat="42.87634833333333" lon="-5.3551400000000005">
<ele>2150</ele>
<time>2016-08-22T17:45:47Z</time>
</trkpt>
<trkpt lat="42.876281666666664" lon="-5.354811666666666">
<ele>2154</ele>
<time>2016-08-22T17:45:49Z</time>
</trkpt>
<trkpt lat="42.876286666666665" lon="-5.354518333333334">
<ele>2156</ele>
<time>2016-08-22T17:45:51Z</time>
</trkpt>
<trkpt lat="42.87633000000001" lon="-5.3542233333333344">
<ele>2157</ele>
<time>2016-08-22T17:45:53Z</time>
</trkpt>
<trkpt lat="42.87635333333333" lon="-5.35388">
<ele>2157</ele>
<time>2016-08-22T17:45:55Z</time>
</trkpt>
<trkpt lat="42.876381666666674" lon="-5.353506666666667">
<ele>2158</ele>
<time>2016-08-22T17:45:57Z</time>
</trkpt>
<trkpt lat="42.876369999999994" lon="-5.353125">
<ele>2159</ele>
<time>2016-08-22T17:45:59Z</time>
</trkpt>
<trkpt lat="42.876336666666674" lon="-5.352801666666666">
<ele>2160</ele>
<time>2016-08-22T17:46:01Z</time>
</trkpt>
<trkpt lat="42.87635333333333" lon="-5.352495000000001">
<ele>2161</ele>
<time>2016-08-22T17:46:03Z</time>
</trkpt>
<trkpt lat="42.87638833333334" lon="-5.352133333333334">
<ele>2161</ele>
<time>2016-08-22T17:46:05Z</time>
</trkpt>
<trkpt lat="42.876380000000005" lon="-5.351748333333334">
<ele>2161</ele>
<time>2016-08-22T17:46:07Z</time>
</trkpt>
<trkpt lat="42.876360000000005" lon="-5.351384999999999">
<ele>2161</ele>
<time>2016-08-22T17:46:09Z</time>
</trkpt>
<trkpt lat="42.876336666666674" lon="-5.351041666666666">
<ele>2160</ele>
<time>2016-08-22T17:46:11Z</time>
</trkpt>
<trkpt lat="42.87626333333333" lon="-5.350674999999999">
<ele>2159</ele>
<time>2016-08-22T17:46:13Z</time>
</trkpt>
<trkpt lat="42.87619333333334" lon="-5.350333333333333">
<ele>2159</ele>
<time>2016-08-22T17:46:15Z</time>
</trkpt>
<trkpt lat="42.87612166666666" lon="-5.350013333333334">
<ele>2158</ele>
<time>2016-08-22T17:46:17Z</time>
</trkpt>
<trkpt lat="42.87603333333333" lon="-5.34969">
<ele>2156</ele>
<time>2016-08-22T17:46:19Z</time>
</trkpt>
<trkpt lat="42.87593166666667" lon="-5.349361666666666">
<ele>2155</ele>
<time>2016-08-22T17:46:21Z</time>
</trkpt>
<trkpt lat="42.87584666666667" lon="-5.349056666666667">
<ele>2154</ele>
<time>2016-08-22T17:46:23Z</time>
</trkpt>
<trkpt lat="42.875791666666665" lon="-5.348731666666667">
<ele>2153</ele>
<time>2016-08-22T17:46:25Z</time>
</trkpt>
<trkpt lat="42.87578" lon="-5.348363333333333">
<ele>2152</ele>
<time>2016-08-22T17:46:27Z</time>
</trkpt>
<trkpt lat="42.87576333333333" lon="-5.347996666666668">
<ele>2151</ele>
<time>2016-08-22T17:46:29Z</time>
</trkpt>
<trkpt lat="42.875771666666665" lon="-5.347635">
<ele>2149</ele>
<time>2016-08-22T17:46:31Z</time>
</trkpt>
<trkpt lat="42.87579000000001" lon="-5.347265000000001">
<ele>2148</ele>
<time>2016-08-22T17:46:33Z</time>
</trkpt>
<trkpt lat="42.87579833333333" lon="-5.3469050000000005">
<ele>2148</ele>
<time>2016-08-22T17:46:35Z</time>
</trkpt>
<trkpt lat="42.875840000000004" lon="-5.346555">
<ele>2147</ele>
<time>2016-08-22T17:46:37Z</time>
</trkpt>
<trkpt lat="42.87592166666666" lon="-5.346189999999999">
<ele>2145</ele>
<time>2016-08-22T17:46:39Z</time>
</trkpt>
<trkpt lat="42.876018333333334" lon="-5.345843333333333">
<ele>2143</ele>
<time>2016-08-22T17:46:41Z</time>
</trkpt>
<trkpt lat="42.87611666666667" lon="-5.345486666666667">
<ele>2141</ele>
<time>2016-08-22T17:46:43Z</time>
</trkpt>
<trkpt lat="42.87619333333334" lon="-5.345096666666666">
<ele>2139</ele>
<time>2016-08-22T17:46:45Z</time>
</trkpt>
<trkpt lat="42.876246666666674" lon="-5.344708333333333">
<ele>2137</ele>
<time>2016-08-22T17:46:47Z</time>
</trkpt>
<trkpt lat="42.876295" lon="-5.34437">
<ele>2136</ele>
<time>2016-08-22T17:46:49Z</time>
</trkpt>
<trkpt lat="42.87633833333333" lon="-5.34406">
<ele>2134</ele>
<time>2016-08-22T17:46:51Z</time>
</trkpt>
<trkpt lat="42.87631833333333" lon="-5.343765">
<ele>2133</ele>
<time>2016-08-22T17:46:53Z</time>
</trkpt>
<trkpt lat="42.87626166666667" lon="-5.343500000000001">
<ele>2132</ele>
<time>2016-08-22T17:46:55Z</time>
</trkpt>
<trkpt lat="42.876196666666665" lon="-5.343261666666666">
<ele>2130</ele>
<time>2016-08-22T17:46:57Z</time>
</trkpt>
<trkpt lat="42.876129999999996" lon="-5.3430366666666655">
<ele>2129</ele>
<time>2016-08-22T17:46:59Z</time>
</trkpt>
<trkpt lat="42.87607" lon="-5.342801666666666">
<ele>2128</ele>
<time>2016-08-22T17:47:01Z</time>
</trkpt>
<trkpt lat="42.876021666666674" lon="-5.3425616666666675">
<ele>2127</ele>
<time>2016-08-22T17:47:03Z</time>
</trkpt>
<trkpt lat="42.87596666666666" lon="-5.342303333333333">
<ele>2126</ele>
<time>2016-08-22T17:47:05Z</time>
</trkpt>
<trkpt lat="42.875903333333326" lon="-5.342045">
<ele>2125</ele>
<time>2016-08-22T17:47:07Z</time>
</trkpt>
<trkpt lat="42.875865000000005" lon="-5.341773333333333">
<ele>2123</ele>
<time>2016-08-22T17:47:09Z</time>
</trkpt>
<trkpt lat="42.875838333333334" lon="-5.341441666666666">
<ele>2122</ele>
<time>2016-08-22T17:47:11Z</time>
</trkpt>
<trkpt lat="42.87583166666666" lon="-5.341123333333333">
<ele>2121</ele>
<time>2016-08-22T17:47:13Z</time>
</trkpt>
<trkpt lat="42.87580666666666" lon="-5.34082">
<ele>2120</ele>
<time>2016-08-22T17:47:15Z</time>
</trkpt>
<trkpt lat="42.87578666666666" lon="-5.340488333333334">
<ele>2119</ele>
<time>2016-08-22T17:47:17Z</time>
</trkpt>
<trkpt lat="42.875795000000004" lon="-5.340135">
<ele>2118</ele>
<time>2016-08-22T17:47:19Z</time>
</trkpt>
<trkpt lat="42.87582333333333" lon="-5.3398">
<ele>2116</ele>
<time>2016-08-22T17:47:21Z</time>
</trkpt>
<trkpt lat="42.875820000000004" lon="-5.339508333333333">
<ele>2116</ele>
<time>2016-08-22T17:47:23Z</time>
</trkpt>
<trkpt lat="42.875771666666665" lon="-5.339218333333334">
<ele>2114</ele>
<time>2016-08-22T17:47:25Z</time>
</trkpt>
<trkpt lat="42.87572" lon="-5.33894">
<ele>2113</ele>
<time>2016-08-22T17:47:27Z</time>
</trkpt>
<trkpt lat="42.87565500000001" lon="-5.338668333333334">
<ele>2112</ele>
<time>2016-08-22T17:47:29Z</time>
</trkpt>
<trkpt lat="42.87559666666666" lon="-5.3383883333333335">
<ele>2111</ele>
<time>2016-08-22T17:47:31Z</time>
</trkpt>
<trkpt lat="42.87557" lon="-5.338096666666667">
<ele>2110</ele>
<time>2016-08-22T17:47:33Z</time>
</trkpt>
<trkpt lat="42.87554166666667" lon="-5.337808333333333">
<ele>2109</ele>
<time>2016-08-22T17:47:35Z</time>
</trkpt>
<trkpt lat="42.87552000000001" lon="-5.337493333333333">
<ele>2108</ele>
<time>2016-08-22T17:47:37Z</time>
</trkpt>
<trkpt lat="42.87551" lon="-5.3371683333333335">
<ele>2106</ele>
<time>2016-08-22T17:47:39Z</time>
</trkpt>
<trkpt lat="42.875476666666664" lon="-5.336866666666666">
<ele>2105</ele>
<time>2016-08-22T17:47:41Z</time>
</trkpt>
<trkpt lat="42.875386666666664" lon="-5.336573333333333">
<ele>2103</ele>
<time>2016-08-22T17:47:43Z</time>
</trkpt>
<trkpt lat="42.87530333333334" lon="-5.336308333333333">
<ele>2102</ele>
<time>2016-08-22T17:47:45Z</time>
</trkpt>
<trkpt lat="42.875206666666664" lon="-5.336055000000001">
<ele>2100</ele>
<time>2016-08-22T17:47:47Z</time>
</trkpt>
<trkpt lat="42.87510999999999" lon="-5.335795">
<ele>2099</ele>
<time>2016-08-22T17:47:49Z</time>
</trkpt>
<trkpt lat="42.87501999999999" lon="-5.335541666666668">
<ele>2098</ele>
<time>2016-08-22T17:47:51Z</time>
</trkpt>
<trkpt lat="42.87492833333334" lon="-5.335285000000001">
<ele>2096</ele>
<time>2016-08-22T17:47:53Z</time>
</trkpt>
<trkpt lat="42.87483999999999" lon="-5.335008333333334">
<ele>2095</ele>
<time>2016-08-22T17:47:55Z</time>
</trkpt>
<trkpt lat="42.87474666666667" lon="-5.334720000000001">
<ele>2093</ele>
<time>2016-08-22T17:47:57Z</time>
</trkpt>
<trkpt lat="42.874676666666666" lon="-5.334453333333332">
<ele>2092</ele>
<time>2016-08-22T17:47:59Z</time>
</trkpt>
<trkpt lat="42.87459333333333" lon="-5.334171666666666">
<ele>2090</ele>
<time>2016-08-22T17:48:01Z</time>
</trkpt>
<trkpt lat="42.874498333333335" lon="-5.333894999999999">
<ele>2088</ele>
<time>2016-08-22T17:48:03Z</time>
</trkpt>
<trkpt lat="42.87439166666666" lon="-5.333631666666667">
<ele>2087</ele>
<time>2016-08-22T17:48:05Z</time>
</trkpt>
<trkpt lat="42.87430833333333" lon="-5.333375000000001">
<ele>2085</ele>
<time>2016-08-22T17:48:07Z</time>
</trkpt>
<trkpt lat="42.874235" lon="-5.3331">
<ele>2084</ele>
<time>2016-08-22T17:48:09Z</time>
</trkpt>
<trkpt lat="42.87415333333333" lon="-5.332803333333334">
<ele>2082</ele>
<time>2016-08-22T17:48:11Z</time>
</trkpt>
<trkpt lat="42.874080000000006" lon="-5.332513333333333">
<ele>2080</ele>
<time>2016-08-22T17:48:13Z</time>
</trkpt>
<trkpt lat="42.87402" lon="-5.332228333333334">
<ele>2078</ele>
<time>2016-08-22T17:48:15Z</time>
</trkpt>
<trkpt lat="42.87396166666667" lon="-5.331928333333334">
<ele>2076</ele>
<time>2016-08-22T17:48:17Z</time>
</trkpt>
<trkpt lat="42.873891666666665" lon="-5.331625000000001">
<ele>2074</ele>
<time>2016-08-22T17:48:19Z</time>
</trkpt>
<trkpt lat="42.87383333333334" lon="-5.331334999999999">
<ele>2073</ele>
<time>2016-08-22T17:48:21Z</time>
</trkpt>
<trkpt lat="42.87377333333334" lon="-5.3310666666666675">
<ele>2071</ele>
<time>2016-08-22T17:48:23Z</time>
</trkpt>
<trkpt lat="42.87368166666667" lon="-5.3307899999999995">
<ele>2069</ele>
<time>2016-08-22T17:48:25Z</time>
</trkpt>
<trkpt lat="42.87359166666667" lon="-5.330511666666666">
<ele>2068</ele>
<time>2016-08-22T17:48:27Z</time>
</trkpt>
<trkpt lat="42.87351833333334" lon="-5.330250000000001">
<ele>2066</ele>
<time>2016-08-22T17:48:29Z</time>
</trkpt>
<trkpt lat="42.873425" lon="-5.329980000000001">
<ele>2063</ele>
<time>2016-08-22T17:48:31Z</time>
</trkpt>
<trkpt lat="42.87332166666667" lon="-5.32971">
<ele>2061</ele>
<time>2016-08-22T17:48:33Z</time>
</trkpt>
<trkpt lat="42.873214999999995" lon="-5.329476666666666">
<ele>2059</ele>
<time>2016-08-22T17:48:35Z</time>
</trkpt>
<trkpt lat="42.873105" lon="-5.329195">
<ele>2056</ele>
<time>2016-08-22T17:48:37Z</time>
</trkpt>
<trkpt lat="42.873036666666664" lon="-5.328858333333333">
<ele>2054</ele>
<time>2016-08-22T17:48:39Z</time>
</trkpt>
<trkpt lat="42.87298666666667" lon="-5.328476666666668">
<ele>2051</ele>
<time>2016-08-22T17:48:41Z</time>
</trkpt>
<trkpt lat="42.87292833333333" lon="-5.328155">
<ele>2049</ele>
<time>2016-08-22T17:48:43Z</time>
</trkpt>
<trkpt lat="42.87285833333333" lon="-5.327846666666667">
<ele>2047</ele>
<time>2016-08-22T17:48:45Z</time>
</trkpt>
<trkpt lat="42.872776666666674" lon="-5.327543333333334">
<ele>2045</ele>
<time>2016-08-22T17:48:47Z</time>
</trkpt>
<trkpt lat="42.872645" lon="-5.327263333333334">
<ele>2041</ele>
<time>2016-08-22T17:48:49Z</time>
</trkpt>
<trkpt lat="42.87252166666667" lon="-5.327023333333333">
<ele>2038</ele>
<time>2016-08-22T17:48:51Z</time>
</trkpt>
<trkpt lat="42.87238333333333" lon="-5.326878333333334">
<ele>2031</ele>
<time>2016-08-22T17:48:53Z</time>
</trkpt>
<trkpt lat="42.87224500000001" lon="-5.326710000000001">
<ele>2026</ele>
<time>2016-08-22T17:48:55Z</time>
</trkpt>
<trkpt lat="42.872098333333334" lon="-5.326525">
<ele>2022</ele>
<time>2016-08-22T17:48:57Z</time>
</trkpt>
<trkpt lat="42.87196000000001" lon="-5.326338333333333">
<ele>2019</ele>
<time>2016-08-22T17:48:59Z</time>
</trkpt>
<trkpt lat="42.87182833333333" lon="-5.326108333333334">
<ele>2016</ele>
<time>2016-08-22T17:49:01Z</time>
</trkpt>
<trkpt lat="42.87173500000001" lon="-5.325843333333334">
<ele>2013</ele>
<time>2016-08-22T17:49:03Z</time>
</trkpt>
<trkpt lat="42.871703333333336" lon="-5.325548333333334">
<ele>2010</ele>
<time>2016-08-22T17:49:05Z</time>
</trkpt>
<trkpt lat="42.87165166666667" lon="-5.325231666666667">
<ele>2007</ele>
<time>2016-08-22T17:49:07Z</time>
</trkpt>
<trkpt lat="42.871565" lon="-5.324948333333333">
<ele>2005</ele>
<time>2016-08-22T17:49:09Z</time>
</trkpt>
<trkpt lat="42.87145999999999" lon="-5.324669999999999">
<ele>2001</ele>
<time>2016-08-22T17:49:11Z</time>
</trkpt>
<trkpt lat="42.87136333333333" lon="-5.324425000000001">
<ele>1999</ele>
<time>2016-08-22T17:49:13Z</time>
</trkpt>
<trkpt lat="42.871253333333335" lon="-5.324179999999999">
<ele>1997</ele>
<time>2016-08-22T17:49:15Z</time>
</trkpt>
<trkpt lat="42.87115666666667" lon="-5.323908333333333">
<ele>1994</ele>
<time>2016-08-22T17:49:17Z</time>
</trkpt>
<trkpt lat="42.871065" lon="-5.323631666666667">
<ele>1992</ele>
<time>2016-08-22T17:49:19Z</time>
</trkpt>
<trkpt lat="42.87094833333334" lon="-5.323373333333333">
<ele>1989</ele>
<time>2016-08-22T17:49:21Z</time>
</trkpt>
<trkpt lat="42.870801666666665" lon="-5.323141666666667">
<ele>1987</ele>
<time>2016-08-22T17:49:23Z</time>
</trkpt>
<trkpt lat="42.87060499999999" lon="-5.32295">
<ele>1982</ele>
<time>2016-08-22T17:49:25Z</time>
</trkpt>
<trkpt lat="42.87040833333334" lon="-5.3228116666666665">
<ele>1977</ele>
<time>2016-08-22T17:49:27Z</time>
</trkpt>
<trkpt lat="42.87023333333333" lon="-5.322653333333333">
<ele>1973</ele>
<time>2016-08-22T17:49:29Z</time>
</trkpt>
<trkpt lat="42.870063333333334" lon="-5.322483333333334">
<ele>1969</ele>
<time>2016-08-22T17:49:31Z</time>
</trkpt>
<trkpt lat="42.86988666666666" lon="-5.322323333333332">
<ele>1965</ele>
<time>2016-08-22T17:49:33Z</time>
</trkpt>
<trkpt lat="42.86971833333334" lon="-5.3221733333333345">
<ele>1961</ele>
<time>2016-08-22T17:49:35Z</time>
</trkpt>
<trkpt lat="42.86957" lon="-5.322001666666667">
<ele>1958</ele>
<time>2016-08-22T17:49:37Z</time>
</trkpt>
<trkpt lat="42.86944833333334" lon="-5.3218016666666665">
<ele>1955</ele>
<time>2016-08-22T17:49:39Z</time>
</trkpt>
<trkpt lat="42.869328333333335" lon="-5.32157">
<ele>1952</ele>
<time>2016-08-22T17:49:41Z</time>
</trkpt>
<trkpt lat="42.86920666666666" lon="-5.321330000000001">
<ele>1950</ele>
<time>2016-08-22T17:49:43Z</time>
</trkpt>
<trkpt lat="42.869103333333335" lon="-5.3210733333333335">
<ele>1947</ele>
<time>2016-08-22T17:49:45Z</time>
</trkpt>
<trkpt lat="42.86901833333333" lon="-5.320796666666666">
<ele>1945</ele>
<time>2016-08-22T17:49:47Z</time>
</trkpt>
<trkpt lat="42.868945000000004" lon="-5.320523333333333">
<ele>1942</ele>
<time>2016-08-22T17:49:49Z</time>
</trkpt>
<trkpt lat="42.86891166666666" lon="-5.320268333333333">
<ele>1939</ele>
<time>2016-08-22T17:49:51Z</time>
</trkpt>
<trkpt lat="42.86884499999999" lon="-5.319958333333333">
<ele>1936</ele>
<time>2016-08-22T17:49:53Z</time>
</trkpt>
<trkpt lat="42.86876" lon="-5.319673333333332">
<ele>1934</ele>
<time>2016-08-22T17:49:55Z</time>
</trkpt>
<trkpt lat="42.86869333333334" lon="-5.319408333333333">
<ele>1931</ele>
<time>2016-08-22T17:49:57Z</time>
</trkpt>
<trkpt lat="42.86862833333333" lon="-5.319140000000001">
<ele>1929</ele>
<time>2016-08-22T17:49:59Z</time>
</trkpt>
<trkpt lat="42.868545" lon="-5.318865">
<ele>1926</ele>
<time>2016-08-22T17:50:01Z</time>
</trkpt>
<trkpt lat="42.868460000000006" lon="-5.318605000000001">
<ele>1924</ele>
<time>2016-08-22T17:50:03Z</time>
</trkpt>
<trkpt lat="42.86839666666666" lon="-5.31835">
<ele>1920</ele>
<time>2016-08-22T17:50:05Z</time>
</trkpt>
<trkpt lat="42.868325000000006" lon="-5.318078333333333">
<ele>1918</ele>
<time>2016-08-22T17:50:07Z</time>
</trkpt>
<trkpt lat="42.86823166666667" lon="-5.317776666666666">
<ele>1915</ele>
<time>2016-08-22T17:50:09Z</time>
</trkpt>
<trkpt lat="42.86817166666666" lon="-5.317495">
<ele>1912</ele>
<time>2016-08-22T17:50:11Z</time>
</trkpt>
<trkpt lat="42.868111666666664" lon="-5.317196666666666">
<ele>1909</ele>
<time>2016-08-22T17:50:13Z</time>
</trkpt>
<trkpt lat="42.86803666666666" lon="-5.316909999999999">
<ele>1906</ele>
<time>2016-08-22T17:50:15Z</time>
</trkpt>
<trkpt lat="42.867965000000005" lon="-5.316611666666668">
<ele>1903</ele>
<time>2016-08-22T17:50:17Z</time>
</trkpt>
<trkpt lat="42.86790333333333" lon="-5.316338333333334">
<ele>1901</ele>
<time>2016-08-22T17:50:19Z</time>
</trkpt>
<trkpt lat="42.86782166666667" lon="-5.316076666666667">
<ele>1899</ele>
<time>2016-08-22T17:50:21Z</time>
</trkpt>
<trkpt lat="42.867740000000005" lon="-5.315808333333333">
<ele>1896</ele>
<time>2016-08-22T17:50:23Z</time>
</trkpt>
<trkpt lat="42.86766166666666" lon="-5.315538333333334">
<ele>1894</ele>
<time>2016-08-22T17:50:25Z</time>
</trkpt>
<trkpt lat="42.86756666666667" lon="-5.315291666666667">
<ele>1891</ele>
<time>2016-08-22T17:50:27Z</time>
</trkpt>
<trkpt lat="42.867493333333336" lon="-5.315045">
<ele>1888</ele>
<time>2016-08-22T17:50:29Z</time>
</trkpt>
<trkpt lat="42.86744999999999" lon="-5.314758333333333">
<ele>1886</ele>
<time>2016-08-22T17:50:31Z</time>
</trkpt>
<trkpt lat="42.867395" lon="-5.31447">
<ele>1884</ele>
<time>2016-08-22T17:50:33Z</time>
</trkpt>
<trkpt lat="42.867336666666674" lon="-5.314188333333334">
<ele>1881</ele>
<time>2016-08-22T17:50:35Z</time>
</trkpt>
<trkpt lat="42.86731666666666" lon="-5.3138749999999995">
<ele>1878</ele>
<time>2016-08-22T17:50:37Z</time>
</trkpt>
<trkpt lat="42.86729833333334" lon="-5.313573333333333">
<ele>1875</ele>
<time>2016-08-22T17:50:39Z</time>
</trkpt>
<trkpt lat="42.86722833333333" lon="-5.313285">
<ele>1873</ele>
<time>2016-08-22T17:50:41Z</time>
</trkpt>
<trkpt lat="42.867176666666666" lon="-5.31299">
<ele>1869</ele>
<time>2016-08-22T17:50:43Z</time>
</trkpt>
<trkpt lat="42.867141666666676" lon="-5.312698333333333">
<ele>1866</ele>
<time>2016-08-22T17:50:45Z</time>
</trkpt>
<trkpt lat="42.867065000000004" lon="-5.312406666666667">
<ele>1863</ele>
<time>2016-08-22T17:50:47Z</time>
</trkpt>
<trkpt lat="42.86701" lon="-5.3121133333333335">
<ele>1860</ele>
<time>2016-08-22T17:50:49Z</time>
</trkpt>
<trkpt lat="42.866953333333335" lon="-5.311814999999999">
<ele>1858</ele>
<time>2016-08-22T17:50:51Z</time>
</trkpt>
<trkpt lat="42.86687666666667" lon="-5.31152">
<ele>1855</ele>
<time>2016-08-22T17:50:53Z</time>
</trkpt>
<trkpt lat="42.866818333333335" lon="-5.311228333333334">
<ele>1852</ele>
<time>2016-08-22T17:50:55Z</time>
</trkpt>
<trkpt lat="42.86675666666667" lon="-5.310946666666666">
<ele>1850</ele>
<time>2016-08-22T17:50:57Z</time>
</trkpt>
<trkpt lat="42.866695" lon="-5.310668333333333">
<ele>1847</ele>
<time>2016-08-22T17:50:59Z</time>
</trkpt>
<trkpt lat="42.86664333333333" lon="-5.310379999999999">
<ele>1845</ele>
<time>2016-08-22T17:51:01Z</time>
</trkpt>
<trkpt lat="42.866589999999995" lon="-5.310106666666667">
<ele>1842</ele>
<time>2016-08-22T17:51:03Z</time>
</trkpt>
<trkpt lat="42.86651333333332" lon="-5.309826666666667">
<ele>1840</ele>
<time>2016-08-22T17:51:05Z</time>
</trkpt>
<trkpt lat="42.86645" lon="-5.309533333333333">
<ele>1837</ele>
<time>2016-08-22T17:51:07Z</time>
</trkpt>
<trkpt lat="42.866415" lon="-5.309225">
<ele>1835</ele>
<time>2016-08-22T17:51:09Z</time>
</trkpt>
<trkpt lat="42.866415" lon="-5.308916666666666">
<ele>1832</ele>
<time>2016-08-22T17:51:11Z</time>
</trkpt>
<trkpt lat="42.86644833333333" lon="-5.308586666666668">
<ele>1830</ele>
<time>2016-08-22T17:51:13Z</time>
</trkpt>
<trkpt lat="42.866490000000006" lon="-5.3082616666666675">
<ele>1827</ele>
<time>2016-08-22T17:51:15Z</time>
</trkpt>
<trkpt lat="42.86653166666667" lon="-5.307946666666667">
<ele>1825</ele>
<time>2016-08-22T17:51:17Z</time>
</trkpt>
<trkpt lat="42.86657666666667" lon="-5.307618333333333">
<ele>1823</ele>
<time>2016-08-22T17:51:19Z</time>
</trkpt>
<trkpt lat="42.86660833333334" lon="-5.307294999999999">
<ele>1821</ele>
<time>2016-08-22T17:51:21Z</time>
</trkpt>
<trkpt lat="42.86663" lon="-5.306986666666668">
<ele>1818</ele>
<time>2016-08-22T17:51:23Z</time>
</trkpt>
<trkpt lat="42.86664833333332" lon="-5.306676666666667">
<ele>1815</ele>
<time>2016-08-22T17:51:25Z</time>
</trkpt>
<trkpt lat="42.866615" lon="-5.306376666666667">
<ele>1812</ele>
<time>2016-08-22T17:51:27Z</time>
</trkpt>
<trkpt lat="42.86653166666667" lon="-5.306096666666667">
<ele>1809</ele>
<time>2016-08-22T17:51:29Z</time>
</trkpt>
<trkpt lat="42.86648666666667" lon="-5.305828333333333">
<ele>1806</ele>
<time>2016-08-22T17:51:31Z</time>
</trkpt>
<trkpt lat="42.86645" lon="-5.305545">
<ele>1803</ele>
<time>2016-08-22T17:51:33Z</time>
</trkpt>
<trkpt lat="42.86640333333333" lon="-5.305265000000001">
<ele>1801</ele>
<time>2016-08-22T17:51:35Z</time>
</trkpt>
<trkpt lat="42.86637333333333" lon="-5.304984999999999">
<ele>1799</ele>
<time>2016-08-22T17:51:37Z</time>
</trkpt>
<trkpt lat="42.86632666666666" lon="-5.304695">
<ele>1796</ele>
<time>2016-08-22T17:51:39Z</time>
</trkpt>
<trkpt lat="42.86625166666666" lon="-5.304406666666667">
<ele>1794</ele>
<time>2016-08-22T17:51:41Z</time>
</trkpt>
<trkpt lat="42.86618" lon="-5.304121666666666">
<ele>1791</ele>
<time>2016-08-22T17:51:43Z</time>
</trkpt>
<trkpt lat="42.866126666666666" lon="-5.303835">
<ele>1788</ele>
<time>2016-08-22T17:51:45Z</time>
</trkpt>
<trkpt lat="42.86606833333334" lon="-5.303545000000001">
<ele>1786</ele>
<time>2016-08-22T17:51:47Z</time>
</trkpt>
<trkpt lat="42.86601833333334" lon="-5.3032666666666675">
<ele>1783</ele>
<time>2016-08-22T17:51:49Z</time>
</trkpt>
<trkpt lat="42.86598833333334" lon="-5.302993333333334">
<ele>1780</ele>
<time>2016-08-22T17:51:51Z</time>
</trkpt>
<trkpt lat="42.86597666666667" lon="-5.302698333333333">
<ele>1777</ele>
<time>2016-08-22T17:51:53Z</time>
</trkpt>
<trkpt lat="42.865965" lon="-5.302405000000001">
<ele>1774</ele>
<time>2016-08-22T17:51:55Z</time>
</trkpt>
<trkpt lat="42.86595666666667" lon="-5.302144999999999">
<ele>1770</ele>
<time>2016-08-22T17:51:57Z</time>
</trkpt>
<trkpt lat="42.86594333333334" lon="-5.301836666666666">
<ele>1768</ele>
<time>2016-08-22T17:51:59Z</time>
</trkpt>
<trkpt lat="42.86591833333333" lon="-5.301538333333334">
<ele>1764</ele>
<time>2016-08-22T17:52:01Z</time>
</trkpt>
<trkpt lat="42.865869999999994" lon="-5.301248333333333">
<ele>1761</ele>
<time>2016-08-22T17:52:03Z</time>
</trkpt>
<trkpt lat="42.86582166666667" lon="-5.300951666666666">
<ele>1759</ele>
<time>2016-08-22T17:52:05Z</time>
</trkpt>
<trkpt lat="42.86575833333333" lon="-5.300656666666667">
<ele>1756</ele>
<time>2016-08-22T17:52:07Z</time>
</trkpt>
<trkpt lat="42.86568666666667" lon="-5.30038">
<ele>1753</ele>
<time>2016-08-22T17:52:09Z</time>
</trkpt>
<trkpt lat="42.86562000000001" lon="-5.300106666666666">
<ele>1750</ele>
<time>2016-08-22T17:52:11Z</time>
</trkpt>
<trkpt lat="42.86555833333333" lon="-5.299825">
<ele>1748</ele>
<time>2016-08-22T17:52:13Z</time>
</trkpt>
<trkpt lat="42.865500000000004" lon="-5.299535">
<ele>1745</ele>
<time>2016-08-22T17:52:15Z</time>
</trkpt>
<trkpt lat="42.865449999999996" lon="-5.299233333333333">
<ele>1742</ele>
<time>2016-08-22T17:52:17Z</time>
</trkpt>
<trkpt lat="42.86541833333334" lon="-5.298911666666667">
<ele>1738</ele>
<time>2016-08-22T17:52:19Z</time>
</trkpt>
<trkpt lat="42.865404999999996" lon="-5.298613333333333">
<ele>1735</ele>
<time>2016-08-22T17:52:21Z</time>
</trkpt>
<trkpt lat="42.86539166666667" lon="-5.298334999999999">
<ele>1732</ele>
<time>2016-08-22T17:52:23Z</time>
</trkpt>
<trkpt lat="42.86537" lon="-5.298043333333334">
<ele>1729</ele>
<time>2016-08-22T17:52:25Z</time>
</trkpt>
<trkpt lat="42.865339999999996" lon="-5.29775">
<ele>1726</ele>
<time>2016-08-22T17:52:27Z</time>
</trkpt>
<trkpt lat="42.86529333333333" lon="-5.297478333333333">
<ele>1722</ele>
<time>2016-08-22T17:52:29Z</time>
</trkpt>
<trkpt lat="42.86523999999999" lon="-5.29722">
<ele>1719</ele>
<time>2016-08-22T17:52:31Z</time>
</trkpt>
<trkpt lat="42.86519666666666" lon="-5.296951666666667">
<ele>1716</ele>
<time>2016-08-22T17:52:33Z</time>
</trkpt>
<trkpt lat="42.86515166666666" lon="-5.296673333333333">
<ele>1713</ele>
<time>2016-08-22T17:52:35Z</time>
</trkpt>
<trkpt lat="42.86510833333333" lon="-5.2963949999999995">
<ele>1710</ele>
<time>2016-08-22T17:52:37Z</time>
</trkpt>
<trkpt lat="42.86507833333334" lon="-5.2961133333333335">
<ele>1708</ele>
<time>2016-08-22T17:52:39Z</time>
</trkpt>
<trkpt lat="42.86506333333333" lon="-5.29582">
<ele>1704</ele>
<time>2016-08-22T17:52:41Z</time>
</trkpt>
<trkpt lat="42.86503833333333" lon="-5.295545000000001">
<ele>1700</ele>
<time>2016-08-22T17:52:43Z</time>
</trkpt>
<trkpt lat="42.86501666666666" lon="-5.295256666666668">
<ele>1697</ele>
<time>2016-08-22T17:52:45Z</time>
</trkpt>
<trkpt lat="42.86500666666667" lon="-5.294956666666667">
<ele>1693</ele>
<time>2016-08-22T17:52:47Z</time>
</trkpt>
<trkpt lat="42.86496833333334" lon="-5.294706666666667">
<ele>1690</ele>
<time>2016-08-22T17:52:49Z</time>
</trkpt>
<trkpt lat="42.864933333333326" lon="-5.294471666666667">
<ele>1686</ele>
<time>2016-08-22T17:52:51Z</time>
</trkpt>
<trkpt lat="42.86491833333333" lon="-5.294221666666666">
<ele>1682</ele>
<time>2016-08-22T17:52:53Z</time>
</trkpt>
<trkpt lat="42.864911666666664" lon="-5.293958333333334">
<ele>1679</ele>
<time>2016-08-22T17:52:55Z</time>
</trkpt>
<trkpt lat="42.86489333333334" lon="-5.293683333333333">
<ele>1676</ele>
<time>2016-08-22T17:52:57Z</time>
</trkpt>
<trkpt lat="42.86487" lon="-5.293435">
<ele>1673</ele>
<time>2016-08-22T17:52:59Z</time>
</trkpt>
<trkpt lat="42.86483166666667" lon="-5.293205">
<ele>1670</ele>
<time>2016-08-22T17:53:01Z</time>
</trkpt>
<trkpt lat="42.86479666666667" lon="-5.292953333333332">
<ele>1667</ele>
<time>2016-08-22T17:53:03Z</time>
</trkpt>
<trkpt lat="42.86473833333333" lon="-5.292721666666667">
<ele>1663</ele>
<time>2016-08-22T17:53:05Z</time>
</trkpt>
<trkpt lat="42.86466666666667" lon="-5.292505">
<ele>1660</ele>
<time>2016-08-22T17:53:07Z</time>
</trkpt>
<trkpt lat="42.86461333333333" lon="-5.292283333333334">
<ele>1658</ele>
<time>2016-08-22T17:53:09Z</time>
</trkpt>
<trkpt lat="42.86457" lon="-5.292033333333334">
<ele>1655</ele>
<time>2016-08-22T17:53:11Z</time>
</trkpt>
<trkpt lat="42.864493333333336" lon="-5.291759999999999">
<ele>1650</ele>
<time>2016-08-22T17:53:13Z</time>
</trkpt>
<trkpt lat="42.86445333333333" lon="-5.291524999999999">
<ele>1647</ele>
<time>2016-08-22T17:53:15Z</time>
</trkpt>
<trkpt lat="42.86442666666667" lon="-5.291299999999999">
<ele>1644</ele>
<time>2016-08-22T17:53:17Z</time>
</trkpt>
<trkpt lat="42.86440833333333" lon="-5.291065">
<ele>1640</ele>
<time>2016-08-22T17:53:19Z</time>
</trkpt>
<trkpt lat="42.864394999999995" lon="-5.290843333333333">
<ele>1638</ele>
<time>2016-08-22T17:53:21Z</time>
</trkpt>
<trkpt lat="42.864338333333336" lon="-5.290681666666668">
<ele>1635</ele>
<time>2016-08-22T17:53:23Z</time>
</trkpt>
<trkpt lat="42.86424" lon="-5.290578333333333">
<ele>1632</ele>
<time>2016-08-22T17:53:25Z</time>
</trkpt>
<trkpt lat="42.864136666666674" lon="-5.290606666666667">
<ele>1629</ele>
<time>2016-08-22T17:53:27Z</time>
</trkpt>
<trkpt lat="42.86405666666666" lon="-5.290691666666667">
<ele>1627</ele>
<time>2016-08-22T17:53:29Z</time>
</trkpt>
<trkpt lat="42.86405666666666" lon="-5.29089">
<ele>1624</ele>
<time>2016-08-22T17:53:31Z</time>
</trkpt>
<trkpt lat="42.86409666666667" lon="-5.291083333333334">
<ele>1621</ele>
<time>2016-08-22T17:53:33Z</time>
</trkpt>
<trkpt lat="42.864225000000005" lon="-5.291271666666668">
<ele>1619</ele>
<time>2016-08-22T17:53:35Z</time>
</trkpt>
<trkpt lat="42.86439666666667" lon="-5.2913983333333325">
<ele>1617</ele>
<time>2016-08-22T17:53:37Z</time>
</trkpt>
<trkpt lat="42.86459166666667" lon="-5.291479999999999">
<ele>1615</ele>
<time>2016-08-22T17:53:39Z</time>
</trkpt>
<trkpt lat="42.864805" lon="-5.291386666666667">
<ele>1613</ele>
<time>2016-08-22T17:53:41Z</time>
</trkpt>
<trkpt lat="42.86496" lon="-5.291168333333333">
<ele>1611</ele>
<time>2016-08-22T17:53:43Z</time>
</trkpt>
<trkpt lat="42.865023333333326" lon="-5.290959999999999">
<ele>1609</ele>
<time>2016-08-22T17:53:45Z</time>
</trkpt>
<trkpt lat="42.86496333333333" lon="-5.290780000000001">
<ele>1608</ele>
<time>2016-08-22T17:53:47Z</time>
</trkpt>
<trkpt lat="42.86487" lon="-5.290781666666667">
<ele>1606</ele>
<time>2016-08-22T17:53:49Z</time>
</trkpt>
<trkpt lat="42.864763333333336" lon="-5.290888333333333">
<ele>1604</ele>
<time>2016-08-22T17:53:51Z</time>
</trkpt>
<trkpt lat="42.864663333333326" lon="-5.291031666666667">
<ele>1603</ele>
<time>2016-08-22T17:53:53Z</time>
</trkpt>
<trkpt lat="42.86460166666667" lon="-5.291180000000001">
<ele>1602</ele>
<time>2016-08-22T17:53:55Z</time>
</trkpt>
<trkpt lat="42.864555" lon="-5.29131">
<ele>1601</ele>
<time>2016-08-22T17:53:57Z</time>
</trkpt>
<trkpt lat="42.864515" lon="-5.291445">
<ele>1600</ele>
<time>2016-08-22T17:53:59Z</time>
</trkpt>
<trkpt lat="42.864489999999996" lon="-5.291595000000001">
<ele>1599</ele>
<time>2016-08-22T17:54:01Z</time>
</trkpt>
<trkpt lat="42.86451666666667" lon="-5.291773333333333">
<ele>1598</ele>
<time>2016-08-22T17:54:03Z</time>
</trkpt>
<trkpt lat="42.86460999999999" lon="-5.291945">
<ele>1597</ele>
<time>2016-08-22T17:54:05Z</time>
</trkpt>
<trkpt lat="42.86474833333333" lon="-5.292058333333333">
<ele>1595</ele>
<time>2016-08-22T17:54:07Z</time>
</trkpt>
<trkpt lat="42.864909999999995" lon="-5.29206">
<ele>1594</ele>
<time>2016-08-22T17:54:09Z</time>
</trkpt>
<trkpt lat="42.865095000000004" lon="-5.29184">
<ele>1593</ele>
<time>2016-08-22T17:54:11Z</time>
</trkpt>
<trkpt lat="42.865204999999996" lon="-5.291536666666667">
<ele>1591</ele>
<time>2016-08-22T17:54:13Z</time>
</trkpt>
<trkpt lat="42.865265" lon="-5.291235">
<ele>1591</ele>
<time>2016-08-22T17:54:15Z</time>
</trkpt>
<trkpt lat="42.865273333333334" lon="-5.290991666666668">
<ele>1590</ele>
<time>2016-08-22T17:54:17Z</time>
</trkpt>
<trkpt lat="42.865230000000004" lon="-5.290786666666666">
<ele>1589</ele>
<time>2016-08-22T17:54:19Z</time>
</trkpt>
<trkpt lat="42.865179999999995" lon="-5.290626666666666">
<ele>1589</ele>
<time>2016-08-22T17:54:21Z</time>
</trkpt>
<trkpt lat="42.865125000000006" lon="-5.29051">
<ele>1589</ele>
<time>2016-08-22T17:54:23Z</time>
</trkpt>
<trkpt lat="42.865050000000004" lon="-5.290431666666666">
<ele>1590</ele>
<time>2016-08-22T17:54:25Z</time>
</trkpt>
<trkpt lat="42.864958333333334" lon="-5.290421666666666">
<ele>1589</ele>
<time>2016-08-22T17:54:27Z</time>
</trkpt>
<trkpt lat="42.86484" lon="-5.290463333333334">
<ele>1589</ele>
<time>2016-08-22T17:54:29Z</time>
</trkpt>
<trkpt lat="42.86471333333334" lon="-5.290538333333334">
<ele>1589</ele>
<time>2016-08-22T17:54:31Z</time>
</trkpt>
<trkpt lat="42.864581666666666" lon="-5.290596666666667">
<ele>1590</ele>
<time>2016-08-22T17:54:33Z</time>
</trkpt>
<trkpt lat="42.864461666666664" lon="-5.290641666666667">
<ele>1591</ele>
<time>2016-08-22T17:54:35Z</time>
</trkpt>
<trkpt lat="42.864369999999994" lon="-5.2907">
<ele>1593</ele>
<time>2016-08-22T17:54:37Z</time>
</trkpt>
<trkpt lat="42.864369999999994" lon="-5.290824999999999">
<ele>1593</ele>
<time>2016-08-22T17:54:39Z</time>
</trkpt>
<trkpt lat="42.864536666666666" lon="-5.290973333333333">
<ele>1593</ele>
<time>2016-08-22T17:54:41Z</time>
</trkpt>
<trkpt lat="42.86470166666666" lon="-5.291030000000001">
<ele>1593</ele>
<time>2016-08-22T17:54:43Z</time>
</trkpt>
<trkpt lat="42.86487166666667" lon="-5.290888333333333">
<ele>1593</ele>
<time>2016-08-22T17:54:45Z</time>
</trkpt>
<trkpt lat="42.86492666666666" lon="-5.290630000000001">
<ele>1593</ele>
<time>2016-08-22T17:54:47Z</time>
</trkpt>
<trkpt lat="42.86487833333334" lon="-5.290366666666667">
<ele>1593</ele>
<time>2016-08-22T17:54:49Z</time>
</trkpt>
<trkpt lat="42.864868333333334" lon="-5.290113333333333">
<ele>1595</ele>
<time>2016-08-22T17:54:51Z</time>
</trkpt>
<trkpt lat="42.86481666666667" lon="-5.289968333333333">
<ele>1596</ele>
<time>2016-08-22T17:54:53Z</time>
</trkpt>
<trkpt lat="42.86471333333334" lon="-5.289945">
<ele>1597</ele>
<time>2016-08-22T17:54:55Z</time>
</trkpt>
<trkpt lat="42.864675000000005" lon="-5.290071666666667">
<ele>1597</ele>
<time>2016-08-22T17:54:57Z</time>
</trkpt>
<trkpt lat="42.86473833333333" lon="-5.290260000000001">
<ele>1598</ele>
<time>2016-08-22T17:54:59Z</time>
</trkpt>
<trkpt lat="42.864868333333334" lon="-5.290360000000001">
<ele>1598</ele>
<time>2016-08-22T17:55:01Z</time>
</trkpt>
<trkpt lat="42.865003333333334" lon="-5.290303333333332">
<ele>1599</ele>
<time>2016-08-22T17:55:03Z</time>
</trkpt>
<trkpt lat="42.86510499999999" lon="-5.290043333333333">
<ele>1599</ele>
<time>2016-08-22T17:55:05Z</time>
</trkpt>
<trkpt lat="42.86514833333334" lon="-5.289796666666666">
<ele>1599</ele>
<time>2016-08-22T17:55:07Z</time>
</trkpt>
<trkpt lat="42.865155" lon="-5.289586666666666">
<ele>1599</ele>
<time>2016-08-22T17:55:09Z</time>
</trkpt>
<trkpt lat="42.865023333333326" lon="-5.2894283333333325">
<ele>1599</ele>
<time>2016-08-22T17:55:11Z</time>
</trkpt>
<trkpt lat="42.86490833333334" lon="-5.2894000000000005">
<ele>1599</ele>
<time>2016-08-22T17:55:13Z</time>
</trkpt>
<trkpt lat="42.864805" lon="-5.28952">
<ele>1599</ele>
<time>2016-08-22T17:55:15Z</time>
</trkpt>
<trkpt lat="42.86472833333334" lon="-5.289683333333333">
<ele>1599</ele>
<time>2016-08-22T17:55:17Z</time>
</trkpt>
<trkpt lat="42.864718333333336" lon="-5.289838333333334">
<ele>1600</ele>
<time>2016-08-22T17:55:19Z</time>
</trkpt>
<trkpt lat="42.86473833333333" lon="-5.289991666666666">
<ele>1601</ele>
<time>2016-08-22T17:55:21Z</time>
</trkpt>
<trkpt lat="42.86486333333334" lon="-5.29012">
<ele>1601</ele>
<time>2016-08-22T17:55:23Z</time>
</trkpt>
<trkpt lat="42.865023333333326" lon="-5.290203333333333">
<ele>1601</ele>
<time>2016-08-22T17:55:25Z</time>
</trkpt>
<trkpt lat="42.86520833333334" lon="-5.290126666666667">
<ele>1601</ele>
<time>2016-08-22T17:55:27Z</time>
</trkpt>
<trkpt lat="42.865361666666665" lon="-5.289908333333333">
<ele>1602</ele>
<time>2016-08-22T17:55:29Z</time>
</trkpt>
<trkpt lat="42.86544000000001" lon="-5.289686666666667">
<ele>1602</ele>
<time>2016-08-22T17:55:31Z</time>
</trkpt>
<trkpt lat="42.86545666666666" lon="-5.289468333333334">
<ele>1603</ele>
<time>2016-08-22T17:55:33Z</time>
</trkpt>
<trkpt lat="42.86541166666666" lon="-5.289296666666667">
<ele>1604</ele>
<time>2016-08-22T17:55:35Z</time>
</trkpt>
<trkpt lat="42.86533333333333" lon="-5.289161666666667">
<ele>1605</ele>
<time>2016-08-22T17:55:37Z</time>
</trkpt>
<trkpt lat="42.86520833333334" lon="-5.289151666666667">
<ele>1607</ele>
<time>2016-08-22T17:55:39Z</time>
</trkpt>
<trkpt lat="42.865080000000006" lon="-5.289269999999999">
<ele>1607</ele>
<time>2016-08-22T17:55:41Z</time>
</trkpt>
<trkpt lat="42.864978333333326" lon="-5.289416666666667">
<ele>1607</ele>
<time>2016-08-22T17:55:43Z</time>
</trkpt>
<trkpt lat="42.864943333333336" lon="-5.289550000000001">
<ele>1608</ele>
<time>2016-08-22T17:55:45Z</time>
</trkpt>
<trkpt lat="42.864975" lon="-5.289680000000001">
<ele>1610</ele>
<time>2016-08-22T17:55:47Z</time>
</trkpt>
<trkpt lat="42.86506333333333" lon="-5.289831666666667">
<ele>1611</ele>
<time>2016-08-22T17:55:49Z</time>
</trkpt>
<trkpt lat="42.865158333333326" lon="-5.290041666666667">
<ele>1613</ele>
<time>2016-08-22T17:55:51Z</time>
</trkpt>
<trkpt lat="42.8653" lon="-5.290105">
<ele>1614</ele>
<time>2016-08-22T17:55:53Z</time>
</trkpt>
<trkpt lat="42.86541999999999" lon="-5.289956666666666">
<ele>1614</ele>
<time>2016-08-22T17:55:55Z</time>
</trkpt>
<trkpt lat="42.865565" lon="-5.289633333333334">
<ele>1614</ele>
<time>2016-08-22T17:55:57Z</time>
</trkpt>
<trkpt lat="42.86566666666666" lon="-5.289323333333334">
<ele>1614</ele>
<time>2016-08-22T17:55:59Z</time>
</trkpt>
<trkpt lat="42.86573666666666" lon="-5.28904">
<ele>1616</ele>
<time>2016-08-22T17:56:01Z</time>
</trkpt>
<trkpt lat="42.86573833333333" lon="-5.2887900000000005">
<ele>1619</ele>
<time>2016-08-22T17:56:03Z</time>
</trkpt>
<trkpt lat="42.865705" lon="-5.28854">
<ele>1622</ele>
<time>2016-08-22T17:56:05Z</time>
</trkpt>
<trkpt lat="42.86561" lon="-5.288271666666666">
<ele>1626</ele>
<time>2016-08-22T17:56:07Z</time>
</trkpt>
<trkpt lat="42.865505" lon="-5.288021666666666">
<ele>1631</ele>
<time>2016-08-22T17:56:09Z</time>
</trkpt>
<trkpt lat="42.8654" lon="-5.287943333333334">
<ele>1635</ele>
<time>2016-08-22T17:56:11Z</time>
</trkpt>
<trkpt lat="42.86528" lon="-5.287965000000001">
<ele>1637</ele>
<time>2016-08-22T17:56:13Z</time>
</trkpt>
<trkpt lat="42.86514333333333" lon="-5.288010000000001">
<ele>1640</ele>
<time>2016-08-22T17:56:15Z</time>
</trkpt>
<trkpt lat="42.865024999999996" lon="-5.288078333333334">
<ele>1644</ele>
<time>2016-08-22T17:56:17Z</time>
</trkpt>
<trkpt lat="42.86498666666667" lon="-5.288278333333333">
<ele>1646</ele>
<time>2016-08-22T17:56:19Z</time>
</trkpt>
<trkpt lat="42.864934999999996" lon="-5.2884899999999995">
<ele>1648</ele>
<time>2016-08-22T17:56:21Z</time>
</trkpt>
<trkpt lat="42.864885" lon="-5.288688333333332">
<ele>1649</ele>
<time>2016-08-22T17:56:23Z</time>
</trkpt>
<trkpt lat="42.86485" lon="-5.288871666666667">
<ele>1652</ele>
<time>2016-08-22T17:56:25Z</time>
</trkpt>
<trkpt lat="42.864823333333334" lon="-5.28903">
<ele>1653</ele>
<time>2016-08-22T17:56:27Z</time>
</trkpt>
<trkpt lat="42.86486166666667" lon="-5.289206666666667">
<ele>1653</ele>
<time>2016-08-22T17:56:29Z</time>
</trkpt>
<trkpt lat="42.86495333333334" lon="-5.289396666666666">
<ele>1653</ele>
<time>2016-08-22T17:56:31Z</time>
</trkpt>
<trkpt lat="42.865095000000004" lon="-5.2895716666666655">
<ele>1654</ele>
<time>2016-08-22T17:56:33Z</time>
</trkpt>
<trkpt lat="42.865273333333334" lon="-5.289693333333334">
<ele>1654</ele>
<time>2016-08-22T17:56:35Z</time>
</trkpt>
<trkpt lat="42.865525" lon="-5.289646666666666">
<ele>1654</ele>
<time>2016-08-22T17:56:37Z</time>
</trkpt>
<trkpt lat="42.86571000000001" lon="-5.289401666666667">
<ele>1654</ele>
<time>2016-08-22T17:56:39Z</time>
</trkpt>
<trkpt lat="42.865875" lon="-5.289138333333333">
<ele>1654</ele>
<time>2016-08-22T17:56:41Z</time>
</trkpt>
<trkpt lat="42.86593666666666" lon="-5.288826666666667">
<ele>1654</ele>
<time>2016-08-22T17:56:43Z</time>
</trkpt>
<trkpt lat="42.86593833333333" lon="-5.2885316666666675">
<ele>1654</ele>
<time>2016-08-22T17:56:45Z</time>
</trkpt>
<trkpt lat="42.86589833333334" lon="-5.28827">
<ele>1654</ele>
<time>2016-08-22T17:56:47Z</time>
</trkpt>
<trkpt lat="42.86584666666666" lon="-5.288035">
<ele>1654</ele>
<time>2016-08-22T17:56:49Z</time>
</trkpt>
<trkpt lat="42.86580166666666" lon="-5.287800000000001">
<ele>1655</ele>
<time>2016-08-22T17:56:51Z</time>
</trkpt>
<trkpt lat="42.86577166666666" lon="-5.287538333333333">
<ele>1655</ele>
<time>2016-08-22T17:56:53Z</time>
</trkpt>
<trkpt lat="42.86573166666667" lon="-5.287274999999999">
<ele>1655</ele>
<time>2016-08-22T17:56:55Z</time>
</trkpt>
<trkpt lat="42.865680000000005" lon="-5.287021666666667">
<ele>1655</ele>
<time>2016-08-22T17:56:57Z</time>
</trkpt>
<trkpt lat="42.865635000000005" lon="-5.2867500000000005">
<ele>1656</ele>
<time>2016-08-22T17:56:59Z</time>
</trkpt>
<trkpt lat="42.86561" lon="-5.286476666666666">
<ele>1656</ele>
<time>2016-08-22T17:57:01Z</time>
</trkpt>
<trkpt lat="42.86557166666667" lon="-5.286221666666667">
<ele>1656</ele>
<time>2016-08-22T17:57:03Z</time>
</trkpt>
<trkpt lat="42.86553833333334" lon="-5.285951666666667">
<ele>1656</ele>
<time>2016-08-22T17:57:05Z</time>
</trkpt>
<trkpt lat="42.86550666666667" lon="-5.285655000000001">
<ele>1656</ele>
<time>2016-08-22T17:57:07Z</time>
</trkpt>
<trkpt lat="42.86543333333334" lon="-5.285391666666667">
<ele>1655</ele>
<time>2016-08-22T17:57:09Z</time>
</trkpt>
<trkpt lat="42.86538166666666" lon="-5.285143333333334">
<ele>1654</ele>
<time>2016-08-22T17:57:11Z</time>
</trkpt>
<trkpt lat="42.865361666666665" lon="-5.2848500000000005">
<ele>1653</ele>
<time>2016-08-22T17:57:13Z</time>
</trkpt>
<trkpt lat="42.86530333333334" lon="-5.284566666666666">
<ele>1651</ele>
<time>2016-08-22T17:57:15Z</time>
</trkpt>
<trkpt lat="42.86524333333333" lon="-5.284291666666666">
<ele>1649</ele>
<time>2016-08-22T17:57:17Z</time>
</trkpt>
<trkpt lat="42.86521833333333" lon="-5.284013333333333">
<ele>1647</ele>
<time>2016-08-22T17:57:19Z</time>
</trkpt>
<trkpt lat="42.865165" lon="-5.283738333333334">
<ele>1645</ele>
<time>2016-08-22T17:57:21Z</time>
</trkpt>
<trkpt lat="42.86510333333334" lon="-5.283453333333333">
<ele>1643</ele>
<time>2016-08-22T17:57:23Z</time>
</trkpt>
<trkpt lat="42.865075" lon="-5.283158333333334">
<ele>1640</ele>
<time>2016-08-22T17:57:25Z</time>
</trkpt>
<trkpt lat="42.86505166666667" lon="-5.2828599999999994">
<ele>1638</ele>
<time>2016-08-22T17:57:27Z</time>
</trkpt>
<trkpt lat="42.86501499999999" lon="-5.282561666666667">
<ele>1635</ele>
<time>2016-08-22T17:57:29Z</time>
</trkpt>
<trkpt lat="42.864988333333336" lon="-5.282264999999999">
<ele>1632</ele>
<time>2016-08-22T17:57:31Z</time>
</trkpt>
<trkpt lat="42.86496666666667" lon="-5.281985">
<ele>1629</ele>
<time>2016-08-22T17:57:33Z</time>
</trkpt>
<trkpt lat="42.86495" lon="-5.281703333333334">
<ele>1626</ele>
<time>2016-08-22T17:57:35Z</time>
</trkpt>
<trkpt lat="42.864943333333336" lon="-5.281403333333333">
<ele>1624</ele>
<time>2016-08-22T17:57:37Z</time>
</trkpt>
<trkpt lat="42.86493833333334" lon="-5.281113333333334">
<ele>1621</ele>
<time>2016-08-22T17:57:39Z</time>
</trkpt>
<trkpt lat="42.864898333333336" lon="-5.280836666666667">
<ele>1618</ele>
<time>2016-08-22T17:57:41Z</time>
</trkpt>
<trkpt lat="42.864843333333326" lon="-5.280538333333334">
<ele>1616</ele>
<time>2016-08-22T17:57:43Z</time>
</trkpt>
<trkpt lat="42.864819999999995" lon="-5.280246666666667">
<ele>1613</ele>
<time>2016-08-22T17:57:45Z</time>
</trkpt>
<trkpt lat="42.86482833333333" lon="-5.279965000000001">
<ele>1611</ele>
<time>2016-08-22T17:57:47Z</time>
</trkpt>
<trkpt lat="42.864888333333326" lon="-5.279693333333333">
<ele>1608</ele>
<time>2016-08-22T17:57:49Z</time>
</trkpt>
<trkpt lat="42.86496666666667" lon="-5.2793833333333335">
<ele>1606</ele>
<time>2016-08-22T17:57:51Z</time>
</trkpt>
<trkpt lat="42.865048333333334" lon="-5.279058333333334">
<ele>1603</ele>
<time>2016-08-22T17:57:53Z</time>
</trkpt>
<trkpt lat="42.86512166666667" lon="-5.278765000000001">
<ele>1600</ele>
<time>2016-08-22T17:57:55Z</time>
</trkpt>
<trkpt lat="42.86514999999999" lon="-5.278466666666666">
<ele>1596</ele>
<time>2016-08-22T17:57:57Z</time>
</trkpt>
<trkpt lat="42.865165" lon="-5.278149999999999">
<ele>1594</ele>
<time>2016-08-22T17:57:59Z</time>
</trkpt>
<trkpt lat="42.865165" lon="-5.277839999999999">
<ele>1591</ele>
<time>2016-08-22T17:58:01Z</time>
</trkpt>
<trkpt lat="42.86516166666667" lon="-5.277551666666667">
<ele>1588</ele>
<time>2016-08-22T17:58:03Z</time>
</trkpt>
<trkpt lat="42.86516666666667" lon="-5.277270000000001">
<ele>1585</ele>
<time>2016-08-22T17:58:05Z</time>
</trkpt>
<trkpt lat="42.865158333333326" lon="-5.277023333333333">
<ele>1582</ele>
<time>2016-08-22T17:58:07Z</time>
</trkpt>
<trkpt lat="42.86513" lon="-5.2767783333333345">
<ele>1579</ele>
<time>2016-08-22T17:58:09Z</time>
</trkpt>
<trkpt lat="42.865095000000004" lon="-5.27652">
<ele>1576</ele>
<time>2016-08-22T17:58:11Z</time>
</trkpt>
<trkpt lat="42.865044999999995" lon="-5.276283333333334">
<ele>1573</ele>
<time>2016-08-22T17:58:13Z</time>
</trkpt>
<trkpt lat="42.864985" lon="-5.276043333333333">
<ele>1569</ele>
<time>2016-08-22T17:58:15Z</time>
</trkpt>
<trkpt lat="42.86493" lon="-5.2758">
<ele>1567</ele>
<time>2016-08-22T17:58:17Z</time>
</trkpt>
<trkpt lat="42.86487166666667" lon="-5.275546666666666">
<ele>1564</ele>
<time>2016-08-22T17:58:19Z</time>
</trkpt>
<trkpt lat="42.86480333333334" lon="-5.275303333333333">
<ele>1561</ele>
<time>2016-08-22T17:58:21Z</time>
</trkpt>
<trkpt lat="42.86477" lon="-5.275038333333333">
<ele>1559</ele>
<time>2016-08-22T17:58:23Z</time>
</trkpt>
<trkpt lat="42.86474666666666" lon="-5.274763333333334">
<ele>1555</ele>
<time>2016-08-22T17:58:25Z</time>
</trkpt>
<trkpt lat="42.86469999999999" lon="-5.274515">
<ele>1552</ele>
<time>2016-08-22T17:58:27Z</time>
</trkpt>
<trkpt lat="42.864635" lon="-5.274265000000001">
<ele>1549</ele>
<time>2016-08-22T17:58:29Z</time>
</trkpt>
<trkpt lat="42.86456666666666" lon="-5.274026666666667">
<ele>1546</ele>
<time>2016-08-22T17:58:31Z</time>
</trkpt>
<trkpt lat="42.864491666666666" lon="-5.273811666666668">
<ele>1544</ele>
<time>2016-08-22T17:58:33Z</time>
</trkpt>
<trkpt lat="42.86442166666667" lon="-5.273598333333333">
<ele>1541</ele>
<time>2016-08-22T17:58:35Z</time>
</trkpt>
<trkpt lat="42.86438" lon="-5.273366666666667">
<ele>1539</ele>
<time>2016-08-22T17:58:37Z</time>
</trkpt>
<trkpt lat="42.86437166666666" lon="-5.273111666666667">
<ele>1536</ele>
<time>2016-08-22T17:58:39Z</time>
</trkpt>
<trkpt lat="42.86438499999999" lon="-5.272813333333333">
<ele>1534</ele>
<time>2016-08-22T17:58:41Z</time>
</trkpt>
<trkpt lat="42.864438333333325" lon="-5.2724899999999995">
<ele>1532</ele>
<time>2016-08-22T17:58:43Z</time>
</trkpt>
<trkpt lat="42.86448666666667" lon="-5.272183333333333">
<ele>1530</ele>
<time>2016-08-22T17:58:45Z</time>
</trkpt>
<trkpt lat="42.86452333333333" lon="-5.271884999999999">
<ele>1528</ele>
<time>2016-08-22T17:58:47Z</time>
</trkpt>
<trkpt lat="42.86454833333334" lon="-5.271611666666667">
<ele>1525</ele>
<time>2016-08-22T17:58:49Z</time>
</trkpt>
<trkpt lat="42.864528333333325" lon="-5.271341666666666">
<ele>1523</ele>
<time>2016-08-22T17:58:51Z</time>
</trkpt>
<trkpt lat="42.86442333333333" lon="-5.271116666666668">
<ele>1521</ele>
<time>2016-08-22T17:58:53Z</time>
</trkpt>
<trkpt lat="42.86427833333334" lon="-5.270985">
<ele>1519</ele>
<time>2016-08-22T17:58:55Z</time>
</trkpt>
<trkpt lat="42.86410333333333" lon="-5.2709583333333345">
<ele>1516</ele>
<time>2016-08-22T17:58:57Z</time>
</trkpt>
<trkpt lat="42.863955000000004" lon="-5.271050000000001">
<ele>1513</ele>
<time>2016-08-22T17:58:59Z</time>
</trkpt>
<trkpt lat="42.863845000000005" lon="-5.2711766666666655">
<ele>1510</ele>
<time>2016-08-22T17:59:01Z</time>
</trkpt>
<trkpt lat="42.863929999999996" lon="-5.2714033333333346">
<ele>1507</ele>
<time>2016-08-22T17:59:03Z</time>
</trkpt>
<trkpt lat="42.864043333333335" lon="-5.271591666666666">
<ele>1504</ele>
<time>2016-08-22T17:59:05Z</time>
</trkpt>
<trkpt lat="42.86425166666666" lon="-5.271703333333333">
<ele>1501</ele>
<time>2016-08-22T17:59:07Z</time>
</trkpt>
<trkpt lat="42.864414999999994" lon="-5.271725">
<ele>1498</ele>
<time>2016-08-22T17:59:09Z</time>
</trkpt>
<trkpt lat="42.864586666666675" lon="-5.271623333333334">
<ele>1496</ele>
<time>2016-08-22T17:59:11Z</time>
</trkpt>
<trkpt lat="42.86459" lon="-5.271555000000001">
<ele>1493</ele>
<time>2016-08-22T17:59:13Z</time>
</trkpt>
<trkpt lat="42.864586666666675" lon="-5.271281666666666">
<ele>1491</ele>
<time>2016-08-22T17:59:15Z</time>
</trkpt>
<trkpt lat="42.864581666666666" lon="-5.271003333333335">
<ele>1489</ele>
<time>2016-08-22T17:59:17Z</time>
</trkpt>
<trkpt lat="42.864555" lon="-5.270613333333333">
<ele>1485</ele>
<time>2016-08-22T17:59:19Z</time>
</trkpt>
<trkpt lat="42.86445333333333" lon="-5.270246666666666">
<ele>1482</ele>
<time>2016-08-22T17:59:21Z</time>
</trkpt>
<trkpt lat="42.864349999999995" lon="-5.269988333333333">
<ele>1480</ele>
<time>2016-08-22T17:59:23Z</time>
</trkpt>
<trkpt lat="42.86423833333333" lon="-5.269738333333334">
<ele>1477</ele>
<time>2016-08-22T17:59:25Z</time>
</trkpt>
<trkpt lat="42.86409666666667" lon="-5.269483333333333">
<ele>1475</ele>
<time>2016-08-22T17:59:27Z</time>
</trkpt>
<trkpt lat="42.863943333333324" lon="-5.2692283333333325">
<ele>1472</ele>
<time>2016-08-22T17:59:29Z</time>
</trkpt>
<trkpt lat="42.86381166666667" lon="-5.268979999999999">
<ele>1470</ele>
<time>2016-08-22T17:59:31Z</time>
</trkpt>
<trkpt lat="42.863663333333335" lon="-5.268759999999999">
<ele>1467</ele>
<time>2016-08-22T17:59:33Z</time>
</trkpt>
<trkpt lat="42.863493333333324" lon="-5.268555">
<ele>1465</ele>
<time>2016-08-22T17:59:35Z</time>
</trkpt>
<trkpt lat="42.86334" lon="-5.268351666666666">
<ele>1462</ele>
<time>2016-08-22T17:59:37Z</time>
</trkpt>
<trkpt lat="42.863164999999995" lon="-5.2681483333333325">
<ele>1459</ele>
<time>2016-08-22T17:59:39Z</time>
</trkpt>
<trkpt lat="42.86299333333333" lon="-5.267948333333334">
<ele>1457</ele>
<time>2016-08-22T17:59:41Z</time>
</trkpt>
<trkpt lat="42.86283666666667" lon="-5.267731666666666">
<ele>1454</ele>
<time>2016-08-22T17:59:43Z</time>
</trkpt>
<trkpt lat="42.86268166666667" lon="-5.267544999999999">
<ele>1452</ele>
<time>2016-08-22T17:59:45Z</time>
</trkpt>
<trkpt lat="42.862521666666666" lon="-5.267390000000001">
<ele>1449</ele>
<time>2016-08-22T17:59:47Z</time>
</trkpt>
<trkpt lat="42.86237333333334" lon="-5.267218333333333">
<ele>1447</ele>
<time>2016-08-22T17:59:49Z</time>
</trkpt>
<trkpt lat="42.862225" lon="-5.267033333333334">
<ele>1444</ele>
<time>2016-08-22T17:59:51Z</time>
</trkpt>
<trkpt lat="42.86206333333333" lon="-5.266838333333334">
<ele>1441</ele>
<time>2016-08-22T17:59:53Z</time>
</trkpt>
<trkpt lat="42.861926666666676" lon="-5.2666416666666676">
<ele>1439</ele>
<time>2016-08-22T17:59:55Z</time>
</trkpt>
<trkpt lat="42.86182999999999" lon="-5.266416666666667">
<ele>1436</ele>
<time>2016-08-22T17:59:57Z</time>
</trkpt>
<trkpt lat="42.86171666666667" lon="-5.266183333333333">
<ele>1434</ele>
<time>2016-08-22T17:59:59Z</time>
</trkpt>
<trkpt lat="42.86158999999999" lon="-5.265959999999999">
<ele>1432</ele>
<time>2016-08-22T18:00:01Z</time>
</trkpt>
<trkpt lat="42.861484999999995" lon="-5.2657549999999995">
<ele>1430</ele>
<time>2016-08-22T18:00:03Z</time>
</trkpt>
<trkpt lat="42.861374999999995" lon="-5.265553333333334">
<ele>1428</ele>
<time>2016-08-22T18:00:05Z</time>
</trkpt>
<trkpt lat="42.86126333333333" lon="-5.2653333333333325">
<ele>1426</ele>
<time>2016-08-22T18:00:07Z</time>
</trkpt>
<trkpt lat="42.861175" lon="-5.265105">
<ele>1424</ele>
<time>2016-08-22T18:00:09Z</time>
</trkpt>
<trkpt lat="42.861085" lon="-5.264881666666668">
<ele>1423</ele>
<time>2016-08-22T18:00:11Z</time>
</trkpt>
<trkpt lat="42.86097333333334" lon="-5.264665">
<ele>1421</ele>
<time>2016-08-22T18:00:13Z</time>
</trkpt>
<trkpt lat="42.86085500000001" lon="-5.264460000000001">
<ele>1420</ele>
<time>2016-08-22T18:00:15Z</time>
</trkpt>
<trkpt lat="42.86074166666667" lon="-5.264241666666667">
<ele>1418</ele>
<time>2016-08-22T18:00:17Z</time>
</trkpt>
<trkpt lat="42.860616666666665" lon="-5.264026666666666">
<ele>1417</ele>
<time>2016-08-22T18:00:19Z</time>
</trkpt>
<trkpt lat="42.860504999999996" lon="-5.263811666666667">
<ele>1416</ele>
<time>2016-08-22T18:00:21Z</time>
</trkpt>
<trkpt lat="42.860425" lon="-5.263625">
<ele>1415</ele>
<time>2016-08-22T18:00:23Z</time>
</trkpt>
<trkpt lat="42.86034500000001" lon="-5.263514999999999">
<ele>1414</ele>
<time>2016-08-22T18:00:25Z</time>
</trkpt>
<trkpt lat="42.860236666666665" lon="-5.263498333333333">
<ele>1413</ele>
<time>2016-08-22T18:00:27Z</time>
</trkpt>
<trkpt lat="42.860191666666665" lon="-5.263536666666666">
<ele>1411</ele>
<time>2016-08-22T18:00:29Z</time>
</trkpt>
<trkpt lat="42.860324999999996" lon="-5.263726666666668">
<ele>1409</ele>
<time>2016-08-22T18:00:31Z</time>
</trkpt>
<trkpt lat="42.860395000000004" lon="-5.263873333333334">
<ele>1408</ele>
<time>2016-08-22T18:00:33Z</time>
</trkpt>
<trkpt lat="42.86045333333333" lon="-5.264031666666667">
<ele>1407</ele>
<time>2016-08-22T18:00:35Z</time>
</trkpt>
<trkpt lat="42.860526666666665" lon="-5.264201666666666">
<ele>1405</ele>
<time>2016-08-22T18:00:37Z</time>
</trkpt>
<trkpt lat="42.860616666666665" lon="-5.264335">
<ele>1403</ele>
<time>2016-08-22T18:00:39Z</time>
</trkpt>
<trkpt lat="42.86070500000001" lon="-5.26449">
<ele>1402</ele>
<time>2016-08-22T18:00:41Z</time>
</trkpt>
<trkpt lat="42.860791666666664" lon="-5.26469">
<ele>1401</ele>
<time>2016-08-22T18:00:43Z</time>
</trkpt>
<trkpt lat="42.860881666666664" lon="-5.2648616666666666">
<ele>1400</ele>
<time>2016-08-22T18:00:45Z</time>
</trkpt>
<trkpt lat="42.86094666666666" lon="-5.265010000000001">
<ele>1398</ele>
<time>2016-08-22T18:00:47Z</time>
</trkpt>
<trkpt lat="42.86097499999999" lon="-5.265195">
<ele>1397</ele>
<time>2016-08-22T18:00:49Z</time>
</trkpt>
<trkpt lat="42.86094833333333" lon="-5.26536">
<ele>1396</ele>
<time>2016-08-22T18:00:51Z</time>
</trkpt>
<trkpt lat="42.86090333333333" lon="-5.265514999999999">
<ele>1395</ele>
<time>2016-08-22T18:00:53Z</time>
</trkpt>
<trkpt lat="42.86080833333334" lon="-5.265571666666667">
<ele>1394</ele>
<time>2016-08-22T18:00:55Z</time>
</trkpt>
<trkpt lat="42.86068166666667" lon="-5.265468333333333">
<ele>1393</ele>
<time>2016-08-22T18:00:57Z</time>
</trkpt>
<trkpt lat="42.86055833333333" lon="-5.265306666666667">
<ele>1392</ele>
<time>2016-08-22T18:00:59Z</time>
</trkpt>
<trkpt lat="42.86041166666667" lon="-5.265114999999999">
<ele>1391</ele>
<time>2016-08-22T18:01:01Z</time>
</trkpt>
<trkpt lat="42.86026333333333" lon="-5.264918333333332">
<ele>1390</ele>
<time>2016-08-22T18:01:03Z</time>
</trkpt>
<trkpt lat="42.86013" lon="-5.264691666666666">
<ele>1389</ele>
<time>2016-08-22T18:01:05Z</time>
</trkpt>
<trkpt lat="42.86001666666666" lon="-5.2644649999999995">
<ele>1389</ele>
<time>2016-08-22T18:01:07Z</time>
</trkpt>
<trkpt lat="42.859923333333334" lon="-5.264246666666666">
<ele>1389</ele>
<time>2016-08-22T18:01:09Z</time>
</trkpt>
<trkpt lat="42.859853333333334" lon="-5.264006666666668">
<ele>1388</ele>
<time>2016-08-22T18:01:11Z</time>
</trkpt>
<trkpt lat="42.85980166666666" lon="-5.263733333333333">
<ele>1387</ele>
<time>2016-08-22T18:01:13Z</time>
</trkpt>
<trkpt lat="42.859765" lon="-5.263426666666667">
<ele>1386</ele>
<time>2016-08-22T18:01:15Z</time>
</trkpt>
<trkpt lat="42.859696666666665" lon="-5.263106666666666">
<ele>1384</ele>
<time>2016-08-22T18:01:17Z</time>
</trkpt>
<trkpt lat="42.85961666666667" lon="-5.262834999999999">
<ele>1384</ele>
<time>2016-08-22T18:01:19Z</time>
</trkpt>
<trkpt lat="42.85957166666667" lon="-5.262613333333333">
<ele>1383</ele>
<time>2016-08-22T18:01:21Z</time>
</trkpt>
<trkpt lat="42.85953500000001" lon="-5.262379999999999">
<ele>1382</ele>
<time>2016-08-22T18:01:23Z</time>
</trkpt>
<trkpt lat="42.85948666666666" lon="-5.262148333333332">
<ele>1381</ele>
<time>2016-08-22T18:01:25Z</time>
</trkpt>
<trkpt lat="42.85942166666667" lon="-5.261888333333333">
<ele>1381</ele>
<time>2016-08-22T18:01:27Z</time>
</trkpt>
<trkpt lat="42.85934999999999" lon="-5.261613333333334">
<ele>1380</ele>
<time>2016-08-22T18:01:29Z</time>
</trkpt>
<trkpt lat="42.859276666666666" lon="-5.261369999999999">
<ele>1379</ele>
<time>2016-08-22T18:01:31Z</time>
</trkpt>
<trkpt lat="42.859201666666664" lon="-5.261165">
<ele>1378</ele>
<time>2016-08-22T18:01:33Z</time>
</trkpt>
<trkpt lat="42.85913000000001" lon="-5.26093">
<ele>1378</ele>
<time>2016-08-22T18:01:35Z</time>
</trkpt>
<trkpt lat="42.85904166666666" lon="-5.260666666666666">
<ele>1377</ele>
<time>2016-08-22T18:01:37Z</time>
</trkpt>
<trkpt lat="42.85895000000001" lon="-5.2604049999999996">
<ele>1376</ele>
<time>2016-08-22T18:01:39Z</time>
</trkpt>
<trkpt lat="42.85889" lon="-5.260151666666667">
<ele>1375</ele>
<time>2016-08-22T18:01:41Z</time>
</trkpt>
<trkpt lat="42.85885" lon="-5.25988">
<ele>1374</ele>
<time>2016-08-22T18:01:43Z</time>
</trkpt>
<trkpt lat="42.858808333333336" lon="-5.259595">
<ele>1373</ele>
<time>2016-08-22T18:01:45Z</time>
</trkpt>
<trkpt lat="42.85876499999999" lon="-5.259325">
<ele>1372</ele>
<time>2016-08-22T18:01:47Z</time>
</trkpt>
<trkpt lat="42.85871" lon="-5.259063333333334">
<ele>1371</ele>
<time>2016-08-22T18:01:49Z</time>
</trkpt>
<trkpt lat="42.858665" lon="-5.258801666666667">
<ele>1369</ele>
<time>2016-08-22T18:01:51Z</time>
</trkpt>
<trkpt lat="42.85862999999999" lon="-5.258536666666667">
<ele>1369</ele>
<time>2016-08-22T18:01:53Z</time>
</trkpt>
<trkpt lat="42.85859833333334" lon="-5.258300000000001">
<ele>1368</ele>
<time>2016-08-22T18:01:55Z</time>
</trkpt>
<trkpt lat="42.85856666666667" lon="-5.258091666666667">
<ele>1367</ele>
<time>2016-08-22T18:01:57Z</time>
</trkpt>
<trkpt lat="42.858536666666666" lon="-5.257881666666666">
<ele>1366</ele>
<time>2016-08-22T18:01:59Z</time>
</trkpt>
<trkpt lat="42.85850833333334" lon="-5.2576600000000004">
<ele>1366</ele>
<time>2016-08-22T18:02:01Z</time>
</trkpt>
<trkpt lat="42.85849499999999" lon="-5.257418333333334">
<ele>1365</ele>
<time>2016-08-22T18:02:03Z</time>
</trkpt>
<trkpt lat="42.85848166666666" lon="-5.257176666666667">
<ele>1363</ele>
<time>2016-08-22T18:02:05Z</time>
</trkpt>
<trkpt lat="42.85847833333334" lon="-5.256939999999999">
<ele>1362</ele>
<time>2016-08-22T18:02:07Z</time>
</trkpt>
<trkpt lat="42.85850333333333" lon="-5.25668">
<ele>1361</ele>
<time>2016-08-22T18:02:09Z</time>
</trkpt>
<trkpt lat="42.85853166666667" lon="-5.2563933333333335">
<ele>1360</ele>
<time>2016-08-22T18:02:11Z</time>
</trkpt>
<trkpt lat="42.85855166666667" lon="-5.256114999999999">
<ele>1359</ele>
<time>2016-08-22T18:02:13Z</time>
</trkpt>
<trkpt lat="42.85859833333334" lon="-5.255870000000001">
<ele>1357</ele>
<time>2016-08-22T18:02:15Z</time>
</trkpt>
<trkpt lat="42.85864333333334" lon="-5.255618333333333">
<ele>1355</ele>
<time>2016-08-22T18:02:17Z</time>
</trkpt>
<trkpt lat="42.858665" lon="-5.255345">
<ele>1353</ele>
<time>2016-08-22T18:02:19Z</time>
</trkpt>
<trkpt lat="42.85871" lon="-5.255088333333333">
<ele>1351</ele>
<time>2016-08-22T18:02:21Z</time>
</trkpt>
<trkpt lat="42.85875333333333" lon="-5.254836666666667">
<ele>1348</ele>
<time>2016-08-22T18:02:23Z</time>
</trkpt>
<trkpt lat="42.858763333333336" lon="-5.254565">
<ele>1345</ele>
<time>2016-08-22T18:02:25Z</time>
</trkpt>
<trkpt lat="42.85875166666666" lon="-5.254305">
<ele>1343</ele>
<time>2016-08-22T18:02:27Z</time>
</trkpt>
<trkpt lat="42.85872500000001" lon="-5.254080000000001">
<ele>1340</ele>
<time>2016-08-22T18:02:29Z</time>
</trkpt>
<trkpt lat="42.85867" lon="-5.253865">
<ele>1338</ele>
<time>2016-08-22T18:02:31Z</time>
</trkpt>
<trkpt lat="42.85861166666667" lon="-5.253651666666667">
<ele>1335</ele>
<time>2016-08-22T18:02:33Z</time>
</trkpt>
<trkpt lat="42.85855166666667" lon="-5.253438333333334">
<ele>1333</ele>
<time>2016-08-22T18:02:35Z</time>
</trkpt>
<trkpt lat="42.85844166666667" lon="-5.253251666666667">
<ele>1330</ele>
<time>2016-08-22T18:02:37Z</time>
</trkpt>
<trkpt lat="42.85827833333333" lon="-5.253143333333332">
<ele>1328</ele>
<time>2016-08-22T18:02:39Z</time>
</trkpt>
<trkpt lat="42.858115" lon="-5.253181666666667">
<ele>1325</ele>
<time>2016-08-22T18:02:41Z</time>
</trkpt>
<trkpt lat="42.857953333333334" lon="-5.253278333333332">
<ele>1322</ele>
<time>2016-08-22T18:02:43Z</time>
</trkpt>
<trkpt lat="42.857795" lon="-5.2533666666666665">
<ele>1319</ele>
<time>2016-08-22T18:02:45Z</time>
</trkpt>
<trkpt lat="42.857623333333336" lon="-5.253428333333333">
<ele>1317</ele>
<time>2016-08-22T18:02:47Z</time>
</trkpt>
<trkpt lat="42.85743000000001" lon="-5.25345">
<ele>1314</ele>
<time>2016-08-22T18:02:49Z</time>
</trkpt>
<trkpt lat="42.85724333333333" lon="-5.253441666666666">
<ele>1311</ele>
<time>2016-08-22T18:02:51Z</time>
</trkpt>
<trkpt lat="42.85704166666666" lon="-5.25345">
<ele>1309</ele>
<time>2016-08-22T18:02:53Z</time>
</trkpt>
<trkpt lat="42.85685166666667" lon="-5.253461666666667">
<ele>1306</ele>
<time>2016-08-22T18:02:55Z</time>
</trkpt>
<trkpt lat="42.85668666666667" lon="-5.253465">
<ele>1304</ele>
<time>2016-08-22T18:02:57Z</time>
</trkpt>
<trkpt lat="42.85653833333334" lon="-5.253485">
<ele>1302</ele>
<time>2016-08-22T18:02:59Z</time>
</trkpt>
<trkpt lat="42.85641999999999" lon="-5.253533333333333">
<ele>1300</ele>
<time>2016-08-22T18:03:01Z</time>
</trkpt>
<trkpt lat="42.856350000000006" lon="-5.2535816666666655">
<ele>1298</ele>
<time>2016-08-22T18:03:03Z</time>
</trkpt>
<trkpt lat="42.85629166666666" lon="-5.253690000000001">
<ele>1296</ele>
<time>2016-08-22T18:03:05Z</time>
</trkpt>
<trkpt lat="42.85627833333333" lon="-5.253843333333333">
<ele>1294</ele>
<time>2016-08-22T18:03:07Z</time>
</trkpt>
<trkpt lat="42.85637333333334" lon="-5.254028333333334">
<ele>1291</ele>
<time>2016-08-22T18:03:09Z</time>
</trkpt>
<trkpt lat="42.85653333333333" lon="-5.25413">
<ele>1288</ele>
<time>2016-08-22T18:03:11Z</time>
</trkpt>
<trkpt lat="42.85671166666666" lon="-5.254016666666667">
<ele>1286</ele>
<time>2016-08-22T18:03:13Z</time>
</trkpt>
<trkpt lat="42.85680166666666" lon="-5.253823333333334">
<ele>1284</ele>
<time>2016-08-22T18:03:15Z</time>
</trkpt>
<trkpt lat="42.856813333333335" lon="-5.2536249999999995">
<ele>1283</ele>
<time>2016-08-22T18:03:17Z</time>
</trkpt>
<trkpt lat="42.856808333333326" lon="-5.253433333333334">
<ele>1281</ele>
<time>2016-08-22T18:03:19Z</time>
</trkpt>
<trkpt lat="42.856778333333324" lon="-5.253281666666667">
<ele>1280</ele>
<time>2016-08-22T18:03:21Z</time>
</trkpt>
<trkpt lat="42.85669333333333" lon="-5.253265000000001">
<ele>1278</ele>
<time>2016-08-22T18:03:23Z</time>
</trkpt>
<trkpt lat="42.85665000000001" lon="-5.253306666666666">
<ele>1276</ele>
<time>2016-08-22T18:03:25Z</time>
</trkpt>
<trkpt lat="42.85678166666666" lon="-5.25345">
<ele>1274</ele>
<time>2016-08-22T18:03:27Z</time>
</trkpt>
<trkpt lat="42.85697666666667" lon="-5.253495">
<ele>1272</ele>
<time>2016-08-22T18:03:29Z</time>
</trkpt>
<trkpt lat="42.85712166666667" lon="-5.253438333333334">
<ele>1270</ele>
<time>2016-08-22T18:03:31Z</time>
</trkpt>
<trkpt lat="42.857193333333335" lon="-5.253313333333334">
<ele>1269</ele>
<time>2016-08-22T18:03:33Z</time>
</trkpt>
<trkpt lat="42.857186666666664" lon="-5.2531316666666665">
<ele>1268</ele>
<time>2016-08-22T18:03:35Z</time>
</trkpt>
<trkpt lat="42.857128333333335" lon="-5.252951666666666">
<ele>1267</ele>
<time>2016-08-22T18:03:37Z</time>
</trkpt>
<trkpt lat="42.85705333333333" lon="-5.25283">
<ele>1266</ele>
<time>2016-08-22T18:03:39Z</time>
</trkpt>
<trkpt lat="42.85695166666666" lon="-5.252755">
<ele>1265</ele>
<time>2016-08-22T18:03:41Z</time>
</trkpt>
<trkpt lat="42.85683166666666" lon="-5.252746666666667">
<ele>1264</ele>
<time>2016-08-22T18:03:43Z</time>
</trkpt>
<trkpt lat="42.856725000000004" lon="-5.252811666666665">
<ele>1263</ele>
<time>2016-08-22T18:03:45Z</time>
</trkpt>
<trkpt lat="42.85669333333333" lon="-5.252954999999999">
<ele>1261</ele>
<time>2016-08-22T18:03:47Z</time>
</trkpt>
<trkpt lat="42.856788333333334" lon="-5.253181666666667">
<ele>1260</ele>
<time>2016-08-22T18:03:49Z</time>
</trkpt>
<trkpt lat="42.85693" lon="-5.253378333333334">
<ele>1258</ele>
<time>2016-08-22T18:03:51Z</time>
</trkpt>
<trkpt lat="42.857093333333324" lon="-5.253441666666666">
<ele>1256</ele>
<time>2016-08-22T18:03:53Z</time>
</trkpt>
<trkpt lat="42.85726" lon="-5.253298333333333">
<ele>1254</ele>
<time>2016-08-22T18:03:55Z</time>
</trkpt>
<trkpt lat="42.857355000000005" lon="-5.253101666666667">
<ele>1253</ele>
<time>2016-08-22T18:03:57Z</time>
</trkpt>
<trkpt lat="42.85729666666666" lon="-5.252916666666666">
<ele>1251</ele>
<time>2016-08-22T18:03:59Z</time>
</trkpt>
<trkpt lat="42.85720833333333" lon="-5.252786666666666">
<ele>1250</ele>
<time>2016-08-22T18:04:01Z</time>
</trkpt>
<trkpt lat="42.85709833333333" lon="-5.252809999999999">
<ele>1249</ele>
<time>2016-08-22T18:04:03Z</time>
</trkpt>
<trkpt lat="42.856995000000005" lon="-5.252803333333333">
<ele>1247</ele>
<time>2016-08-22T18:04:05Z</time>
</trkpt>
<trkpt lat="42.85687333333333" lon="-5.252816666666666">
<ele>1246</ele>
<time>2016-08-22T18:04:07Z</time>
</trkpt>
<trkpt lat="42.85675666666666" lon="-5.252833333333332">
<ele>1245</ele>
<time>2016-08-22T18:04:09Z</time>
</trkpt>
<trkpt lat="42.856631666666665" lon="-5.252826666666666">
<ele>1243</ele>
<time>2016-08-22T18:04:11Z</time>
</trkpt>
<trkpt lat="42.85651666666666" lon="-5.252809999999999">
<ele>1242</ele>
<time>2016-08-22T18:04:13Z</time>
</trkpt>
<trkpt lat="42.85641999999999" lon="-5.25275">
<ele>1241</ele>
<time>2016-08-22T18:04:15Z</time>
</trkpt>
<trkpt lat="42.856325" lon="-5.252651666666666">
<ele>1240</ele>
<time>2016-08-22T18:04:17Z</time>
</trkpt>
<trkpt lat="42.856205" lon="-5.252551666666666">
<ele>1238</ele>
<time>2016-08-22T18:04:19Z</time>
</trkpt>
<trkpt lat="42.85607333333334" lon="-5.2524783333333325">
<ele>1237</ele>
<time>2016-08-22T18:04:21Z</time>
</trkpt>
<trkpt lat="42.855958333333334" lon="-5.252383333333333">
<ele>1236</ele>
<time>2016-08-22T18:04:23Z</time>
</trkpt>
<trkpt lat="42.85585833333333" lon="-5.2522199999999994">
<ele>1235</ele>
<time>2016-08-22T18:04:25Z</time>
</trkpt>
<trkpt lat="42.85578166666666" lon="-5.252015">
<ele>1234</ele>
<time>2016-08-22T18:04:27Z</time>
</trkpt>
<trkpt lat="42.855751666666656" lon="-5.251786666666667">
<ele>1233</ele>
<time>2016-08-22T18:04:29Z</time>
</trkpt>
<trkpt lat="42.85576" lon="-5.251518333333333">
<ele>1232</ele>
<time>2016-08-22T18:04:31Z</time>
</trkpt>
<trkpt lat="42.855810000000005" lon="-5.251255">
<ele>1230</ele>
<time>2016-08-22T18:04:33Z</time>
</trkpt>
<trkpt lat="42.855886666666656" lon="-5.251003333333333">
<ele>1229</ele>
<time>2016-08-22T18:04:35Z</time>
</trkpt>
<trkpt lat="42.85602666666667" lon="-5.250868333333333">
<ele>1227</ele>
<time>2016-08-22T18:04:37Z</time>
</trkpt>
<trkpt lat="42.856095" lon="-5.250941666666667">
<ele>1225</ele>
<time>2016-08-22T18:04:39Z</time>
</trkpt>
<trkpt lat="42.85619499999999" lon="-5.251243333333334">
<ele>1224</ele>
<time>2016-08-22T18:04:41Z</time>
</trkpt>
<trkpt lat="42.85624666666666" lon="-5.251448333333333">
<ele>1222</ele>
<time>2016-08-22T18:04:43Z</time>
</trkpt>
<trkpt lat="42.85628333333334" lon="-5.251616666666666">
<ele>1221</ele>
<time>2016-08-22T18:04:45Z</time>
</trkpt>
<trkpt lat="42.856316666666665" lon="-5.251765000000001">
<ele>1219</ele>
<time>2016-08-22T18:04:47Z</time>
</trkpt>
<trkpt lat="42.85629666666667" lon="-5.251878333333334">
<ele>1218</ele>
<time>2016-08-22T18:04:49Z</time>
</trkpt>
<trkpt lat="42.85629166666666" lon="-5.2519833333333334">
<ele>1218</ele>
<time>2016-08-22T18:04:51Z</time>
</trkpt>
<trkpt lat="42.85618666666666" lon="-5.252008333333333">
<ele>1218</ele>
<time>2016-08-22T18:04:53Z</time>
</trkpt>
<trkpt lat="42.8561" lon="-5.251986666666666">
<ele>1217</ele>
<time>2016-08-22T18:04:55Z</time>
</trkpt>
<trkpt lat="42.85609833333333" lon="-5.2518633333333336">
<ele>1215</ele>
<time>2016-08-22T18:04:57Z</time>
</trkpt>
<trkpt lat="42.85614666666667" lon="-5.251758333333333">
<ele>1213</ele>
<time>2016-08-22T18:04:59Z</time>
</trkpt>
<trkpt lat="42.856273333333334" lon="-5.251641666666666">
<ele>1212</ele>
<time>2016-08-22T18:05:01Z</time>
</trkpt>
<trkpt lat="42.856359999999995" lon="-5.251603333333333">
<ele>1211</ele>
<time>2016-08-22T18:05:03Z</time>
</trkpt>
<trkpt lat="42.85644333333333" lon="-5.251773333333333">
<ele>1210</ele>
<time>2016-08-22T18:05:05Z</time>
</trkpt>
<trkpt lat="42.856631666666665" lon="-5.251925">
<ele>1208</ele>
<time>2016-08-22T18:05:07Z</time>
</trkpt>
<trkpt lat="42.85669500000001" lon="-5.252084999999999">
<ele>1207</ele>
<time>2016-08-22T18:05:09Z</time>
</trkpt>
<trkpt lat="42.856869999999994" lon="-5.252196666666666">
<ele>1206</ele>
<time>2016-08-22T18:05:11Z</time>
</trkpt>
<trkpt lat="42.85692833333333" lon="-5.252351666666668">
<ele>1205</ele>
<time>2016-08-22T18:05:13Z</time>
</trkpt>
<trkpt lat="42.85692833333333" lon="-5.252386666666666">
<ele>1205</ele>
<time>2016-08-22T18:05:15Z</time>
</trkpt>
<trkpt lat="42.856880000000004" lon="-5.252228333333333">
<ele>1204</ele>
<time>2016-08-22T18:05:17Z</time>
</trkpt>
<trkpt lat="42.85675333333334" lon="-5.2522850000000005">
<ele>1207</ele>
<time>2016-08-22T18:05:19Z</time>
</trkpt>
<trkpt lat="42.856719999999996" lon="-5.252108333333333">
<ele>1207</ele>
<time>2016-08-22T18:05:21Z</time>
</trkpt>
<trkpt lat="42.85671666666667" lon="-5.251903333333333">
<ele>1206</ele>
<time>2016-08-22T18:05:23Z</time>
</trkpt>
<trkpt lat="42.856725000000004" lon="-5.251678333333333">
<ele>1205</ele>
<time>2016-08-22T18:05:25Z</time>
</trkpt>
<trkpt lat="42.85678166666666" lon="-5.251458333333333">
<ele>1204</ele>
<time>2016-08-22T18:05:27Z</time>
</trkpt>
<trkpt lat="42.85682833333333" lon="-5.251239999999999">
<ele>1203</ele>
<time>2016-08-22T18:05:29Z</time>
</trkpt>
<trkpt lat="42.85682499999999" lon="-5.251038333333335">
<ele>1202</ele>
<time>2016-08-22T18:05:31Z</time>
</trkpt>
<trkpt lat="42.85680666666667" lon="-5.250846666666666">
<ele>1202</ele>
<time>2016-08-22T18:05:33Z</time>
</trkpt>
<trkpt lat="42.856766666666665" lon="-5.250653333333334">
<ele>1201</ele>
<time>2016-08-22T18:05:35Z</time>
</trkpt>
<trkpt lat="42.85671666666667" lon="-5.250456666666666">
<ele>1200</ele>
<time>2016-08-22T18:05:37Z</time>
</trkpt>
<trkpt lat="42.85666333333334" lon="-5.250228333333333">
<ele>1199</ele>
<time>2016-08-22T18:05:39Z</time>
</trkpt>
<trkpt lat="42.856629999999996" lon="-5.250005000000001">
<ele>1198</ele>
<time>2016-08-22T18:05:41Z</time>
</trkpt>
<trkpt lat="42.856595" lon="-5.249795000000001">
<ele>1196</ele>
<time>2016-08-22T18:05:43Z</time>
</trkpt>
<trkpt lat="42.85655833333333" lon="-5.249596666666667">
<ele>1195</ele>
<time>2016-08-22T18:05:45Z</time>
</trkpt>
<trkpt lat="42.856525" lon="-5.249403333333333">
<ele>1194</ele>
<time>2016-08-22T18:05:47Z</time>
</trkpt>
<trkpt lat="42.856475" lon="-5.249233333333333">
<ele>1193</ele>
<time>2016-08-22T18:05:49Z</time>
</trkpt>
<trkpt lat="42.85641333333333" lon="-5.249096666666666">
<ele>1192</ele>
<time>2016-08-22T18:05:51Z</time>
</trkpt>
<trkpt lat="42.85638333333333" lon="-5.249073333333333">
<ele>1190</ele>
<time>2016-08-22T18:05:53Z</time>
</trkpt>
<trkpt lat="42.856318333333334" lon="-5.2492600000000005">
<ele>1188</ele>
<time>2016-08-22T18:05:55Z</time>
</trkpt>
<trkpt lat="42.856226666666664" lon="-5.24942">
<ele>1187</ele>
<time>2016-08-22T18:05:57Z</time>
</trkpt>
<trkpt lat="42.85612166666667" lon="-5.249551666666667">
<ele>1185</ele>
<time>2016-08-22T18:05:59Z</time>
</trkpt>
<trkpt lat="42.856025" lon="-5.249678333333333">
<ele>1184</ele>
<time>2016-08-22T18:06:01Z</time>
</trkpt>
<trkpt lat="42.85591666666666" lon="-5.249773333333334">
<ele>1182</ele>
<time>2016-08-22T18:06:03Z</time>
</trkpt>
<trkpt lat="42.855819999999994" lon="-5.249846666666667">
<ele>1181</ele>
<time>2016-08-22T18:06:05Z</time>
</trkpt>
<trkpt lat="42.85573833333333" lon="-5.2499199999999995">
<ele>1180</ele>
<time>2016-08-22T18:06:07Z</time>
</trkpt>
<trkpt lat="42.85565166666667" lon="-5.249979999999999">
<ele>1178</ele>
<time>2016-08-22T18:06:09Z</time>
</trkpt>
<trkpt lat="42.85556166666667" lon="-5.250041666666667">
<ele>1177</ele>
<time>2016-08-22T18:06:11Z</time>
</trkpt>
<trkpt lat="42.85546333333333" lon="-5.250135">
<ele>1175</ele>
<time>2016-08-22T18:06:13Z</time>
</trkpt>
<trkpt lat="42.85539833333334" lon="-5.250258333333333">
<ele>1174</ele>
<time>2016-08-22T18:06:15Z</time>
</trkpt>
<trkpt lat="42.85534666666668" lon="-5.250438333333333">
<ele>1172</ele>
<time>2016-08-22T18:06:17Z</time>
</trkpt>
<trkpt lat="42.855266666666665" lon="-5.250618333333334">
<ele>1171</ele>
<time>2016-08-22T18:06:19Z</time>
</trkpt>
<trkpt lat="42.855176666666665" lon="-5.250723333333334">
<ele>1169</ele>
<time>2016-08-22T18:06:21Z</time>
</trkpt>
<trkpt lat="42.855039999999995" lon="-5.2507399999999995">
<ele>1167</ele>
<time>2016-08-22T18:06:23Z</time>
</trkpt>
<trkpt lat="42.85475833333333" lon="-5.2507633333333334">
<ele>1166</ele>
<time>2016-08-22T18:06:25Z</time>
</trkpt>
<trkpt lat="42.85456166666666" lon="-5.2507616666666665">
<ele>1165</ele>
<time>2016-08-22T18:06:27Z</time>
</trkpt>
<trkpt lat="42.854433333333326" lon="-5.250753333333334">
<ele>1163</ele>
<time>2016-08-22T18:06:29Z</time>
</trkpt>
<trkpt lat="42.854356666666675" lon="-5.2507649999999995">
<ele>1161</ele>
<time>2016-08-22T18:06:31Z</time>
</trkpt>
<trkpt lat="42.85431333333333" lon="-5.250751666666668">
<ele>1160</ele>
<time>2016-08-22T18:06:33Z</time>
</trkpt>
<trkpt lat="42.854290000000006" lon="-5.250721666666667">
<ele>1159</ele>
<time>2016-08-22T18:06:35Z</time>
</trkpt>
<trkpt lat="42.85428166666667" lon="-5.2507133333333345">
<ele>1158</ele>
<time>2016-08-22T18:06:37Z</time>
</trkpt>
<trkpt lat="42.85428166666667" lon="-5.2507133333333345">
<ele>1158</ele>
<time>2016-08-22T18:06:39Z</time>
</trkpt>
<trkpt lat="42.85428166666667" lon="-5.2507133333333345">
<ele>1158</ele>
<time>2016-08-22T18:06:41Z</time>
</trkpt>
<trkpt lat="42.85428166666667" lon="-5.2507133333333345">
<ele>1158</ele>
<time>2016-08-22T18:06:43Z</time>
</trkpt>
<trkpt lat="42.85428166666667" lon="-5.2507133333333345">
<ele>1158</ele>
<time>2016-08-22T18:06:45Z</time>
</trkpt>
<trkpt lat="42.85428166666667" lon="-5.2507133333333345">
<ele>1158</ele>
<time>2016-08-22T18:06:47Z</time>
</trkpt>
<trkpt lat="42.85428166666667" lon="-5.2507133333333345">
<ele>1158</ele>
<time>2016-08-22T18:06:49Z</time>
</trkpt>
<trkpt lat="42.85428166666667" lon="-5.2507133333333345">
<ele>1158</ele>
<time>2016-08-22T18:06:51Z</time>
</trkpt>
<trkpt lat="42.85428166666667" lon="-5.2507133333333345">
<ele>1158</ele>
<time>2016-08-22T18:06:53Z</time>
</trkpt>
<trkpt lat="42.85428166666667" lon="-5.2507133333333345">
<ele>1158</ele>
<time>2016-08-22T18:06:55Z</time>
</trkpt>
<trkpt lat="42.85428166666667" lon="-5.2507133333333345">
<ele>1158</ele>
<time>2016-08-22T18:06:57Z</time>
</trkpt>
<trkpt lat="42.85428166666667" lon="-5.2507133333333345">
<ele>1158</ele>
<time>2016-08-22T18:06:59Z</time>
</trkpt>
<trkpt lat="42.85428166666667" lon="-5.2507133333333345">
<ele>1158</ele>
<time>2016-08-22T18:07:01Z</time>
</trkpt>
<trkpt lat="42.85428166666667" lon="-5.2507133333333345">
<ele>1158</ele>
<time>2016-08-22T18:07:03Z</time>
</trkpt>
<trkpt lat="42.85428166666667" lon="-5.2507133333333345">
<ele>1158</ele>
<time>2016-08-22T18:07:05Z</time>
</trkpt>
<trkpt lat="42.85428166666667" lon="-5.2507133333333345">
<ele>1158</ele>
<time>2016-08-22T18:07:07Z</time>
</trkpt>
<trkpt lat="42.85428166666667" lon="-5.2507133333333345">
<ele>1158</ele>
<time>2016-08-22T18:07:09Z</time>
</trkpt>
<trkpt lat="42.85428166666667" lon="-5.2507133333333345">
<ele>1158</ele>
<time>2016-08-22T18:07:11Z</time>
</trkpt>
<trkpt lat="42.85428166666667" lon="-5.2507133333333345">
<ele>1158</ele>
<time>2016-08-22T18:07:13Z</time>
</trkpt>
<trkpt lat="42.85428166666667" lon="-5.2507133333333345">
<ele>1158</ele>
<time>2016-08-22T18:07:15Z</time>
</trkpt>
<trkpt lat="42.85428166666667" lon="-5.2507133333333345">
<ele>1158</ele>
<time>2016-08-22T18:07:17Z</time>
</trkpt>
<trkpt lat="42.85428166666667" lon="-5.2507133333333345">
<ele>1158</ele>
<time>2016-08-22T18:07:19Z</time>
</trkpt>
<trkpt lat="42.85428166666667" lon="-5.2507133333333345">
<ele>1158</ele>
<time>2016-08-22T18:07:21Z</time>
</trkpt>
<trkpt lat="42.85428166666667" lon="-5.2507133333333345">
<ele>1158</ele>
<time>2016-08-22T18:07:23Z</time>
</trkpt>
<trkpt lat="42.85428166666667" lon="-5.2507133333333345">
<ele>1158</ele>
<time>2016-08-22T18:07:25Z</time>
</trkpt>
<trkpt lat="42.85428166666667" lon="-5.2507133333333345">
<ele>1158</ele>
<time>2016-08-22T18:07:27Z</time>
</trkpt>
<trkpt lat="42.85428166666667" lon="-5.2507133333333345">
<ele>1158</ele>
<time>2016-08-22T18:07:29Z</time>
</trkpt>
<trkpt lat="42.85428166666667" lon="-5.2507133333333345">
<ele>1158</ele>
<time>2016-08-22T18:07:31Z</time>
</trkpt>
<trkpt lat="42.85428166666667" lon="-5.2507133333333345">
<ele>1158</ele>
<time>2016-08-22T18:07:33Z</time>
</trkpt>
<trkpt lat="42.85428166666667" lon="-5.2507133333333345">
<ele>1158</ele>
<time>2016-08-22T18:07:35Z</time>
</trkpt>
<trkpt lat="42.85428166666667" lon="-5.2507133333333345">
<ele>1158</ele>
<time>2016-08-22T18:07:37Z</time>
</trkpt>
<trkpt lat="42.85428166666667" lon="-5.2507133333333345">
<ele>1158</ele>
<time>2016-08-22T18:07:39Z</time>
</trkpt>
<trkpt lat="42.85428166666667" lon="-5.2507133333333345">
<ele>1158</ele>
<time>2016-08-22T18:07:41Z</time>
</trkpt>
<trkpt lat="42.85428166666667" lon="-5.2507133333333345">
<ele>1158</ele>
<time>2016-08-22T18:07:43Z</time>
</trkpt>
<trkpt lat="42.85428166666667" lon="-5.2507133333333345">
<ele>1158</ele>
<time>2016-08-22T18:07:45Z</time>
</trkpt>
<trkpt lat="42.85428166666667" lon="-5.2507133333333345">
<ele>1158</ele>
<time>2016-08-22T18:07:47Z</time>
</trkpt>
<trkpt lat="42.85428166666667" lon="-5.2507133333333345">
<ele>1158</ele>
<time>2016-08-22T18:07:49Z</time>
</trkpt>
<trkpt lat="42.85428166666667" lon="-5.2507133333333345">
<ele>1158</ele>
<time>2016-08-22T18:07:51Z</time>
</trkpt>
<trkpt lat="42.85428166666667" lon="-5.2507133333333345">
<ele>1158</ele>
<time>2016-08-22T18:07:53Z</time>
</trkpt>
<trkpt lat="42.85428166666667" lon="-5.2507133333333345">
<ele>1158</ele>
<time>2016-08-22T18:07:55Z</time>
</trkpt>
<trkpt lat="42.85428166666667" lon="-5.2507133333333345">
<ele>1158</ele>
<time>2016-08-22T18:07:57Z</time>
</trkpt>
<trkpt lat="42.85428166666667" lon="-5.2507133333333345">
<ele>1158</ele>
<time>2016-08-22T18:07:59Z</time>
</trkpt>
<trkpt lat="42.85428166666667" lon="-5.2507133333333345">
<ele>1158</ele>
<time>2016-08-22T18:08:01Z</time>
</trkpt>
<trkpt lat="42.85428166666667" lon="-5.2507133333333345">
<ele>1158</ele>
<time>2016-08-22T18:08:03Z</time>
</trkpt>
<trkpt lat="42.85428166666667" lon="-5.2507133333333345">
<ele>1158</ele>
<time>2016-08-22T18:08:05Z</time>
</trkpt>
<trkpt lat="42.85428166666667" lon="-5.2507133333333345">
<ele>1158</ele>
<time>2016-08-22T18:08:07Z</time>
</trkpt>
<trkpt lat="42.85428166666667" lon="-5.2507133333333345">
<ele>1158</ele>
<time>2016-08-22T18:08:09Z</time>
</trkpt>
<trkpt lat="42.85428166666667" lon="-5.2507133333333345">
<ele>1158</ele>
<time>2016-08-22T18:08:11Z</time>
</trkpt>
<trkpt lat="42.85428166666667" lon="-5.2507133333333345">
<ele>1158</ele>
<time>2016-08-22T18:08:13Z</time>
</trkpt>
<trkpt lat="42.85428166666667" lon="-5.2507133333333345">
<ele>1158</ele>
<time>2016-08-22T18:08:15Z</time>
</trkpt>
<trkpt lat="42.85428166666667" lon="-5.2507133333333345">
<ele>1158</ele>
<time>2016-08-22T18:08:17Z</time>
</trkpt>
<trkpt lat="42.85428166666667" lon="-5.2507133333333345">
<ele>1158</ele>
<time>2016-08-22T18:08:19Z</time>
</trkpt>
<trkpt lat="42.85428166666667" lon="-5.2507133333333345">
<ele>1158</ele>
<time>2016-08-22T18:08:21Z</time>
</trkpt>
<trkpt lat="42.85428166666667" lon="-5.2507133333333345">
<ele>1158</ele>
<time>2016-08-22T18:08:23Z</time>
</trkpt>
<trkpt lat="42.85428166666667" lon="-5.2507133333333345">
<ele>1158</ele>
<time>2016-08-22T18:08:25Z</time>
</trkpt>
<trkpt lat="42.85428166666667" lon="-5.2507133333333345">
<ele>1158</ele>
<time>2016-08-22T18:08:27Z</time>
</trkpt>
<trkpt lat="42.85428166666667" lon="-5.2507133333333345">
<ele>1158</ele>
<time>2016-08-22T18:08:29Z</time>
</trkpt>
<trkpt lat="42.85428166666667" lon="-5.2507133333333345">
<ele>1158</ele>
<time>2016-08-22T18:08:31Z</time>
</trkpt>
<trkpt lat="42.85428166666667" lon="-5.2507133333333345">
<ele>1158</ele>
<time>2016-08-22T18:08:33Z</time>
</trkpt>
<trkpt lat="42.85428166666667" lon="-5.2507133333333345">
<ele>1158</ele>
<time>2016-08-22T18:08:35Z</time>
</trkpt>
<trkpt lat="42.85428166666667" lon="-5.2507133333333345">
<ele>1158</ele>
<time>2016-08-22T18:08:37Z</time>
</trkpt>
<trkpt lat="42.85428166666667" lon="-5.2507133333333345">
<ele>1158</ele>
<time>2016-08-22T18:08:39Z</time>
</trkpt>
<trkpt lat="42.85428166666667" lon="-5.2507133333333345">
<ele>1158</ele>
<time>2016-08-22T18:08:41Z</time>
</trkpt>
<trkpt lat="42.85428166666667" lon="-5.2507133333333345">
<ele>1158</ele>
<time>2016-08-22T18:08:43Z</time>
</trkpt>
<trkpt lat="42.85428166666667" lon="-5.2507133333333345">
<ele>1158</ele>
<time>2016-08-22T18:08:45Z</time>
</trkpt>
<trkpt lat="42.85428166666667" lon="-5.2507133333333345">
<ele>1158</ele>
<time>2016-08-22T18:08:47Z</time>
</trkpt>
<trkpt lat="42.85428166666667" lon="-5.2507133333333345">
<ele>1158</ele>
<time>2016-08-22T18:08:49Z</time>
</trkpt>
<trkpt lat="42.85428166666667" lon="-5.2507133333333345">
<ele>1158</ele>
<time>2016-08-22T18:08:51Z</time>
</trkpt>
<trkpt lat="42.85428166666667" lon="-5.2507133333333345">
<ele>1158</ele>
<time>2016-08-22T18:08:53Z</time>
</trkpt>
<trkpt lat="42.85428166666667" lon="-5.2507133333333345">
<ele>1158</ele>
<time>2016-08-22T18:08:55Z</time>
</trkpt>
<trkpt lat="42.85428166666667" lon="-5.2507133333333345">
<ele>1158</ele>
<time>2016-08-22T18:08:57Z</time>
</trkpt>
<trkpt lat="42.85428166666667" lon="-5.2507133333333345">
<ele>1158</ele>
<time>2016-08-22T18:08:59Z</time>
</trkpt>
<trkpt lat="42.85428166666667" lon="-5.2507133333333345">
<ele>1158</ele>
<time>2016-08-22T18:09:01Z</time>
</trkpt>
<trkpt lat="42.85428166666667" lon="-5.2507133333333345">
<ele>1158</ele>
<time>2016-08-22T18:09:03Z</time>
</trkpt>
<trkpt lat="42.85428166666667" lon="-5.2507133333333345">
<ele>1158</ele>
<time>2016-08-22T18:09:05Z</time>
</trkpt>
<trkpt lat="42.85428166666667" lon="-5.2507133333333345">
<ele>1158</ele>
<time>2016-08-22T18:09:07Z</time>
</trkpt>
<trkpt lat="42.85428166666667" lon="-5.2507133333333345">
<ele>1158</ele>
<time>2016-08-22T18:09:09Z</time>
</trkpt>
<trkpt lat="42.85428166666667" lon="-5.2507133333333345">
<ele>1158</ele>
<time>2016-08-22T18:09:11Z</time>
</trkpt>
<trkpt lat="42.85428166666667" lon="-5.2507133333333345">
<ele>1158</ele>
<time>2016-08-22T18:09:13Z</time>
</trkpt>
<trkpt lat="42.85428166666667" lon="-5.2507133333333345">
<ele>1158</ele>
<time>2016-08-22T18:09:15Z</time>
</trkpt>
<trkpt lat="42.85428166666667" lon="-5.2507133333333345">
<ele>1158</ele>
<time>2016-08-22T18:09:17Z</time>
</trkpt>
<trkpt lat="42.85428166666667" lon="-5.2507133333333345">
<ele>1158</ele>
<time>2016-08-22T18:09:19Z</time>
</trkpt>
<trkpt lat="42.85428166666667" lon="-5.2507133333333345">
<ele>1158</ele>
<time>2016-08-22T18:09:21Z</time>
</trkpt>
<trkpt lat="42.85428166666667" lon="-5.2507133333333345">
<ele>1158</ele>
<time>2016-08-22T18:09:23Z</time>
</trkpt>
<trkpt lat="42.85428166666667" lon="-5.2507133333333345">
<ele>1158</ele>
<time>2016-08-22T18:09:25Z</time>
</trkpt>
<trkpt lat="42.85428166666667" lon="-5.2507133333333345">
<ele>1158</ele>
<time>2016-08-22T18:09:27Z</time>
</trkpt>
<trkpt lat="42.85428166666667" lon="-5.2507133333333345">
<ele>1158</ele>
<time>2016-08-22T18:09:29Z</time>
</trkpt>
<trkpt lat="42.85428166666667" lon="-5.2507133333333345">
<ele>1158</ele>
<time>2016-08-22T18:09:31Z</time>
</trkpt>
<trkpt lat="42.85428166666667" lon="-5.2507133333333345">
<ele>1158</ele>
<time>2016-08-22T18:09:33Z</time>
</trkpt>
<trkpt lat="42.85428166666667" lon="-5.2507133333333345">
<ele>1158</ele>
<time>2016-08-22T18:09:35Z</time>
</trkpt>
<trkpt lat="42.85428166666667" lon="-5.2507133333333345">
<ele>1158</ele>
<time>2016-08-22T18:09:37Z</time>
</trkpt>
<trkpt lat="42.85428166666667" lon="-5.2507133333333345">
<ele>1158</ele>
<time>2016-08-22T18:09:39Z</time>
</trkpt>
<trkpt lat="42.85428166666667" lon="-5.2507133333333345">
<ele>1158</ele>
<time>2016-08-22T18:09:41Z</time>
</trkpt>
<trkpt lat="42.85428166666667" lon="-5.2507133333333345">
<ele>1158</ele>
<time>2016-08-22T18:09:43Z</time>
</trkpt>
<trkpt lat="42.85428166666667" lon="-5.2507133333333345">
<ele>1158</ele>
<time>2016-08-22T18:09:45Z</time>
</trkpt>
<trkpt lat="42.85428166666667" lon="-5.2507133333333345">
<ele>1158</ele>
<time>2016-08-22T18:09:47Z</time>
</trkpt>
<trkpt lat="42.85428166666667" lon="-5.2507133333333345">
<ele>1158</ele>
<time>2016-08-22T18:09:49Z</time>
</trkpt>
<trkpt lat="42.85428166666667" lon="-5.2507133333333345">
<ele>1158</ele>
<time>2016-08-22T18:09:51Z</time>
</trkpt>
<trkpt lat="42.85428166666667" lon="-5.2507133333333345">
<ele>1158</ele>
<time>2016-08-22T18:09:53Z</time>
</trkpt>
<trkpt lat="42.85428166666667" lon="-5.2507133333333345">
<ele>1158</ele>
<time>2016-08-22T18:09:55Z</time>
</trkpt>
<trkpt lat="42.85428166666667" lon="-5.2507133333333345">
<ele>1158</ele>
<time>2016-08-22T18:09:57Z</time>
</trkpt>
<trkpt lat="42.85428166666667" lon="-5.2507133333333345">
<ele>1158</ele>
<time>2016-08-22T18:09:59Z</time>
</trkpt>
<trkpt lat="42.85428166666667" lon="-5.2507133333333345">
<ele>1158</ele>
<time>2016-08-22T18:10:01Z</time>
</trkpt>
<trkpt lat="42.85428166666667" lon="-5.2507133333333345">
<ele>1158</ele>
<time>2016-08-22T18:10:03Z</time>
</trkpt>
<trkpt lat="42.85428166666667" lon="-5.2507133333333345">
<ele>1158</ele>
<time>2016-08-22T18:10:05Z</time>
</trkpt>
<trkpt lat="42.85428166666667" lon="-5.2507133333333345">
<ele>1158</ele>
<time>2016-08-22T18:10:07Z</time>
</trkpt>
<trkpt lat="42.85428166666667" lon="-5.2507133333333345">
<ele>1158</ele>
<time>2016-08-22T18:10:09Z</time>
</trkpt>
<trkpt lat="42.85428166666667" lon="-5.2507133333333345">
<ele>1158</ele>
<time>2016-08-22T18:10:11Z</time>
</trkpt>
<trkpt lat="42.85428166666667" lon="-5.2507133333333345">
<ele>1158</ele>
<time>2016-08-22T18:10:13Z</time>
</trkpt>
<trkpt lat="42.85428166666667" lon="-5.2507133333333345">
<ele>1158</ele>
<time>2016-08-22T18:10:15Z</time>
</trkpt>
<trkpt lat="42.85428166666667" lon="-5.2507133333333345">
<ele>1158</ele>
<time>2016-08-22T18:10:17Z</time>
</trkpt>
<trkpt lat="42.85428166666667" lon="-5.2507133333333345">
<ele>1158</ele>
<time>2016-08-22T18:10:19Z</time>
</trkpt>
<trkpt lat="42.85428166666667" lon="-5.2507133333333345">
<ele>1158</ele>
<time>2016-08-22T18:10:21Z</time>
</trkpt>
<trkpt lat="42.85428166666667" lon="-5.2507133333333345">
<ele>1158</ele>
<time>2016-08-22T18:10:23Z</time>
</trkpt>
<trkpt lat="42.85428166666667" lon="-5.2507133333333345">
<ele>1158</ele>
<time>2016-08-22T18:10:25Z</time>
</trkpt>
<trkpt lat="42.85428166666667" lon="-5.2507133333333345">
<ele>1158</ele>
<time>2016-08-22T18:10:27Z</time>
</trkpt>
<trkpt lat="42.85428166666667" lon="-5.2507133333333345">
<ele>1158</ele>
<time>2016-08-22T18:10:29Z</time>
</trkpt>
<trkpt lat="42.85428166666667" lon="-5.2507133333333345">
<ele>1158</ele>
<time>2016-08-22T18:10:31Z</time>
</trkpt>
<trkpt lat="42.85428166666667" lon="-5.2507133333333345">
<ele>1158</ele>
<time>2016-08-22T18:10:33Z</time>
</trkpt>
<trkpt lat="42.85428166666667" lon="-5.2507133333333345">
<ele>1158</ele>
<time>2016-08-22T18:10:35Z</time>
</trkpt>
<trkpt lat="42.85428166666667" lon="-5.2507133333333345">
<ele>1158</ele>
<time>2016-08-22T18:10:37Z</time>
</trkpt>
<trkpt lat="42.85428166666667" lon="-5.2507133333333345">
<ele>1158</ele>
<time>2016-08-22T18:10:39Z</time>
</trkpt>
<trkpt lat="42.85428166666667" lon="-5.2507133333333345">
<ele>1158</ele>
<time>2016-08-22T18:10:41Z</time>
</trkpt>
<trkpt lat="" lon="">
<ele></ele>
<time>2016-08-22TZ</time>
</trkpt>
</trkseg>
</trk>
<wpt lat="" lon="">
	<name></name>
	<desc></desc>
	<cmt></cmt>
	<photoid></photoid>
	<type></type>
</wpt>
</gpx>
